<?xml version="1.0" encoding="UTF-8" standalone="no" ?>
<gpx xmlns="http://www.topografix.com/GPX/1/1" xmlns:xsi="http://www.w3.org/2001/XMLSchema-instance" xsi:schemaLocation="http://www.topografix.com/GPX/1/1 http://www.topografix.com/GPX/1/1/gpx.xsd" version="1.1" creator="VisuGPX - https://www.visugpx.com">
  <metadata>
    <name>Tourmalet</name>
    <desc><![CDATA[Tourmalet à vélo couché]]></desc>
  </metadata>
  <trk>
    <name><![CDATA[Tourmalet]]></name>
    <trkseg>
      <trkpt lat="42.98386" lon="0.22658">
        <ele>832</ele>
        <time>2016-07-31T07:52:32Z</time>
      </trkpt>
      <trkpt lat="42.98392" lon="0.22662">
        <ele>836.2</ele>
        <time>2016-07-31T07:52:34Z</time>
      </trkpt>
      <trkpt lat="42.98402" lon="0.22664">
        <ele>849</ele>
        <time>2016-07-31T07:53:04Z</time>
      </trkpt>
      <trkpt lat="42.98412" lon="0.22662">
        <ele>849.2</ele>
        <time>2016-07-31T07:53:37Z</time>
      </trkpt>
      <trkpt lat="42.98402" lon="0.22665">
        <ele>854.2</ele>
        <time>2016-07-31T07:54:24Z</time>
      </trkpt>
      <trkpt lat="42.98411" lon="0.22661">
        <ele>848.8</ele>
        <time>2016-07-31T08:01:32Z</time>
      </trkpt>
      <trkpt lat="42.98408" lon="0.22673">
        <ele>849.1</ele>
        <time>2016-07-31T08:02:41Z</time>
      </trkpt>
      <trkpt lat="42.98408" lon="0.22686">
        <ele>848.2</ele>
        <time>2016-07-31T08:02:45Z</time>
      </trkpt>
      <trkpt lat="42.98402" lon="0.22696">
        <ele>847.2</ele>
        <time>2016-07-31T08:02:55Z</time>
      </trkpt>
      <trkpt lat="42.98393" lon="0.22694">
        <ele>847</ele>
        <time>2016-07-31T08:02:59Z</time>
      </trkpt>
      <trkpt lat="42.98383" lon="0.22691">
        <ele>847.1</ele>
        <time>2016-07-31T08:03:02Z</time>
      </trkpt>
      <trkpt lat="42.98372" lon="0.22691">
        <ele>847.2</ele>
        <time>2016-07-31T08:03:05Z</time>
      </trkpt>
      <trkpt lat="42.98363" lon="0.22687">
        <ele>847.7</ele>
        <time>2016-07-31T08:03:08Z</time>
      </trkpt>
      <trkpt lat="42.98353" lon="0.22685">
        <ele>848.2</ele>
        <time>2016-07-31T08:03:11Z</time>
      </trkpt>
      <trkpt lat="42.98342" lon="0.22683">
        <ele>848.8</ele>
        <time>2016-07-31T08:03:15Z</time>
      </trkpt>
      <trkpt lat="42.98333" lon="0.22681">
        <ele>849.3</ele>
        <time>2016-07-31T08:03:18Z</time>
      </trkpt>
      <trkpt lat="42.98323" lon="0.2268">
        <ele>849.7</ele>
        <time>2016-07-31T08:03:21Z</time>
      </trkpt>
      <trkpt lat="42.98312" lon="0.22682">
        <ele>850.2</ele>
        <time>2016-07-31T08:03:25Z</time>
      </trkpt>
      <trkpt lat="42.98302" lon="0.22684">
        <ele>851</ele>
        <time>2016-07-31T08:03:28Z</time>
      </trkpt>
      <trkpt lat="42.98292" lon="0.22685">
        <ele>852.5</ele>
        <time>2016-07-31T08:03:31Z</time>
      </trkpt>
      <trkpt lat="42.98282" lon="0.22687">
        <ele>854.3</ele>
        <time>2016-07-31T08:03:34Z</time>
      </trkpt>
      <trkpt lat="42.98273" lon="0.22689">
        <ele>855.6</ele>
        <time>2016-07-31T08:03:37Z</time>
      </trkpt>
      <trkpt lat="42.98263" lon="0.22691">
        <ele>856.9</ele>
        <time>2016-07-31T08:03:40Z</time>
      </trkpt>
      <trkpt lat="42.98252" lon="0.22692">
        <ele>858.6</ele>
        <time>2016-07-31T08:03:43Z</time>
      </trkpt>
      <trkpt lat="42.98241" lon="0.22692">
        <ele>859.9</ele>
        <time>2016-07-31T08:03:46Z</time>
      </trkpt>
      <trkpt lat="42.9823" lon="0.22695">
        <ele>860</ele>
        <time>2016-07-31T08:03:49Z</time>
      </trkpt>
      <trkpt lat="42.98219" lon="0.22699">
        <ele>860.1</ele>
        <time>2016-07-31T08:03:52Z</time>
      </trkpt>
      <trkpt lat="42.98208" lon="0.22703">
        <ele>860.4</ele>
        <time>2016-07-31T08:03:55Z</time>
      </trkpt>
      <trkpt lat="42.98196" lon="0.22705">
        <ele>862</ele>
        <time>2016-07-31T08:03:58Z</time>
      </trkpt>
      <trkpt lat="42.98183" lon="0.22706">
        <ele>863</ele>
        <time>2016-07-31T08:04:01Z</time>
      </trkpt>
      <trkpt lat="42.98171" lon="0.22707">
        <ele>862.9</ele>
        <time>2016-07-31T08:04:04Z</time>
      </trkpt>
      <trkpt lat="42.98159" lon="0.22707">
        <ele>862.7</ele>
        <time>2016-07-31T08:04:07Z</time>
      </trkpt>
      <trkpt lat="42.98146" lon="0.22708">
        <ele>863.5</ele>
        <time>2016-07-31T08:04:10Z</time>
      </trkpt>
      <trkpt lat="42.98134" lon="0.2271">
        <ele>863.5</ele>
        <time>2016-07-31T08:04:13Z</time>
      </trkpt>
      <trkpt lat="42.98124" lon="0.22711">
        <ele>863.5</ele>
        <time>2016-07-31T08:04:16Z</time>
      </trkpt>
      <trkpt lat="42.98115" lon="0.22713">
        <ele>864.3</ele>
        <time>2016-07-31T08:04:19Z</time>
      </trkpt>
      <trkpt lat="42.98104" lon="0.22715">
        <ele>865.4</ele>
        <time>2016-07-31T08:04:23Z</time>
      </trkpt>
      <trkpt lat="42.98093" lon="0.22717">
        <ele>866.8</ele>
        <time>2016-07-31T08:04:27Z</time>
      </trkpt>
      <trkpt lat="42.98082" lon="0.22719">
        <ele>866.4</ele>
        <time>2016-07-31T08:04:31Z</time>
      </trkpt>
      <trkpt lat="42.98071" lon="0.22721">
        <ele>866.4</ele>
        <time>2016-07-31T08:04:35Z</time>
      </trkpt>
      <trkpt lat="42.9806" lon="0.22722">
        <ele>856.8</ele>
        <time>2016-07-31T08:04:38Z</time>
      </trkpt>
      <trkpt lat="42.98051" lon="0.22726">
        <ele>859.4</ele>
        <time>2016-07-31T08:04:41Z</time>
      </trkpt>
      <trkpt lat="42.98041" lon="0.22732">
        <ele>860</ele>
        <time>2016-07-31T08:04:44Z</time>
      </trkpt>
      <trkpt lat="42.98031" lon="0.22738">
        <ele>861.2</ele>
        <time>2016-07-31T08:04:47Z</time>
      </trkpt>
      <trkpt lat="42.98021" lon="0.22744">
        <ele>862.3</ele>
        <time>2016-07-31T08:04:50Z</time>
      </trkpt>
      <trkpt lat="42.98011" lon="0.22748">
        <ele>863.2</ele>
        <time>2016-07-31T08:04:53Z</time>
      </trkpt>
      <trkpt lat="42.98001" lon="0.22751">
        <ele>863.6</ele>
        <time>2016-07-31T08:04:56Z</time>
      </trkpt>
      <trkpt lat="42.9799" lon="0.22757">
        <ele>864.5</ele>
        <time>2016-07-31T08:04:59Z</time>
      </trkpt>
      <trkpt lat="42.9798" lon="0.22764">
        <ele>864.9</ele>
        <time>2016-07-31T08:05:02Z</time>
      </trkpt>
      <trkpt lat="42.9797" lon="0.22771">
        <ele>865.3</ele>
        <time>2016-07-31T08:05:05Z</time>
      </trkpt>
      <trkpt lat="42.97958" lon="0.22779">
        <ele>865.8</ele>
        <time>2016-07-31T08:05:08Z</time>
      </trkpt>
      <trkpt lat="42.97946" lon="0.22786">
        <ele>866.3</ele>
        <time>2016-07-31T08:05:11Z</time>
      </trkpt>
      <trkpt lat="42.97936" lon="0.22788">
        <ele>866.4</ele>
        <time>2016-07-31T08:05:13Z</time>
      </trkpt>
      <trkpt lat="42.97927" lon="0.22789">
        <ele>866.3</ele>
        <time>2016-07-31T08:05:15Z</time>
      </trkpt>
      <trkpt lat="42.97917" lon="0.2279">
        <ele>866.7</ele>
        <time>2016-07-31T08:05:17Z</time>
      </trkpt>
      <trkpt lat="42.97907" lon="0.22791">
        <ele>867.6</ele>
        <time>2016-07-31T08:05:19Z</time>
      </trkpt>
      <trkpt lat="42.97897" lon="0.22794">
        <ele>868.3</ele>
        <time>2016-07-31T08:05:21Z</time>
      </trkpt>
      <trkpt lat="42.97888" lon="0.22797">
        <ele>868.7</ele>
        <time>2016-07-31T08:05:23Z</time>
      </trkpt>
      <trkpt lat="42.97875" lon="0.22802">
        <ele>869.6</ele>
        <time>2016-07-31T08:05:26Z</time>
      </trkpt>
      <trkpt lat="42.97864" lon="0.22808">
        <ele>871</ele>
        <time>2016-07-31T08:05:29Z</time>
      </trkpt>
      <trkpt lat="42.97853" lon="0.2281">
        <ele>872.9</ele>
        <time>2016-07-31T08:05:32Z</time>
      </trkpt>
      <trkpt lat="42.97843" lon="0.22811">
        <ele>874.1</ele>
        <time>2016-07-31T08:05:35Z</time>
      </trkpt>
      <trkpt lat="42.97834" lon="0.22812">
        <ele>875.4</ele>
        <time>2016-07-31T08:05:38Z</time>
      </trkpt>
      <trkpt lat="42.97822" lon="0.22813">
        <ele>877.6</ele>
        <time>2016-07-31T08:05:42Z</time>
      </trkpt>
      <trkpt lat="42.97812" lon="0.22814">
        <ele>879.3</ele>
        <time>2016-07-31T08:05:46Z</time>
      </trkpt>
      <trkpt lat="42.97802" lon="0.22817">
        <ele>880.5</ele>
        <time>2016-07-31T08:05:50Z</time>
      </trkpt>
      <trkpt lat="42.97792" lon="0.2282">
        <ele>880.8</ele>
        <time>2016-07-31T08:05:54Z</time>
      </trkpt>
      <trkpt lat="42.97782" lon="0.22825">
        <ele>880.6</ele>
        <time>2016-07-31T08:05:58Z</time>
      </trkpt>
      <trkpt lat="42.97772" lon="0.2283">
        <ele>881.3</ele>
        <time>2016-07-31T08:06:02Z</time>
      </trkpt>
      <trkpt lat="42.97762" lon="0.22835">
        <ele>883.9</ele>
        <time>2016-07-31T08:06:06Z</time>
      </trkpt>
      <trkpt lat="42.97751" lon="0.22838">
        <ele>885.8</ele>
        <time>2016-07-31T08:06:10Z</time>
      </trkpt>
      <trkpt lat="42.97741" lon="0.22839">
        <ele>887.9</ele>
        <time>2016-07-31T08:06:15Z</time>
      </trkpt>
      <trkpt lat="42.9773" lon="0.22838">
        <ele>889.8</ele>
        <time>2016-07-31T08:06:20Z</time>
      </trkpt>
      <trkpt lat="42.97719" lon="0.22838">
        <ele>891.9</ele>
        <time>2016-07-31T08:06:25Z</time>
      </trkpt>
      <trkpt lat="42.97709" lon="0.22838">
        <ele>894</ele>
        <time>2016-07-31T08:06:30Z</time>
      </trkpt>
      <trkpt lat="42.97699" lon="0.22838">
        <ele>896.2</ele>
        <time>2016-07-31T08:06:35Z</time>
      </trkpt>
      <trkpt lat="42.9769" lon="0.22838">
        <ele>896.8</ele>
        <time>2016-07-31T08:06:40Z</time>
      </trkpt>
      <trkpt lat="42.9768" lon="0.22836">
        <ele>897.4</ele>
        <time>2016-07-31T08:06:45Z</time>
      </trkpt>
      <trkpt lat="42.9767" lon="0.22835">
        <ele>899.5</ele>
        <time>2016-07-31T08:06:50Z</time>
      </trkpt>
      <trkpt lat="42.97661" lon="0.22832">
        <ele>901.3</ele>
        <time>2016-07-31T08:06:55Z</time>
      </trkpt>
      <trkpt lat="42.97652" lon="0.22829">
        <ele>902</ele>
        <time>2016-07-31T08:07:00Z</time>
      </trkpt>
      <trkpt lat="42.97641" lon="0.22827">
        <ele>902.2</ele>
        <time>2016-07-31T08:07:05Z</time>
      </trkpt>
      <trkpt lat="42.9763" lon="0.22825">
        <ele>902.7</ele>
        <time>2016-07-31T08:07:09Z</time>
      </trkpt>
      <trkpt lat="42.97618" lon="0.22823">
        <ele>902.8</ele>
        <time>2016-07-31T08:07:13Z</time>
      </trkpt>
      <trkpt lat="42.97608" lon="0.22824">
        <ele>902.3</ele>
        <time>2016-07-31T08:07:16Z</time>
      </trkpt>
      <trkpt lat="42.97597" lon="0.22824">
        <ele>902.6</ele>
        <time>2016-07-31T08:07:19Z</time>
      </trkpt>
      <trkpt lat="42.97588" lon="0.22825">
        <ele>902.8</ele>
        <time>2016-07-31T08:07:21Z</time>
      </trkpt>
      <trkpt lat="42.97579" lon="0.22825">
        <ele>902.7</ele>
        <time>2016-07-31T08:07:23Z</time>
      </trkpt>
      <trkpt lat="42.97569" lon="0.22828">
        <ele>902.9</ele>
        <time>2016-07-31T08:07:25Z</time>
      </trkpt>
      <trkpt lat="42.97558" lon="0.22832">
        <ele>902.3</ele>
        <time>2016-07-31T08:07:27Z</time>
      </trkpt>
      <trkpt lat="42.97548" lon="0.22836">
        <ele>901.9</ele>
        <time>2016-07-31T08:07:29Z</time>
      </trkpt>
      <trkpt lat="42.97537" lon="0.22841">
        <ele>901.7</ele>
        <time>2016-07-31T08:07:31Z</time>
      </trkpt>
      <trkpt lat="42.97527" lon="0.22847">
        <ele>901.3</ele>
        <time>2016-07-31T08:07:33Z</time>
      </trkpt>
      <trkpt lat="42.97517" lon="0.22854">
        <ele>900.7</ele>
        <time>2016-07-31T08:07:35Z</time>
      </trkpt>
      <trkpt lat="42.97508" lon="0.22861">
        <ele>900.9</ele>
        <time>2016-07-31T08:07:37Z</time>
      </trkpt>
      <trkpt lat="42.975" lon="0.22869">
        <ele>900.5</ele>
        <time>2016-07-31T08:07:39Z</time>
      </trkpt>
      <trkpt lat="42.97491" lon="0.22876">
        <ele>900.7</ele>
        <time>2016-07-31T08:07:41Z</time>
      </trkpt>
      <trkpt lat="42.97482" lon="0.22883">
        <ele>900.6</ele>
        <time>2016-07-31T08:07:43Z</time>
      </trkpt>
      <trkpt lat="42.97471" lon="0.22892">
        <ele>900.7</ele>
        <time>2016-07-31T08:07:46Z</time>
      </trkpt>
      <trkpt lat="42.97463" lon="0.22899">
        <ele>901.1</ele>
        <time>2016-07-31T08:07:48Z</time>
      </trkpt>
      <trkpt lat="42.97455" lon="0.22905">
        <ele>901.4</ele>
        <time>2016-07-31T08:07:50Z</time>
      </trkpt>
      <trkpt lat="42.97444" lon="0.22913">
        <ele>902.5</ele>
        <time>2016-07-31T08:07:53Z</time>
      </trkpt>
      <trkpt lat="42.97435" lon="0.2292">
        <ele>903.9</ele>
        <time>2016-07-31T08:07:56Z</time>
      </trkpt>
      <trkpt lat="42.97426" lon="0.22925">
        <ele>904.3</ele>
        <time>2016-07-31T08:07:59Z</time>
      </trkpt>
      <trkpt lat="42.97418" lon="0.22931">
        <ele>906.4</ele>
        <time>2016-07-31T08:08:02Z</time>
      </trkpt>
      <trkpt lat="42.97409" lon="0.22939">
        <ele>908</ele>
        <time>2016-07-31T08:08:06Z</time>
      </trkpt>
      <trkpt lat="42.97399" lon="0.22947">
        <ele>908.4</ele>
        <time>2016-07-31T08:08:10Z</time>
      </trkpt>
      <trkpt lat="42.97388" lon="0.22955">
        <ele>908.8</ele>
        <time>2016-07-31T08:08:14Z</time>
      </trkpt>
      <trkpt lat="42.97379" lon="0.22963">
        <ele>909</ele>
        <time>2016-07-31T08:08:18Z</time>
      </trkpt>
      <trkpt lat="42.97369" lon="0.22971">
        <ele>909.9</ele>
        <time>2016-07-31T08:08:22Z</time>
      </trkpt>
      <trkpt lat="42.9736" lon="0.22978">
        <ele>910.8</ele>
        <time>2016-07-31T08:08:26Z</time>
      </trkpt>
      <trkpt lat="42.9735" lon="0.22985">
        <ele>910.3</ele>
        <time>2016-07-31T08:08:30Z</time>
      </trkpt>
      <trkpt lat="42.9734" lon="0.22993">
        <ele>912.2</ele>
        <time>2016-07-31T08:08:34Z</time>
      </trkpt>
      <trkpt lat="42.97332" lon="0.22998">
        <ele>913.3</ele>
        <time>2016-07-31T08:08:37Z</time>
      </trkpt>
      <trkpt lat="42.97323" lon="0.23002">
        <ele>913.9</ele>
        <time>2016-07-31T08:08:40Z</time>
      </trkpt>
      <trkpt lat="42.97313" lon="0.23005">
        <ele>914</ele>
        <time>2016-07-31T08:08:43Z</time>
      </trkpt>
      <trkpt lat="42.97304" lon="0.23006">
        <ele>913.6</ele>
        <time>2016-07-31T08:08:46Z</time>
      </trkpt>
      <trkpt lat="42.97294" lon="0.23007">
        <ele>913</ele>
        <time>2016-07-31T08:08:49Z</time>
      </trkpt>
      <trkpt lat="42.97283" lon="0.23008">
        <ele>912.5</ele>
        <time>2016-07-31T08:08:52Z</time>
      </trkpt>
      <trkpt lat="42.97272" lon="0.23009">
        <ele>912.8</ele>
        <time>2016-07-31T08:08:55Z</time>
      </trkpt>
      <trkpt lat="42.97261" lon="0.23009">
        <ele>913.1</ele>
        <time>2016-07-31T08:08:58Z</time>
      </trkpt>
      <trkpt lat="42.9725" lon="0.2301">
        <ele>913.1</ele>
        <time>2016-07-31T08:09:01Z</time>
      </trkpt>
      <trkpt lat="42.97239" lon="0.23011">
        <ele>912.5</ele>
        <time>2016-07-31T08:09:04Z</time>
      </trkpt>
      <trkpt lat="42.97229" lon="0.23012">
        <ele>912.4</ele>
        <time>2016-07-31T08:09:07Z</time>
      </trkpt>
      <trkpt lat="42.9722" lon="0.23015">
        <ele>912.9</ele>
        <time>2016-07-31T08:09:10Z</time>
      </trkpt>
      <trkpt lat="42.9721" lon="0.23019">
        <ele>912.5</ele>
        <time>2016-07-31T08:09:13Z</time>
      </trkpt>
      <trkpt lat="42.972" lon="0.23024">
        <ele>912.5</ele>
        <time>2016-07-31T08:09:16Z</time>
      </trkpt>
      <trkpt lat="42.9719" lon="0.23031">
        <ele>912.9</ele>
        <time>2016-07-31T08:09:19Z</time>
      </trkpt>
      <trkpt lat="42.9718" lon="0.23039">
        <ele>913.5</ele>
        <time>2016-07-31T08:09:22Z</time>
      </trkpt>
      <trkpt lat="42.97169" lon="0.23047">
        <ele>913.7</ele>
        <time>2016-07-31T08:09:25Z</time>
      </trkpt>
      <trkpt lat="42.97158" lon="0.23056">
        <ele>914.4</ele>
        <time>2016-07-31T08:09:28Z</time>
      </trkpt>
      <trkpt lat="42.97147" lon="0.23064">
        <ele>914.6</ele>
        <time>2016-07-31T08:09:31Z</time>
      </trkpt>
      <trkpt lat="42.97137" lon="0.23072">
        <ele>915.1</ele>
        <time>2016-07-31T08:09:34Z</time>
      </trkpt>
      <trkpt lat="42.97127" lon="0.23079">
        <ele>915.5</ele>
        <time>2016-07-31T08:09:37Z</time>
      </trkpt>
      <trkpt lat="42.97119" lon="0.23085">
        <ele>916.2</ele>
        <time>2016-07-31T08:09:40Z</time>
      </trkpt>
      <trkpt lat="42.97111" lon="0.23091">
        <ele>917.2</ele>
        <time>2016-07-31T08:09:43Z</time>
      </trkpt>
      <trkpt lat="42.97101" lon="0.23099">
        <ele>918.3</ele>
        <time>2016-07-31T08:09:47Z</time>
      </trkpt>
      <trkpt lat="42.97091" lon="0.23104">
        <ele>919.4</ele>
        <time>2016-07-31T08:09:51Z</time>
      </trkpt>
      <trkpt lat="42.97081" lon="0.23109">
        <ele>921.4</ele>
        <time>2016-07-31T08:09:55Z</time>
      </trkpt>
      <trkpt lat="42.97069" lon="0.23113">
        <ele>923.5</ele>
        <time>2016-07-31T08:09:59Z</time>
      </trkpt>
      <trkpt lat="42.9706" lon="0.23114">
        <ele>924.9</ele>
        <time>2016-07-31T08:10:02Z</time>
      </trkpt>
      <trkpt lat="42.97051" lon="0.23114">
        <ele>925.9</ele>
        <time>2016-07-31T08:10:05Z</time>
      </trkpt>
      <trkpt lat="42.97041" lon="0.23112">
        <ele>926.9</ele>
        <time>2016-07-31T08:10:08Z</time>
      </trkpt>
      <trkpt lat="42.97031" lon="0.23112">
        <ele>928.2</ele>
        <time>2016-07-31T08:10:11Z</time>
      </trkpt>
      <trkpt lat="42.97019" lon="0.2311">
        <ele>927.5</ele>
        <time>2016-07-31T08:10:15Z</time>
      </trkpt>
      <trkpt lat="42.97009" lon="0.23108">
        <ele>927.4</ele>
        <time>2016-07-31T08:10:18Z</time>
      </trkpt>
      <trkpt lat="42.97" lon="0.23105">
        <ele>928.1</ele>
        <time>2016-07-31T08:10:21Z</time>
      </trkpt>
      <trkpt lat="42.96991" lon="0.23102">
        <ele>930.3</ele>
        <time>2016-07-31T08:10:24Z</time>
      </trkpt>
      <trkpt lat="42.96982" lon="0.23099">
        <ele>931.2</ele>
        <time>2016-07-31T08:10:27Z</time>
      </trkpt>
      <trkpt lat="42.9697" lon="0.23096">
        <ele>932.1</ele>
        <time>2016-07-31T08:10:31Z</time>
      </trkpt>
      <trkpt lat="42.96959" lon="0.23092">
        <ele>932.9</ele>
        <time>2016-07-31T08:10:35Z</time>
      </trkpt>
      <trkpt lat="42.96948" lon="0.2309">
        <ele>934.4</ele>
        <time>2016-07-31T08:10:39Z</time>
      </trkpt>
      <trkpt lat="42.96937" lon="0.23085">
        <ele>935.3</ele>
        <time>2016-07-31T08:10:43Z</time>
      </trkpt>
      <trkpt lat="42.96927" lon="0.23079">
        <ele>935.9</ele>
        <time>2016-07-31T08:10:47Z</time>
      </trkpt>
      <trkpt lat="42.96917" lon="0.23073">
        <ele>936.8</ele>
        <time>2016-07-31T08:10:51Z</time>
      </trkpt>
      <trkpt lat="42.96907" lon="0.23067">
        <ele>937.6</ele>
        <time>2016-07-31T08:10:55Z</time>
      </trkpt>
      <trkpt lat="42.96897" lon="0.2306">
        <ele>938.4</ele>
        <time>2016-07-31T08:10:59Z</time>
      </trkpt>
      <trkpt lat="42.96887" lon="0.23053">
        <ele>938.3</ele>
        <time>2016-07-31T08:11:03Z</time>
      </trkpt>
      <trkpt lat="42.96877" lon="0.23047">
        <ele>938.6</ele>
        <time>2016-07-31T08:11:07Z</time>
      </trkpt>
      <trkpt lat="42.96866" lon="0.23041">
        <ele>939.1</ele>
        <time>2016-07-31T08:11:11Z</time>
      </trkpt>
      <trkpt lat="42.96856" lon="0.23037">
        <ele>940</ele>
        <time>2016-07-31T08:11:14Z</time>
      </trkpt>
      <trkpt lat="42.96846" lon="0.23034">
        <ele>940.1</ele>
        <time>2016-07-31T08:11:17Z</time>
      </trkpt>
      <trkpt lat="42.96836" lon="0.23031">
        <ele>940.6</ele>
        <time>2016-07-31T08:11:20Z</time>
      </trkpt>
      <trkpt lat="42.96826" lon="0.23029">
        <ele>940.8</ele>
        <time>2016-07-31T08:11:23Z</time>
      </trkpt>
      <trkpt lat="42.96815" lon="0.23028">
        <ele>941.3</ele>
        <time>2016-07-31T08:11:26Z</time>
      </trkpt>
      <trkpt lat="42.96804" lon="0.23027">
        <ele>941.6</ele>
        <time>2016-07-31T08:11:29Z</time>
      </trkpt>
      <trkpt lat="42.96793" lon="0.23025">
        <ele>942</ele>
        <time>2016-07-31T08:11:32Z</time>
      </trkpt>
      <trkpt lat="42.96782" lon="0.23023">
        <ele>942.2</ele>
        <time>2016-07-31T08:11:35Z</time>
      </trkpt>
      <trkpt lat="42.9677" lon="0.23021">
        <ele>942.7</ele>
        <time>2016-07-31T08:11:38Z</time>
      </trkpt>
      <trkpt lat="42.96758" lon="0.23019">
        <ele>942.4</ele>
        <time>2016-07-31T08:11:41Z</time>
      </trkpt>
      <trkpt lat="42.96749" lon="0.23019">
        <ele>941.6</ele>
        <time>2016-07-31T08:11:43Z</time>
      </trkpt>
      <trkpt lat="42.96738" lon="0.23019">
        <ele>941.3</ele>
        <time>2016-07-31T08:11:45Z</time>
      </trkpt>
      <trkpt lat="42.96726" lon="0.23021">
        <ele>941</ele>
        <time>2016-07-31T08:11:47Z</time>
      </trkpt>
      <trkpt lat="42.96714" lon="0.23025">
        <ele>940.6</ele>
        <time>2016-07-31T08:11:49Z</time>
      </trkpt>
      <trkpt lat="42.967" lon="0.23029">
        <ele>939.8</ele>
        <time>2016-07-31T08:11:51Z</time>
      </trkpt>
      <trkpt lat="42.96687" lon="0.23033">
        <ele>939.3</ele>
        <time>2016-07-31T08:11:53Z</time>
      </trkpt>
      <trkpt lat="42.96673" lon="0.23037">
        <ele>939</ele>
        <time>2016-07-31T08:11:55Z</time>
      </trkpt>
      <trkpt lat="42.96659" lon="0.2304">
        <ele>938.5</ele>
        <time>2016-07-31T08:11:57Z</time>
      </trkpt>
      <trkpt lat="42.96643" lon="0.23043">
        <ele>937.9</ele>
        <time>2016-07-31T08:11:59Z</time>
      </trkpt>
      <trkpt lat="42.96626" lon="0.23044">
        <ele>938.2</ele>
        <time>2016-07-31T08:12:01Z</time>
      </trkpt>
      <trkpt lat="42.96609" lon="0.23044">
        <ele>938</ele>
        <time>2016-07-31T08:12:03Z</time>
      </trkpt>
      <trkpt lat="42.96591" lon="0.23043">
        <ele>938</ele>
        <time>2016-07-31T08:12:05Z</time>
      </trkpt>
      <trkpt lat="42.96582" lon="0.23042">
        <ele>937.9</ele>
        <time>2016-07-31T08:12:06Z</time>
      </trkpt>
      <trkpt lat="42.96573" lon="0.23041">
        <ele>937.5</ele>
        <time>2016-07-31T08:12:07Z</time>
      </trkpt>
      <trkpt lat="42.96563" lon="0.2304">
        <ele>937.7</ele>
        <time>2016-07-31T08:12:08Z</time>
      </trkpt>
      <trkpt lat="42.96554" lon="0.23039">
        <ele>937.9</ele>
        <time>2016-07-31T08:12:09Z</time>
      </trkpt>
      <trkpt lat="42.96544" lon="0.23038">
        <ele>937.9</ele>
        <time>2016-07-31T08:12:10Z</time>
      </trkpt>
      <trkpt lat="42.96535" lon="0.23037">
        <ele>938.1</ele>
        <time>2016-07-31T08:12:11Z</time>
      </trkpt>
      <trkpt lat="42.96525" lon="0.23036">
        <ele>938.1</ele>
        <time>2016-07-31T08:12:12Z</time>
      </trkpt>
      <trkpt lat="42.96516" lon="0.23035">
        <ele>937.8</ele>
        <time>2016-07-31T08:12:13Z</time>
      </trkpt>
      <trkpt lat="42.96507" lon="0.23033">
        <ele>937.3</ele>
        <time>2016-07-31T08:12:14Z</time>
      </trkpt>
      <trkpt lat="42.96498" lon="0.23032">
        <ele>937.2</ele>
        <time>2016-07-31T08:12:15Z</time>
      </trkpt>
      <trkpt lat="42.96489" lon="0.23031">
        <ele>937.3</ele>
        <time>2016-07-31T08:12:16Z</time>
      </trkpt>
      <trkpt lat="42.9648" lon="0.2303">
        <ele>937.1</ele>
        <time>2016-07-31T08:12:17Z</time>
      </trkpt>
      <trkpt lat="42.9647" lon="0.2303">
        <ele>937.2</ele>
        <time>2016-07-31T08:12:18Z</time>
      </trkpt>
      <trkpt lat="42.96461" lon="0.23029">
        <ele>937.4</ele>
        <time>2016-07-31T08:12:19Z</time>
      </trkpt>
      <trkpt lat="42.96452" lon="0.23029">
        <ele>937.5</ele>
        <time>2016-07-31T08:12:20Z</time>
      </trkpt>
      <trkpt lat="42.96442" lon="0.23029">
        <ele>936.7</ele>
        <time>2016-07-31T08:12:21Z</time>
      </trkpt>
      <trkpt lat="42.96433" lon="0.23029">
        <ele>936.8</ele>
        <time>2016-07-31T08:12:22Z</time>
      </trkpt>
      <trkpt lat="42.96423" lon="0.2303">
        <ele>936.7</ele>
        <time>2016-07-31T08:12:23Z</time>
      </trkpt>
      <trkpt lat="42.96414" lon="0.2303">
        <ele>936.8</ele>
        <time>2016-07-31T08:12:24Z</time>
      </trkpt>
      <trkpt lat="42.96404" lon="0.23031">
        <ele>936.9</ele>
        <time>2016-07-31T08:12:25Z</time>
      </trkpt>
      <trkpt lat="42.96395" lon="0.23031">
        <ele>936.8</ele>
        <time>2016-07-31T08:12:26Z</time>
      </trkpt>
      <trkpt lat="42.96386" lon="0.23031">
        <ele>936.4</ele>
        <time>2016-07-31T08:12:27Z</time>
      </trkpt>
      <trkpt lat="42.96376" lon="0.23031">
        <ele>937.2</ele>
        <time>2016-07-31T08:12:28Z</time>
      </trkpt>
      <trkpt lat="42.96367" lon="0.23031">
        <ele>937.2</ele>
        <time>2016-07-31T08:12:29Z</time>
      </trkpt>
      <trkpt lat="42.96358" lon="0.23031">
        <ele>936.9</ele>
        <time>2016-07-31T08:12:30Z</time>
      </trkpt>
      <trkpt lat="42.96349" lon="0.23032">
        <ele>936.8</ele>
        <time>2016-07-31T08:12:31Z</time>
      </trkpt>
      <trkpt lat="42.9634" lon="0.23032">
        <ele>937.1</ele>
        <time>2016-07-31T08:12:32Z</time>
      </trkpt>
      <trkpt lat="42.96322" lon="0.23033">
        <ele>937.8</ele>
        <time>2016-07-31T08:12:34Z</time>
      </trkpt>
      <trkpt lat="42.96305" lon="0.23034">
        <ele>938.5</ele>
        <time>2016-07-31T08:12:36Z</time>
      </trkpt>
      <trkpt lat="42.96289" lon="0.23037">
        <ele>939.7</ele>
        <time>2016-07-31T08:12:38Z</time>
      </trkpt>
      <trkpt lat="42.96275" lon="0.23039">
        <ele>940.7</ele>
        <time>2016-07-31T08:12:40Z</time>
      </trkpt>
      <trkpt lat="42.96262" lon="0.2304">
        <ele>941.8</ele>
        <time>2016-07-31T08:12:42Z</time>
      </trkpt>
      <trkpt lat="42.9625" lon="0.2304">
        <ele>942.9</ele>
        <time>2016-07-31T08:12:44Z</time>
      </trkpt>
      <trkpt lat="42.9624" lon="0.23038">
        <ele>943.9</ele>
        <time>2016-07-31T08:12:46Z</time>
      </trkpt>
      <trkpt lat="42.9623" lon="0.23036">
        <ele>944.8</ele>
        <time>2016-07-31T08:12:48Z</time>
      </trkpt>
      <trkpt lat="42.96218" lon="0.23034">
        <ele>946</ele>
        <time>2016-07-31T08:12:51Z</time>
      </trkpt>
      <trkpt lat="42.96207" lon="0.23032">
        <ele>947.4</ele>
        <time>2016-07-31T08:12:54Z</time>
      </trkpt>
      <trkpt lat="42.96197" lon="0.2303">
        <ele>948.3</ele>
        <time>2016-07-31T08:12:57Z</time>
      </trkpt>
      <trkpt lat="42.96187" lon="0.23029">
        <ele>949.5</ele>
        <time>2016-07-31T08:13:00Z</time>
      </trkpt>
      <trkpt lat="42.96176" lon="0.23029">
        <ele>950.5</ele>
        <time>2016-07-31T08:13:04Z</time>
      </trkpt>
      <trkpt lat="42.96165" lon="0.23029">
        <ele>951.2</ele>
        <time>2016-07-31T08:13:08Z</time>
      </trkpt>
      <trkpt lat="42.96155" lon="0.23028">
        <ele>952.3</ele>
        <time>2016-07-31T08:13:12Z</time>
      </trkpt>
      <trkpt lat="42.96144" lon="0.23028">
        <ele>953.5</ele>
        <time>2016-07-31T08:13:16Z</time>
      </trkpt>
      <trkpt lat="42.96133" lon="0.23027">
        <ele>954.4</ele>
        <time>2016-07-31T08:13:20Z</time>
      </trkpt>
      <trkpt lat="42.96123" lon="0.23026">
        <ele>954.7</ele>
        <time>2016-07-31T08:13:23Z</time>
      </trkpt>
      <trkpt lat="42.96113" lon="0.23024">
        <ele>955.2</ele>
        <time>2016-07-31T08:13:26Z</time>
      </trkpt>
      <trkpt lat="42.96102" lon="0.23023">
        <ele>955.5</ele>
        <time>2016-07-31T08:13:29Z</time>
      </trkpt>
      <trkpt lat="42.96091" lon="0.23021">
        <ele>956.4</ele>
        <time>2016-07-31T08:13:32Z</time>
      </trkpt>
      <trkpt lat="42.96081" lon="0.2302">
        <ele>956.9</ele>
        <time>2016-07-31T08:13:35Z</time>
      </trkpt>
      <trkpt lat="42.96071" lon="0.23018">
        <ele>957.1</ele>
        <time>2016-07-31T08:13:38Z</time>
      </trkpt>
      <trkpt lat="42.96062" lon="0.23016">
        <ele>957.4</ele>
        <time>2016-07-31T08:13:41Z</time>
      </trkpt>
      <trkpt lat="42.96053" lon="0.23015">
        <ele>958</ele>
        <time>2016-07-31T08:13:44Z</time>
      </trkpt>
      <trkpt lat="42.96042" lon="0.23013">
        <ele>958.6</ele>
        <time>2016-07-31T08:13:48Z</time>
      </trkpt>
      <trkpt lat="42.96031" lon="0.2301">
        <ele>959.3</ele>
        <time>2016-07-31T08:13:52Z</time>
      </trkpt>
      <trkpt lat="42.9602" lon="0.23006">
        <ele>959.7</ele>
        <time>2016-07-31T08:13:56Z</time>
      </trkpt>
      <trkpt lat="42.96011" lon="0.23001">
        <ele>959.9</ele>
        <time>2016-07-31T08:13:59Z</time>
      </trkpt>
      <trkpt lat="42.96002" lon="0.22994">
        <ele>960.3</ele>
        <time>2016-07-31T08:14:02Z</time>
      </trkpt>
      <trkpt lat="42.95992" lon="0.22987">
        <ele>959.9</ele>
        <time>2016-07-31T08:14:05Z</time>
      </trkpt>
      <trkpt lat="42.95982" lon="0.22978">
        <ele>960.1</ele>
        <time>2016-07-31T08:14:08Z</time>
      </trkpt>
      <trkpt lat="42.95971" lon="0.22969">
        <ele>960.4</ele>
        <time>2016-07-31T08:14:11Z</time>
      </trkpt>
      <trkpt lat="42.9596" lon="0.2296">
        <ele>959.8</ele>
        <time>2016-07-31T08:14:14Z</time>
      </trkpt>
      <trkpt lat="42.95949" lon="0.2295">
        <ele>960.5</ele>
        <time>2016-07-31T08:14:17Z</time>
      </trkpt>
      <trkpt lat="42.95939" lon="0.2294">
        <ele>960.3</ele>
        <time>2016-07-31T08:14:20Z</time>
      </trkpt>
      <trkpt lat="42.95927" lon="0.2293">
        <ele>960.6</ele>
        <time>2016-07-31T08:14:23Z</time>
      </trkpt>
      <trkpt lat="42.9592" lon="0.22923">
        <ele>960.8</ele>
        <time>2016-07-31T08:14:25Z</time>
      </trkpt>
      <trkpt lat="42.95912" lon="0.22916">
        <ele>960.7</ele>
        <time>2016-07-31T08:14:27Z</time>
      </trkpt>
      <trkpt lat="42.95904" lon="0.22908">
        <ele>960.8</ele>
        <time>2016-07-31T08:14:29Z</time>
      </trkpt>
      <trkpt lat="42.95895" lon="0.22901">
        <ele>961</ele>
        <time>2016-07-31T08:14:31Z</time>
      </trkpt>
      <trkpt lat="42.95886" lon="0.22894">
        <ele>961.4</ele>
        <time>2016-07-31T08:14:33Z</time>
      </trkpt>
      <trkpt lat="42.95877" lon="0.22888">
        <ele>961.5</ele>
        <time>2016-07-31T08:14:35Z</time>
      </trkpt>
      <trkpt lat="42.95867" lon="0.22882">
        <ele>961.9</ele>
        <time>2016-07-31T08:14:37Z</time>
      </trkpt>
      <trkpt lat="42.95858" lon="0.22877">
        <ele>962.9</ele>
        <time>2016-07-31T08:14:39Z</time>
      </trkpt>
      <trkpt lat="42.95849" lon="0.22873">
        <ele>963.7</ele>
        <time>2016-07-31T08:14:41Z</time>
      </trkpt>
      <trkpt lat="42.95839" lon="0.22871">
        <ele>963.8</ele>
        <time>2016-07-31T08:14:43Z</time>
      </trkpt>
      <trkpt lat="42.9583" lon="0.2287">
        <ele>964.2</ele>
        <time>2016-07-31T08:14:45Z</time>
      </trkpt>
      <trkpt lat="42.9582" lon="0.2287">
        <ele>964.5</ele>
        <time>2016-07-31T08:14:47Z</time>
      </trkpt>
      <trkpt lat="42.9581" lon="0.2287">
        <ele>964.9</ele>
        <time>2016-07-31T08:14:49Z</time>
      </trkpt>
      <trkpt lat="42.95801" lon="0.22869">
        <ele>964.9</ele>
        <time>2016-07-31T08:14:51Z</time>
      </trkpt>
      <trkpt lat="42.95791" lon="0.22867">
        <ele>965.1</ele>
        <time>2016-07-31T08:14:53Z</time>
      </trkpt>
      <trkpt lat="42.95782" lon="0.22864">
        <ele>965.3</ele>
        <time>2016-07-31T08:14:55Z</time>
      </trkpt>
      <trkpt lat="42.95772" lon="0.2286">
        <ele>965.9</ele>
        <time>2016-07-31T08:14:57Z</time>
      </trkpt>
      <trkpt lat="42.95762" lon="0.22856">
        <ele>966.4</ele>
        <time>2016-07-31T08:14:59Z</time>
      </trkpt>
      <trkpt lat="42.95754" lon="0.2285">
        <ele>966.9</ele>
        <time>2016-07-31T08:15:01Z</time>
      </trkpt>
      <trkpt lat="42.95745" lon="0.22845">
        <ele>967.6</ele>
        <time>2016-07-31T08:15:03Z</time>
      </trkpt>
      <trkpt lat="42.95737" lon="0.22841">
        <ele>968.1</ele>
        <time>2016-07-31T08:15:05Z</time>
      </trkpt>
      <trkpt lat="42.95726" lon="0.22836">
        <ele>968.6</ele>
        <time>2016-07-31T08:15:08Z</time>
      </trkpt>
      <trkpt lat="42.95716" lon="0.22833">
        <ele>969.6</ele>
        <time>2016-07-31T08:15:11Z</time>
      </trkpt>
      <trkpt lat="42.95704" lon="0.22829">
        <ele>970.8</ele>
        <time>2016-07-31T08:15:15Z</time>
      </trkpt>
      <trkpt lat="42.95693" lon="0.22825">
        <ele>971.3</ele>
        <time>2016-07-31T08:15:19Z</time>
      </trkpt>
      <trkpt lat="42.95682" lon="0.22819">
        <ele>972.6</ele>
        <time>2016-07-31T08:15:23Z</time>
      </trkpt>
      <trkpt lat="42.95671" lon="0.22816">
        <ele>973.4</ele>
        <time>2016-07-31T08:15:27Z</time>
      </trkpt>
      <trkpt lat="42.9566" lon="0.22812">
        <ele>973.8</ele>
        <time>2016-07-31T08:15:31Z</time>
      </trkpt>
      <trkpt lat="42.9565" lon="0.22808">
        <ele>974.5</ele>
        <time>2016-07-31T08:15:35Z</time>
      </trkpt>
      <trkpt lat="42.95639" lon="0.22802">
        <ele>975.4</ele>
        <time>2016-07-31T08:15:39Z</time>
      </trkpt>
      <trkpt lat="42.95628" lon="0.22797">
        <ele>976.7</ele>
        <time>2016-07-31T08:15:43Z</time>
      </trkpt>
      <trkpt lat="42.95617" lon="0.22792">
        <ele>977.8</ele>
        <time>2016-07-31T08:15:47Z</time>
      </trkpt>
      <trkpt lat="42.95607" lon="0.22788">
        <ele>978.9</ele>
        <time>2016-07-31T08:15:51Z</time>
      </trkpt>
      <trkpt lat="42.95595" lon="0.22785">
        <ele>979.7</ele>
        <time>2016-07-31T08:15:55Z</time>
      </trkpt>
      <trkpt lat="42.95584" lon="0.22784">
        <ele>980.1</ele>
        <time>2016-07-31T08:15:59Z</time>
      </trkpt>
      <trkpt lat="42.95573" lon="0.22785">
        <ele>979.9</ele>
        <time>2016-07-31T08:16:03Z</time>
      </trkpt>
      <trkpt lat="42.95562" lon="0.22787">
        <ele>979.9</ele>
        <time>2016-07-31T08:16:07Z</time>
      </trkpt>
      <trkpt lat="42.95551" lon="0.2279">
        <ele>980.6</ele>
        <time>2016-07-31T08:16:11Z</time>
      </trkpt>
      <trkpt lat="42.95541" lon="0.22791">
        <ele>981</ele>
        <time>2016-07-31T08:16:14Z</time>
      </trkpt>
      <trkpt lat="42.95531" lon="0.22792">
        <ele>981.1</ele>
        <time>2016-07-31T08:16:17Z</time>
      </trkpt>
      <trkpt lat="42.95519" lon="0.22793">
        <ele>980.6</ele>
        <time>2016-07-31T08:16:20Z</time>
      </trkpt>
      <trkpt lat="42.95507" lon="0.22793">
        <ele>981.3</ele>
        <time>2016-07-31T08:16:23Z</time>
      </trkpt>
      <trkpt lat="42.95498" lon="0.22793">
        <ele>980.7</ele>
        <time>2016-07-31T08:16:25Z</time>
      </trkpt>
      <trkpt lat="42.95485" lon="0.22794">
        <ele>981</ele>
        <time>2016-07-31T08:16:28Z</time>
      </trkpt>
      <trkpt lat="42.95473" lon="0.22795">
        <ele>981.3</ele>
        <time>2016-07-31T08:16:31Z</time>
      </trkpt>
      <trkpt lat="42.9546" lon="0.22795">
        <ele>981.7</ele>
        <time>2016-07-31T08:16:34Z</time>
      </trkpt>
      <trkpt lat="42.95449" lon="0.22794">
        <ele>982.8</ele>
        <time>2016-07-31T08:16:37Z</time>
      </trkpt>
      <trkpt lat="42.95437" lon="0.22794">
        <ele>984.1</ele>
        <time>2016-07-31T08:16:40Z</time>
      </trkpt>
      <trkpt lat="42.95427" lon="0.22794">
        <ele>985</ele>
        <time>2016-07-31T08:16:43Z</time>
      </trkpt>
      <trkpt lat="42.95417" lon="0.22794">
        <ele>986.1</ele>
        <time>2016-07-31T08:16:46Z</time>
      </trkpt>
      <trkpt lat="42.95407" lon="0.22793">
        <ele>986.3</ele>
        <time>2016-07-31T08:16:49Z</time>
      </trkpt>
      <trkpt lat="42.95398" lon="0.22792">
        <ele>987</ele>
        <time>2016-07-31T08:16:52Z</time>
      </trkpt>
      <trkpt lat="42.95388" lon="0.22791">
        <ele>987.2</ele>
        <time>2016-07-31T08:16:55Z</time>
      </trkpt>
      <trkpt lat="42.95379" lon="0.22788">
        <ele>986.7</ele>
        <time>2016-07-31T08:16:58Z</time>
      </trkpt>
      <trkpt lat="42.9537" lon="0.22785">
        <ele>986.7</ele>
        <time>2016-07-31T08:17:01Z</time>
      </trkpt>
      <trkpt lat="42.95359" lon="0.22778">
        <ele>987</ele>
        <time>2016-07-31T08:17:05Z</time>
      </trkpt>
      <trkpt lat="42.9535" lon="0.22775">
        <ele>987.8</ele>
        <time>2016-07-31T08:17:08Z</time>
      </trkpt>
      <trkpt lat="42.95342" lon="0.2277">
        <ele>989</ele>
        <time>2016-07-31T08:17:11Z</time>
      </trkpt>
      <trkpt lat="42.95332" lon="0.22766">
        <ele>990.7</ele>
        <time>2016-07-31T08:17:14Z</time>
      </trkpt>
      <trkpt lat="42.95322" lon="0.22761">
        <ele>990.9</ele>
        <time>2016-07-31T08:17:17Z</time>
      </trkpt>
      <trkpt lat="42.95313" lon="0.22757">
        <ele>990.5</ele>
        <time>2016-07-31T08:17:20Z</time>
      </trkpt>
      <trkpt lat="42.95304" lon="0.22753">
        <ele>991.3</ele>
        <time>2016-07-31T08:17:23Z</time>
      </trkpt>
      <trkpt lat="42.95294" lon="0.22748">
        <ele>991.8</ele>
        <time>2016-07-31T08:17:26Z</time>
      </trkpt>
      <trkpt lat="42.95285" lon="0.22744">
        <ele>992.5</ele>
        <time>2016-07-31T08:17:29Z</time>
      </trkpt>
      <trkpt lat="42.95277" lon="0.2274">
        <ele>993.7</ele>
        <time>2016-07-31T08:17:32Z</time>
      </trkpt>
      <trkpt lat="42.95268" lon="0.22734">
        <ele>994.5</ele>
        <time>2016-07-31T08:17:35Z</time>
      </trkpt>
      <trkpt lat="42.95259" lon="0.2273">
        <ele>995.1</ele>
        <time>2016-07-31T08:17:38Z</time>
      </trkpt>
      <trkpt lat="42.9525" lon="0.22726">
        <ele>995.8</ele>
        <time>2016-07-31T08:17:41Z</time>
      </trkpt>
      <trkpt lat="42.95242" lon="0.22722">
        <ele>996.4</ele>
        <time>2016-07-31T08:17:44Z</time>
      </trkpt>
      <trkpt lat="42.95234" lon="0.22717">
        <ele>996.7</ele>
        <time>2016-07-31T08:17:47Z</time>
      </trkpt>
      <trkpt lat="42.95225" lon="0.2271">
        <ele>997.6</ele>
        <time>2016-07-31T08:17:50Z</time>
      </trkpt>
      <trkpt lat="42.95216" lon="0.22702">
        <ele>998.3</ele>
        <time>2016-07-31T08:17:53Z</time>
      </trkpt>
      <trkpt lat="42.95205" lon="0.22693">
        <ele>997.2</ele>
        <time>2016-07-31T08:17:56Z</time>
      </trkpt>
      <trkpt lat="42.95194" lon="0.22684">
        <ele>997</ele>
        <time>2016-07-31T08:17:59Z</time>
      </trkpt>
      <trkpt lat="42.95183" lon="0.22675">
        <ele>996</ele>
        <time>2016-07-31T08:18:02Z</time>
      </trkpt>
      <trkpt lat="42.95172" lon="0.22666">
        <ele>995.7</ele>
        <time>2016-07-31T08:18:05Z</time>
      </trkpt>
      <trkpt lat="42.95161" lon="0.22657">
        <ele>995.1</ele>
        <time>2016-07-31T08:18:08Z</time>
      </trkpt>
      <trkpt lat="42.95149" lon="0.22649">
        <ele>995.9</ele>
        <time>2016-07-31T08:18:11Z</time>
      </trkpt>
      <trkpt lat="42.95142" lon="0.22643">
        <ele>996.1</ele>
        <time>2016-07-31T08:18:13Z</time>
      </trkpt>
      <trkpt lat="42.95133" lon="0.22637">
        <ele>996.4</ele>
        <time>2016-07-31T08:18:15Z</time>
      </trkpt>
      <trkpt lat="42.95125" lon="0.22631">
        <ele>996.1</ele>
        <time>2016-07-31T08:18:17Z</time>
      </trkpt>
      <trkpt lat="42.95116" lon="0.22624">
        <ele>996.3</ele>
        <time>2016-07-31T08:18:19Z</time>
      </trkpt>
      <trkpt lat="42.95108" lon="0.22618">
        <ele>997.4</ele>
        <time>2016-07-31T08:18:21Z</time>
      </trkpt>
      <trkpt lat="42.95099" lon="0.22614">
        <ele>997.9</ele>
        <time>2016-07-31T08:18:23Z</time>
      </trkpt>
      <trkpt lat="42.95087" lon="0.22608">
        <ele>998.4</ele>
        <time>2016-07-31T08:18:26Z</time>
      </trkpt>
      <trkpt lat="42.95077" lon="0.22603">
        <ele>998.9</ele>
        <time>2016-07-31T08:18:29Z</time>
      </trkpt>
      <trkpt lat="42.95069" lon="0.22598">
        <ele>999.5</ele>
        <time>2016-07-31T08:18:32Z</time>
      </trkpt>
      <trkpt lat="42.95058" lon="0.22592">
        <ele>1000.5</ele>
        <time>2016-07-31T08:18:36Z</time>
      </trkpt>
      <trkpt lat="42.95047" lon="0.22587">
        <ele>1002</ele>
        <time>2016-07-31T08:18:40Z</time>
      </trkpt>
      <trkpt lat="42.95036" lon="0.22581">
        <ele>1002.8</ele>
        <time>2016-07-31T08:18:44Z</time>
      </trkpt>
      <trkpt lat="42.95026" lon="0.22575">
        <ele>1004</ele>
        <time>2016-07-31T08:18:48Z</time>
      </trkpt>
      <trkpt lat="42.95016" lon="0.2257">
        <ele>1005.1</ele>
        <time>2016-07-31T08:18:52Z</time>
      </trkpt>
      <trkpt lat="42.95006" lon="0.22564">
        <ele>1006.1</ele>
        <time>2016-07-31T08:18:56Z</time>
      </trkpt>
      <trkpt lat="42.94997" lon="0.2256">
        <ele>1007.9</ele>
        <time>2016-07-31T08:18:59Z</time>
      </trkpt>
      <trkpt lat="42.94988" lon="0.22558">
        <ele>1008.7</ele>
        <time>2016-07-31T08:19:03Z</time>
      </trkpt>
      <trkpt lat="42.94979" lon="0.22556">
        <ele>1009.7</ele>
        <time>2016-07-31T08:19:08Z</time>
      </trkpt>
      <trkpt lat="42.94969" lon="0.22555">
        <ele>1000.2</ele>
        <time>2016-07-31T08:19:11Z</time>
      </trkpt>
      <trkpt lat="42.9496" lon="0.22553">
        <ele>995.4</ele>
        <time>2016-07-31T08:19:15Z</time>
      </trkpt>
      <trkpt lat="42.94951" lon="0.22548">
        <ele>997</ele>
        <time>2016-07-31T08:19:21Z</time>
      </trkpt>
      <trkpt lat="42.94943" lon="0.22543">
        <ele>999.5</ele>
        <time>2016-07-31T08:19:26Z</time>
      </trkpt>
      <trkpt lat="42.94935" lon="0.22534">
        <ele>1001.7</ele>
        <time>2016-07-31T08:19:32Z</time>
      </trkpt>
      <trkpt lat="42.94927" lon="0.22524">
        <ele>1003</ele>
        <time>2016-07-31T08:19:37Z</time>
      </trkpt>
      <trkpt lat="42.94921" lon="0.22515">
        <ele>1004.4</ele>
        <time>2016-07-31T08:19:41Z</time>
      </trkpt>
      <trkpt lat="42.94915" lon="0.22505">
        <ele>1005.2</ele>
        <time>2016-07-31T08:19:45Z</time>
      </trkpt>
      <trkpt lat="42.9491" lon="0.22494">
        <ele>1004.6</ele>
        <time>2016-07-31T08:19:49Z</time>
      </trkpt>
      <trkpt lat="42.94904" lon="0.22483">
        <ele>1003</ele>
        <time>2016-07-31T08:19:53Z</time>
      </trkpt>
      <trkpt lat="42.949" lon="0.22471">
        <ele>1003.2</ele>
        <time>2016-07-31T08:19:57Z</time>
      </trkpt>
      <trkpt lat="42.94893" lon="0.22461">
        <ele>1005.4</ele>
        <time>2016-07-31T08:20:01Z</time>
      </trkpt>
      <trkpt lat="42.94884" lon="0.22454">
        <ele>1008.8</ele>
        <time>2016-07-31T08:20:05Z</time>
      </trkpt>
      <trkpt lat="42.94873" lon="0.22449">
        <ele>1011.4</ele>
        <time>2016-07-31T08:20:09Z</time>
      </trkpt>
      <trkpt lat="42.94863" lon="0.22446">
        <ele>1013.8</ele>
        <time>2016-07-31T08:20:13Z</time>
      </trkpt>
      <trkpt lat="42.94853" lon="0.22444">
        <ele>1015.6</ele>
        <time>2016-07-31T08:20:17Z</time>
      </trkpt>
      <trkpt lat="42.94843" lon="0.22441">
        <ele>1017.3</ele>
        <time>2016-07-31T08:20:21Z</time>
      </trkpt>
      <trkpt lat="42.94833" lon="0.22437">
        <ele>1018.5</ele>
        <time>2016-07-31T08:20:25Z</time>
      </trkpt>
      <trkpt lat="42.94823" lon="0.22431">
        <ele>1019.8</ele>
        <time>2016-07-31T08:20:29Z</time>
      </trkpt>
      <trkpt lat="42.94814" lon="0.22424">
        <ele>1020.7</ele>
        <time>2016-07-31T08:20:32Z</time>
      </trkpt>
      <trkpt lat="42.94803" lon="0.22417">
        <ele>1021.7</ele>
        <time>2016-07-31T08:20:35Z</time>
      </trkpt>
      <trkpt lat="42.9479" lon="0.2241">
        <ele>1022.2</ele>
        <time>2016-07-31T08:20:38Z</time>
      </trkpt>
      <trkpt lat="42.94782" lon="0.22405">
        <ele>1022.1</ele>
        <time>2016-07-31T08:20:40Z</time>
      </trkpt>
      <trkpt lat="42.9477" lon="0.22396">
        <ele>1022.7</ele>
        <time>2016-07-31T08:20:43Z</time>
      </trkpt>
      <trkpt lat="42.9476" lon="0.22389">
        <ele>1022.4</ele>
        <time>2016-07-31T08:20:46Z</time>
      </trkpt>
      <trkpt lat="42.94751" lon="0.2238">
        <ele>1023.9</ele>
        <time>2016-07-31T08:20:50Z</time>
      </trkpt>
      <trkpt lat="42.94742" lon="0.22371">
        <ele>1025</ele>
        <time>2016-07-31T08:20:54Z</time>
      </trkpt>
      <trkpt lat="42.94733" lon="0.22361">
        <ele>1026.4</ele>
        <time>2016-07-31T08:20:58Z</time>
      </trkpt>
      <trkpt lat="42.94725" lon="0.22352">
        <ele>1027.1</ele>
        <time>2016-07-31T08:21:02Z</time>
      </trkpt>
      <trkpt lat="42.94716" lon="0.22341">
        <ele>1026.9</ele>
        <time>2016-07-31T08:21:06Z</time>
      </trkpt>
      <trkpt lat="42.9471" lon="0.22331">
        <ele>1027.6</ele>
        <time>2016-07-31T08:21:09Z</time>
      </trkpt>
      <trkpt lat="42.94704" lon="0.22321">
        <ele>1028.2</ele>
        <time>2016-07-31T08:21:12Z</time>
      </trkpt>
      <trkpt lat="42.94698" lon="0.22308">
        <ele>1028.8</ele>
        <time>2016-07-31T08:21:15Z</time>
      </trkpt>
      <trkpt lat="42.94691" lon="0.22295">
        <ele>1029.2</ele>
        <time>2016-07-31T08:21:18Z</time>
      </trkpt>
      <trkpt lat="42.94686" lon="0.22282">
        <ele>1029.7</ele>
        <time>2016-07-31T08:21:21Z</time>
      </trkpt>
      <trkpt lat="42.94681" lon="0.22268">
        <ele>1029.6</ele>
        <time>2016-07-31T08:21:25Z</time>
      </trkpt>
      <trkpt lat="42.94676" lon="0.22255">
        <ele>1028.6</ele>
        <time>2016-07-31T08:21:29Z</time>
      </trkpt>
      <trkpt lat="42.94675" lon="0.2224">
        <ele>1027.6</ele>
        <time>2016-07-31T08:21:34Z</time>
      </trkpt>
      <trkpt lat="42.94674" lon="0.22227">
        <ele>1028.3</ele>
        <time>2016-07-31T08:21:39Z</time>
      </trkpt>
      <trkpt lat="42.94672" lon="0.22214">
        <ele>1028.9</ele>
        <time>2016-07-31T08:21:44Z</time>
      </trkpt>
      <trkpt lat="42.94669" lon="0.22201">
        <ele>1029.5</ele>
        <time>2016-07-31T08:21:49Z</time>
      </trkpt>
      <trkpt lat="42.94664" lon="0.22188">
        <ele>1030</ele>
        <time>2016-07-31T08:21:54Z</time>
      </trkpt>
      <trkpt lat="42.94659" lon="0.22177">
        <ele>1029.9</ele>
        <time>2016-07-31T08:21:59Z</time>
      </trkpt>
      <trkpt lat="42.94653" lon="0.22167">
        <ele>1027.6</ele>
        <time>2016-07-31T08:22:04Z</time>
      </trkpt>
      <trkpt lat="42.94649" lon="0.22155">
        <ele>1027.5</ele>
        <time>2016-07-31T08:22:09Z</time>
      </trkpt>
      <trkpt lat="42.94642" lon="0.22144">
        <ele>1029.5</ele>
        <time>2016-07-31T08:22:16Z</time>
      </trkpt>
      <trkpt lat="42.94631" lon="0.2214">
        <ele>1033.9</ele>
        <time>2016-07-31T08:22:21Z</time>
      </trkpt>
      <trkpt lat="42.94622" lon="0.22139">
        <ele>1036.3</ele>
        <time>2016-07-31T08:22:25Z</time>
      </trkpt>
      <trkpt lat="42.94612" lon="0.22136">
        <ele>1038.8</ele>
        <time>2016-07-31T08:22:30Z</time>
      </trkpt>
      <trkpt lat="42.94602" lon="0.22133">
        <ele>1040.5</ele>
        <time>2016-07-31T08:22:35Z</time>
      </trkpt>
      <trkpt lat="42.94593" lon="0.22127">
        <ele>1042</ele>
        <time>2016-07-31T08:22:40Z</time>
      </trkpt>
      <trkpt lat="42.94584" lon="0.22121">
        <ele>1043</ele>
        <time>2016-07-31T08:22:45Z</time>
      </trkpt>
      <trkpt lat="42.94577" lon="0.22113">
        <ele>1043.6</ele>
        <time>2016-07-31T08:22:50Z</time>
      </trkpt>
      <trkpt lat="42.9457" lon="0.22104">
        <ele>1042.8</ele>
        <time>2016-07-31T08:22:55Z</time>
      </trkpt>
      <trkpt lat="42.94564" lon="0.22094">
        <ele>1043.2</ele>
        <time>2016-07-31T08:23:00Z</time>
      </trkpt>
      <trkpt lat="42.94556" lon="0.22083">
        <ele>1043.2</ele>
        <time>2016-07-31T08:23:05Z</time>
      </trkpt>
      <trkpt lat="42.94549" lon="0.22074">
        <ele>1043.3</ele>
        <time>2016-07-31T08:23:09Z</time>
      </trkpt>
      <trkpt lat="42.94544" lon="0.22062">
        <ele>1043.8</ele>
        <time>2016-07-31T08:23:14Z</time>
      </trkpt>
      <trkpt lat="42.94539" lon="0.22051">
        <ele>1042.6</ele>
        <time>2016-07-31T08:23:19Z</time>
      </trkpt>
      <trkpt lat="42.94534" lon="0.2204">
        <ele>1041.7</ele>
        <time>2016-07-31T08:23:24Z</time>
      </trkpt>
      <trkpt lat="42.94527" lon="0.2203">
        <ele>1042.8</ele>
        <time>2016-07-31T08:23:29Z</time>
      </trkpt>
      <trkpt lat="42.94521" lon="0.22021">
        <ele>1044</ele>
        <time>2016-07-31T08:23:34Z</time>
      </trkpt>
      <trkpt lat="42.94512" lon="0.22016">
        <ele>1046.1</ele>
        <time>2016-07-31T08:23:37Z</time>
      </trkpt>
      <trkpt lat="42.94504" lon="0.22006">
        <ele>1050</ele>
        <time>2016-07-31T08:23:43Z</time>
      </trkpt>
      <trkpt lat="42.94496" lon="0.21997">
        <ele>1052.8</ele>
        <time>2016-07-31T08:23:49Z</time>
      </trkpt>
      <trkpt lat="42.94487" lon="0.21991">
        <ele>1055.5</ele>
        <time>2016-07-31T08:23:54Z</time>
      </trkpt>
      <trkpt lat="42.94479" lon="0.21985">
        <ele>1057</ele>
        <time>2016-07-31T08:23:59Z</time>
      </trkpt>
      <trkpt lat="42.9447" lon="0.21979">
        <ele>1059.5</ele>
        <time>2016-07-31T08:24:04Z</time>
      </trkpt>
      <trkpt lat="42.94461" lon="0.21971">
        <ele>1060.2</ele>
        <time>2016-07-31T08:24:09Z</time>
      </trkpt>
      <trkpt lat="42.94451" lon="0.21964">
        <ele>1061</ele>
        <time>2016-07-31T08:24:14Z</time>
      </trkpt>
      <trkpt lat="42.94443" lon="0.21958">
        <ele>1061.9</ele>
        <time>2016-07-31T08:24:19Z</time>
      </trkpt>
      <trkpt lat="42.94436" lon="0.21951">
        <ele>1063.1</ele>
        <time>2016-07-31T08:24:24Z</time>
      </trkpt>
      <trkpt lat="42.94429" lon="0.21942">
        <ele>1064.3</ele>
        <time>2016-07-31T08:24:29Z</time>
      </trkpt>
      <trkpt lat="42.94422" lon="0.21933">
        <ele>1065.6</ele>
        <time>2016-07-31T08:24:34Z</time>
      </trkpt>
      <trkpt lat="42.94415" lon="0.21923">
        <ele>1066.8</ele>
        <time>2016-07-31T08:24:39Z</time>
      </trkpt>
      <trkpt lat="42.94409" lon="0.21912">
        <ele>1066.9</ele>
        <time>2016-07-31T08:24:44Z</time>
      </trkpt>
      <trkpt lat="42.94402" lon="0.21902">
        <ele>1067.3</ele>
        <time>2016-07-31T08:24:49Z</time>
      </trkpt>
      <trkpt lat="42.94395" lon="0.21893">
        <ele>1068.1</ele>
        <time>2016-07-31T08:24:54Z</time>
      </trkpt>
      <trkpt lat="42.94387" lon="0.21885">
        <ele>1068.9</ele>
        <time>2016-07-31T08:24:59Z</time>
      </trkpt>
      <trkpt lat="42.94379" lon="0.21877">
        <ele>1069.8</ele>
        <time>2016-07-31T08:25:04Z</time>
      </trkpt>
      <trkpt lat="42.94371" lon="0.21867">
        <ele>1070.8</ele>
        <time>2016-07-31T08:25:09Z</time>
      </trkpt>
      <trkpt lat="42.94363" lon="0.21859">
        <ele>1072.1</ele>
        <time>2016-07-31T08:25:14Z</time>
      </trkpt>
      <trkpt lat="42.94354" lon="0.21852">
        <ele>1073.7</ele>
        <time>2016-07-31T08:25:20Z</time>
      </trkpt>
      <trkpt lat="42.94346" lon="0.21843">
        <ele>1075.6</ele>
        <time>2016-07-31T08:25:27Z</time>
      </trkpt>
      <trkpt lat="42.94338" lon="0.21834">
        <ele>1077.8</ele>
        <time>2016-07-31T08:25:32Z</time>
      </trkpt>
      <trkpt lat="42.94331" lon="0.21825">
        <ele>1079.1</ele>
        <time>2016-07-31T08:25:36Z</time>
      </trkpt>
      <trkpt lat="42.94328" lon="0.21813">
        <ele>1080.3</ele>
        <time>2016-07-31T08:25:40Z</time>
      </trkpt>
      <trkpt lat="42.94321" lon="0.21804">
        <ele>1081.3</ele>
        <time>2016-07-31T08:25:44Z</time>
      </trkpt>
      <trkpt lat="42.94314" lon="0.21794">
        <ele>1082.6</ele>
        <time>2016-07-31T08:25:49Z</time>
      </trkpt>
      <trkpt lat="42.94307" lon="0.21786">
        <ele>1084</ele>
        <time>2016-07-31T08:25:54Z</time>
      </trkpt>
      <trkpt lat="42.94298" lon="0.21779">
        <ele>1085.7</ele>
        <time>2016-07-31T08:25:59Z</time>
      </trkpt>
      <trkpt lat="42.94291" lon="0.21771">
        <ele>1087.3</ele>
        <time>2016-07-31T08:26:04Z</time>
      </trkpt>
      <trkpt lat="42.94284" lon="0.21761">
        <ele>1088.5</ele>
        <time>2016-07-31T08:26:09Z</time>
      </trkpt>
      <trkpt lat="42.94276" lon="0.21752">
        <ele>1089.6</ele>
        <time>2016-07-31T08:26:14Z</time>
      </trkpt>
      <trkpt lat="42.94269" lon="0.21744">
        <ele>1090.9</ele>
        <time>2016-07-31T08:26:19Z</time>
      </trkpt>
      <trkpt lat="42.94262" lon="0.21733">
        <ele>1091.8</ele>
        <time>2016-07-31T08:26:24Z</time>
      </trkpt>
      <trkpt lat="42.94257" lon="0.21721">
        <ele>1092.4</ele>
        <time>2016-07-31T08:26:29Z</time>
      </trkpt>
      <trkpt lat="42.94251" lon="0.21709">
        <ele>1093</ele>
        <time>2016-07-31T08:26:34Z</time>
      </trkpt>
      <trkpt lat="42.94245" lon="0.21697">
        <ele>1093.6</ele>
        <time>2016-07-31T08:26:39Z</time>
      </trkpt>
      <trkpt lat="42.94238" lon="0.21687">
        <ele>1094.1</ele>
        <time>2016-07-31T08:26:44Z</time>
      </trkpt>
      <trkpt lat="42.94235" lon="0.21675">
        <ele>1094.1</ele>
        <time>2016-07-31T08:26:48Z</time>
      </trkpt>
      <trkpt lat="42.9423" lon="0.21663">
        <ele>1093.9</ele>
        <time>2016-07-31T08:26:53Z</time>
      </trkpt>
      <trkpt lat="42.94223" lon="0.21653">
        <ele>1093.9</ele>
        <time>2016-07-31T08:26:58Z</time>
      </trkpt>
      <trkpt lat="42.94215" lon="0.21646">
        <ele>1094.7</ele>
        <time>2016-07-31T08:27:03Z</time>
      </trkpt>
      <trkpt lat="42.94206" lon="0.2164">
        <ele>1095</ele>
        <time>2016-07-31T08:27:08Z</time>
      </trkpt>
      <trkpt lat="42.94197" lon="0.21631">
        <ele>1094.8</ele>
        <time>2016-07-31T08:27:13Z</time>
      </trkpt>
      <trkpt lat="42.9419" lon="0.21621">
        <ele>1094.4</ele>
        <time>2016-07-31T08:27:18Z</time>
      </trkpt>
      <trkpt lat="42.94183" lon="0.2161">
        <ele>1094.3</ele>
        <time>2016-07-31T08:27:23Z</time>
      </trkpt>
      <trkpt lat="42.94182" lon="0.21597">
        <ele>1093.9</ele>
        <time>2016-07-31T08:27:28Z</time>
      </trkpt>
      <trkpt lat="42.94176" lon="0.21586">
        <ele>1094.6</ele>
        <time>2016-07-31T08:27:33Z</time>
      </trkpt>
      <trkpt lat="42.94172" lon="0.21575">
        <ele>1095.8</ele>
        <time>2016-07-31T08:27:38Z</time>
      </trkpt>
      <trkpt lat="42.94169" lon="0.2156">
        <ele>1097.2</ele>
        <time>2016-07-31T08:27:44Z</time>
      </trkpt>
      <trkpt lat="42.94163" lon="0.21548">
        <ele>1098.8</ele>
        <time>2016-07-31T08:27:50Z</time>
      </trkpt>
      <trkpt lat="42.9416" lon="0.21536">
        <ele>1100.3</ele>
        <time>2016-07-31T08:27:55Z</time>
      </trkpt>
      <trkpt lat="42.94155" lon="0.21523">
        <ele>1101.5</ele>
        <time>2016-07-31T08:28:00Z</time>
      </trkpt>
      <trkpt lat="42.9415" lon="0.21512">
        <ele>1102.7</ele>
        <time>2016-07-31T08:28:05Z</time>
      </trkpt>
      <trkpt lat="42.94144" lon="0.21502">
        <ele>1104.2</ele>
        <time>2016-07-31T08:28:10Z</time>
      </trkpt>
      <trkpt lat="42.94134" lon="0.21493">
        <ele>1106.1</ele>
        <time>2016-07-31T08:28:15Z</time>
      </trkpt>
      <trkpt lat="42.94127" lon="0.21483">
        <ele>1107.5</ele>
        <time>2016-07-31T08:28:21Z</time>
      </trkpt>
      <trkpt lat="42.9412" lon="0.21473">
        <ele>1108.3</ele>
        <time>2016-07-31T08:28:26Z</time>
      </trkpt>
      <trkpt lat="42.94113" lon="0.21461">
        <ele>1108.5</ele>
        <time>2016-07-31T08:28:31Z</time>
      </trkpt>
      <trkpt lat="42.94104" lon="0.21453">
        <ele>1109.2</ele>
        <time>2016-07-31T08:28:36Z</time>
      </trkpt>
      <trkpt lat="42.94098" lon="0.21444">
        <ele>1109.9</ele>
        <time>2016-07-31T08:28:41Z</time>
      </trkpt>
      <trkpt lat="42.94093" lon="0.21433">
        <ele>1110.9</ele>
        <time>2016-07-31T08:28:46Z</time>
      </trkpt>
      <trkpt lat="42.94084" lon="0.21426">
        <ele>1111.8</ele>
        <time>2016-07-31T08:28:50Z</time>
      </trkpt>
      <trkpt lat="42.94075" lon="0.21417">
        <ele>1112.2</ele>
        <time>2016-07-31T08:28:55Z</time>
      </trkpt>
      <trkpt lat="42.94068" lon="0.21409">
        <ele>1113.3</ele>
        <time>2016-07-31T08:29:00Z</time>
      </trkpt>
      <trkpt lat="42.94062" lon="0.21399">
        <ele>1114.6</ele>
        <time>2016-07-31T08:29:05Z</time>
      </trkpt>
      <trkpt lat="42.94055" lon="0.2139">
        <ele>1115.9</ele>
        <time>2016-07-31T08:29:10Z</time>
      </trkpt>
      <trkpt lat="42.94049" lon="0.21379">
        <ele>1117.2</ele>
        <time>2016-07-31T08:29:15Z</time>
      </trkpt>
      <trkpt lat="42.94041" lon="0.2137">
        <ele>1118</ele>
        <time>2016-07-31T08:29:19Z</time>
      </trkpt>
      <trkpt lat="42.94034" lon="0.21359">
        <ele>1118.8</ele>
        <time>2016-07-31T08:29:24Z</time>
      </trkpt>
      <trkpt lat="42.94025" lon="0.21352">
        <ele>1119.9</ele>
        <time>2016-07-31T08:29:29Z</time>
      </trkpt>
      <trkpt lat="42.94016" lon="0.21344">
        <ele>1121.2</ele>
        <time>2016-07-31T08:29:34Z</time>
      </trkpt>
      <trkpt lat="42.94006" lon="0.21342">
        <ele>1122.9</ele>
        <time>2016-07-31T08:29:39Z</time>
      </trkpt>
      <trkpt lat="42.93997" lon="0.21342">
        <ele>1124.6</ele>
        <time>2016-07-31T08:29:44Z</time>
      </trkpt>
      <trkpt lat="42.93987" lon="0.21336">
        <ele>1126</ele>
        <time>2016-07-31T08:29:49Z</time>
      </trkpt>
      <trkpt lat="42.93978" lon="0.21332">
        <ele>1127.2</ele>
        <time>2016-07-31T08:29:54Z</time>
      </trkpt>
      <trkpt lat="42.93969" lon="0.21329">
        <ele>1127.8</ele>
        <time>2016-07-31T08:29:58Z</time>
      </trkpt>
      <trkpt lat="42.9396" lon="0.21323">
        <ele>1129</ele>
        <time>2016-07-31T08:30:03Z</time>
      </trkpt>
      <trkpt lat="42.93954" lon="0.21312">
        <ele>1130.7</ele>
        <time>2016-07-31T08:30:08Z</time>
      </trkpt>
      <trkpt lat="42.93944" lon="0.21307">
        <ele>1131.7</ele>
        <time>2016-07-31T08:30:13Z</time>
      </trkpt>
      <trkpt lat="42.93936" lon="0.21301">
        <ele>1133.1</ele>
        <time>2016-07-31T08:30:18Z</time>
      </trkpt>
      <trkpt lat="42.93928" lon="0.21294">
        <ele>1133.7</ele>
        <time>2016-07-31T08:30:22Z</time>
      </trkpt>
      <trkpt lat="42.93919" lon="0.21287">
        <ele>1134.8</ele>
        <time>2016-07-31T08:30:27Z</time>
      </trkpt>
      <trkpt lat="42.93912" lon="0.21279">
        <ele>1135.7</ele>
        <time>2016-07-31T08:30:32Z</time>
      </trkpt>
      <trkpt lat="42.93905" lon="0.2127">
        <ele>1136.5</ele>
        <time>2016-07-31T08:30:37Z</time>
      </trkpt>
      <trkpt lat="42.93899" lon="0.21259">
        <ele>1138.1</ele>
        <time>2016-07-31T08:30:42Z</time>
      </trkpt>
      <trkpt lat="42.93891" lon="0.21251">
        <ele>1139.7</ele>
        <time>2016-07-31T08:30:47Z</time>
      </trkpt>
      <trkpt lat="42.93882" lon="0.21246">
        <ele>1140.3</ele>
        <time>2016-07-31T08:30:51Z</time>
      </trkpt>
      <trkpt lat="42.93874" lon="0.21237">
        <ele>1142.3</ele>
        <time>2016-07-31T08:30:56Z</time>
      </trkpt>
      <trkpt lat="42.93867" lon="0.21229">
        <ele>1144.2</ele>
        <time>2016-07-31T08:31:00Z</time>
      </trkpt>
      <trkpt lat="42.93861" lon="0.21219">
        <ele>1147</ele>
        <time>2016-07-31T08:31:06Z</time>
      </trkpt>
      <trkpt lat="42.93856" lon="0.21207">
        <ele>1151</ele>
        <time>2016-07-31T08:31:19Z</time>
      </trkpt>
      <trkpt lat="42.93852" lon="0.21195">
        <ele>1152.9</ele>
        <time>2016-07-31T08:31:26Z</time>
      </trkpt>
      <trkpt lat="42.93847" lon="0.21183">
        <ele>1154.4</ele>
        <time>2016-07-31T08:31:32Z</time>
      </trkpt>
      <trkpt lat="42.93839" lon="0.21175">
        <ele>1156.4</ele>
        <time>2016-07-31T08:31:39Z</time>
      </trkpt>
      <trkpt lat="42.93831" lon="0.21167">
        <ele>1158</ele>
        <time>2016-07-31T08:31:44Z</time>
      </trkpt>
      <trkpt lat="42.9382" lon="0.21164">
        <ele>1158.9</ele>
        <time>2016-07-31T08:31:47Z</time>
      </trkpt>
      <trkpt lat="42.93806" lon="0.21165">
        <ele>1159.4</ele>
        <time>2016-07-31T08:31:48Z</time>
      </trkpt>
      <trkpt lat="42.93797" lon="0.21164">
        <ele>1159.7</ele>
        <time>2016-07-31T08:31:49Z</time>
      </trkpt>
      <trkpt lat="42.93789" lon="0.2115">
        <ele>1160.6</ele>
        <time>2016-07-31T08:31:51Z</time>
      </trkpt>
      <trkpt lat="42.93783" lon="0.21139">
        <ele>1161.9</ele>
        <time>2016-07-31T08:31:56Z</time>
      </trkpt>
      <trkpt lat="42.93778" lon="0.21126">
        <ele>1163.3</ele>
        <time>2016-07-31T08:32:01Z</time>
      </trkpt>
      <trkpt lat="42.93774" lon="0.21112">
        <ele>1165.5</ele>
        <time>2016-07-31T08:32:06Z</time>
      </trkpt>
      <trkpt lat="42.93766" lon="0.21102">
        <ele>1167.7</ele>
        <time>2016-07-31T08:32:11Z</time>
      </trkpt>
      <trkpt lat="42.93758" lon="0.21094">
        <ele>1168.6</ele>
        <time>2016-07-31T08:32:16Z</time>
      </trkpt>
      <trkpt lat="42.93751" lon="0.21085">
        <ele>1168.9</ele>
        <time>2016-07-31T08:32:21Z</time>
      </trkpt>
      <trkpt lat="42.93744" lon="0.21076">
        <ele>1169.4</ele>
        <time>2016-07-31T08:32:26Z</time>
      </trkpt>
      <trkpt lat="42.9374" lon="0.2106">
        <ele>1169.4</ele>
        <time>2016-07-31T08:32:31Z</time>
      </trkpt>
      <trkpt lat="42.93733" lon="0.21051">
        <ele>1170</ele>
        <time>2016-07-31T08:32:36Z</time>
      </trkpt>
      <trkpt lat="42.93725" lon="0.21041">
        <ele>1170.7</ele>
        <time>2016-07-31T08:32:41Z</time>
      </trkpt>
      <trkpt lat="42.93717" lon="0.21032">
        <ele>1171.8</ele>
        <time>2016-07-31T08:32:46Z</time>
      </trkpt>
      <trkpt lat="42.93716" lon="0.21013">
        <ele>1172</ele>
        <time>2016-07-31T08:32:51Z</time>
      </trkpt>
      <trkpt lat="42.93716" lon="0.21001">
        <ele>1170.9</ele>
        <time>2016-07-31T08:32:54Z</time>
      </trkpt>
      <trkpt lat="42.93717" lon="0.20987">
        <ele>1169.8</ele>
        <time>2016-07-31T08:32:57Z</time>
      </trkpt>
      <trkpt lat="42.93712" lon="0.20976">
        <ele>1167.9</ele>
        <time>2016-07-31T08:33:01Z</time>
      </trkpt>
      <trkpt lat="42.93704" lon="0.20969">
        <ele>1166.7</ele>
        <time>2016-07-31T08:33:05Z</time>
      </trkpt>
      <trkpt lat="42.93696" lon="0.20965">
        <ele>1166.2</ele>
        <time>2016-07-31T08:33:09Z</time>
      </trkpt>
      <trkpt lat="42.93687" lon="0.20962">
        <ele>1165.6</ele>
        <time>2016-07-31T08:33:13Z</time>
      </trkpt>
      <trkpt lat="42.93676" lon="0.20959">
        <ele>1165.9</ele>
        <time>2016-07-31T08:33:18Z</time>
      </trkpt>
      <trkpt lat="42.93667" lon="0.20955">
        <ele>1166.4</ele>
        <time>2016-07-31T08:33:22Z</time>
      </trkpt>
      <trkpt lat="42.93658" lon="0.20949">
        <ele>1166.9</ele>
        <time>2016-07-31T08:33:27Z</time>
      </trkpt>
      <trkpt lat="42.93653" lon="0.20937">
        <ele>1166.7</ele>
        <time>2016-07-31T08:33:32Z</time>
      </trkpt>
      <trkpt lat="42.93652" lon="0.20922">
        <ele>1166.3</ele>
        <time>2016-07-31T08:33:36Z</time>
      </trkpt>
      <trkpt lat="42.93653" lon="0.20909">
        <ele>1166.1</ele>
        <time>2016-07-31T08:33:40Z</time>
      </trkpt>
      <trkpt lat="42.93651" lon="0.20895">
        <ele>1165.2</ele>
        <time>2016-07-31T08:33:45Z</time>
      </trkpt>
      <trkpt lat="42.93646" lon="0.20885">
        <ele>1164.5</ele>
        <time>2016-07-31T08:33:50Z</time>
      </trkpt>
      <trkpt lat="42.9364" lon="0.20872">
        <ele>1164.9</ele>
        <time>2016-07-31T08:33:55Z</time>
      </trkpt>
      <trkpt lat="42.93629" lon="0.20869">
        <ele>1165.7</ele>
        <time>2016-07-31T08:34:00Z</time>
      </trkpt>
      <trkpt lat="42.93619" lon="0.20876">
        <ele>1166.4</ele>
        <time>2016-07-31T08:34:05Z</time>
      </trkpt>
      <trkpt lat="42.93612" lon="0.20885">
        <ele>1167</ele>
        <time>2016-07-31T08:34:09Z</time>
      </trkpt>
      <trkpt lat="42.93602" lon="0.20892">
        <ele>1167.9</ele>
        <time>2016-07-31T08:34:13Z</time>
      </trkpt>
      <trkpt lat="42.93591" lon="0.20892">
        <ele>1168.3</ele>
        <time>2016-07-31T08:34:17Z</time>
      </trkpt>
      <trkpt lat="42.93582" lon="0.20885">
        <ele>1168.6</ele>
        <time>2016-07-31T08:34:21Z</time>
      </trkpt>
      <trkpt lat="42.93577" lon="0.20874">
        <ele>1169.4</ele>
        <time>2016-07-31T08:34:26Z</time>
      </trkpt>
      <trkpt lat="42.93572" lon="0.20864">
        <ele>1170.4</ele>
        <time>2016-07-31T08:34:31Z</time>
      </trkpt>
      <trkpt lat="42.93564" lon="0.20858">
        <ele>1170.9</ele>
        <time>2016-07-31T08:34:36Z</time>
      </trkpt>
      <trkpt lat="42.93554" lon="0.20854">
        <ele>1171.2</ele>
        <time>2016-07-31T08:34:42Z</time>
      </trkpt>
      <trkpt lat="42.93544" lon="0.20848">
        <ele>1171.9</ele>
        <time>2016-07-31T08:34:47Z</time>
      </trkpt>
      <trkpt lat="42.93536" lon="0.20842">
        <ele>1173.1</ele>
        <time>2016-07-31T08:34:52Z</time>
      </trkpt>
      <trkpt lat="42.93527" lon="0.20839">
        <ele>1174.4</ele>
        <time>2016-07-31T08:34:57Z</time>
      </trkpt>
      <trkpt lat="42.93517" lon="0.20839">
        <ele>1175</ele>
        <time>2016-07-31T08:35:02Z</time>
      </trkpt>
      <trkpt lat="42.93509" lon="0.20832">
        <ele>1175.1</ele>
        <time>2016-07-31T08:35:07Z</time>
      </trkpt>
      <trkpt lat="42.93502" lon="0.20823">
        <ele>1175.2</ele>
        <time>2016-07-31T08:35:12Z</time>
      </trkpt>
      <trkpt lat="42.93498" lon="0.20809">
        <ele>1175.4</ele>
        <time>2016-07-31T08:35:17Z</time>
      </trkpt>
      <trkpt lat="42.93494" lon="0.20797">
        <ele>1175.1</ele>
        <time>2016-07-31T08:35:22Z</time>
      </trkpt>
      <trkpt lat="42.93488" lon="0.20787">
        <ele>1175</ele>
        <time>2016-07-31T08:35:27Z</time>
      </trkpt>
      <trkpt lat="42.93484" lon="0.20776">
        <ele>1174.9</ele>
        <time>2016-07-31T08:35:32Z</time>
      </trkpt>
      <trkpt lat="42.93479" lon="0.20763">
        <ele>1175.6</ele>
        <time>2016-07-31T08:35:39Z</time>
      </trkpt>
      <trkpt lat="42.93472" lon="0.20753">
        <ele>1177.1</ele>
        <time>2016-07-31T08:35:46Z</time>
      </trkpt>
      <trkpt lat="42.93463" lon="0.20747">
        <ele>1178.3</ele>
        <time>2016-07-31T08:35:51Z</time>
      </trkpt>
      <trkpt lat="42.93455" lon="0.20738">
        <ele>1179.5</ele>
        <time>2016-07-31T08:35:57Z</time>
      </trkpt>
      <trkpt lat="42.93447" lon="0.20728">
        <ele>1180.8</ele>
        <time>2016-07-31T08:36:03Z</time>
      </trkpt>
      <trkpt lat="42.93437" lon="0.20723">
        <ele>1182.1</ele>
        <time>2016-07-31T08:36:08Z</time>
      </trkpt>
      <trkpt lat="42.93428" lon="0.20716">
        <ele>1183.6</ele>
        <time>2016-07-31T08:36:14Z</time>
      </trkpt>
      <trkpt lat="42.93419" lon="0.20709">
        <ele>1185.3</ele>
        <time>2016-07-31T08:36:20Z</time>
      </trkpt>
      <trkpt lat="42.93412" lon="0.20699">
        <ele>1185.7</ele>
        <time>2016-07-31T08:36:25Z</time>
      </trkpt>
      <trkpt lat="42.93406" lon="0.20688">
        <ele>1185.6</ele>
        <time>2016-07-31T08:36:30Z</time>
      </trkpt>
      <trkpt lat="42.93401" lon="0.20676">
        <ele>1185.4</ele>
        <time>2016-07-31T08:36:35Z</time>
      </trkpt>
      <trkpt lat="42.934" lon="0.20661">
        <ele>1185.7</ele>
        <time>2016-07-31T08:36:40Z</time>
      </trkpt>
      <trkpt lat="42.93397" lon="0.20648">
        <ele>1186.1</ele>
        <time>2016-07-31T08:36:45Z</time>
      </trkpt>
      <trkpt lat="42.93394" lon="0.20636">
        <ele>1186.4</ele>
        <time>2016-07-31T08:36:50Z</time>
      </trkpt>
      <trkpt lat="42.93389" lon="0.20625">
        <ele>1186.8</ele>
        <time>2016-07-31T08:36:55Z</time>
      </trkpt>
      <trkpt lat="42.93381" lon="0.20617">
        <ele>1187.5</ele>
        <time>2016-07-31T08:37:00Z</time>
      </trkpt>
      <trkpt lat="42.93374" lon="0.20609">
        <ele>1188.4</ele>
        <time>2016-07-31T08:37:05Z</time>
      </trkpt>
      <trkpt lat="42.93367" lon="0.20598">
        <ele>1189.4</ele>
        <time>2016-07-31T08:37:11Z</time>
      </trkpt>
      <trkpt lat="42.9336" lon="0.2059">
        <ele>1190.2</ele>
        <time>2016-07-31T08:37:16Z</time>
      </trkpt>
      <trkpt lat="42.93354" lon="0.20579">
        <ele>1190.6</ele>
        <time>2016-07-31T08:37:22Z</time>
      </trkpt>
      <trkpt lat="42.93345" lon="0.20572">
        <ele>1190.8</ele>
        <time>2016-07-31T08:37:28Z</time>
      </trkpt>
      <trkpt lat="42.93336" lon="0.20566">
        <ele>1191.1</ele>
        <time>2016-07-31T08:37:33Z</time>
      </trkpt>
      <trkpt lat="42.93328" lon="0.20559">
        <ele>1191.8</ele>
        <time>2016-07-31T08:37:38Z</time>
      </trkpt>
      <trkpt lat="42.9332" lon="0.20553">
        <ele>1193</ele>
        <time>2016-07-31T08:37:43Z</time>
      </trkpt>
      <trkpt lat="42.93312" lon="0.20545">
        <ele>1194.5</ele>
        <time>2016-07-31T08:37:48Z</time>
      </trkpt>
      <trkpt lat="42.93305" lon="0.20534">
        <ele>1196</ele>
        <time>2016-07-31T08:37:54Z</time>
      </trkpt>
      <trkpt lat="42.93297" lon="0.20525">
        <ele>1197.4</ele>
        <time>2016-07-31T08:38:00Z</time>
      </trkpt>
      <trkpt lat="42.9329" lon="0.20515">
        <ele>1198.7</ele>
        <time>2016-07-31T08:38:06Z</time>
      </trkpt>
      <trkpt lat="42.93282" lon="0.20504">
        <ele>1199.6</ele>
        <time>2016-07-31T08:38:12Z</time>
      </trkpt>
      <trkpt lat="42.93273" lon="0.20497">
        <ele>1199.5</ele>
        <time>2016-07-31T08:38:17Z</time>
      </trkpt>
      <trkpt lat="42.93265" lon="0.20491">
        <ele>1199.9</ele>
        <time>2016-07-31T08:38:22Z</time>
      </trkpt>
      <trkpt lat="42.93257" lon="0.20483">
        <ele>1201</ele>
        <time>2016-07-31T08:38:27Z</time>
      </trkpt>
      <trkpt lat="42.9325" lon="0.20476">
        <ele>1202.1</ele>
        <time>2016-07-31T08:38:32Z</time>
      </trkpt>
      <trkpt lat="42.93242" lon="0.20469">
        <ele>1203.1</ele>
        <time>2016-07-31T08:38:38Z</time>
      </trkpt>
      <trkpt lat="42.93233" lon="0.20463">
        <ele>1203.9</ele>
        <time>2016-07-31T08:38:43Z</time>
      </trkpt>
      <trkpt lat="42.93224" lon="0.20458">
        <ele>1204.4</ele>
        <time>2016-07-31T08:38:48Z</time>
      </trkpt>
      <trkpt lat="42.93215" lon="0.20452">
        <ele>1204.9</ele>
        <time>2016-07-31T08:38:53Z</time>
      </trkpt>
      <trkpt lat="42.93206" lon="0.20445">
        <ele>1206.4</ele>
        <time>2016-07-31T08:38:59Z</time>
      </trkpt>
      <trkpt lat="42.93198" lon="0.2044">
        <ele>1207.3</ele>
        <time>2016-07-31T08:39:04Z</time>
      </trkpt>
      <trkpt lat="42.93189" lon="0.20435">
        <ele>1208.1</ele>
        <time>2016-07-31T08:39:09Z</time>
      </trkpt>
      <trkpt lat="42.9318" lon="0.20432">
        <ele>1209.3</ele>
        <time>2016-07-31T08:39:15Z</time>
      </trkpt>
      <trkpt lat="42.93171" lon="0.20428">
        <ele>1210.2</ele>
        <time>2016-07-31T08:39:20Z</time>
      </trkpt>
      <trkpt lat="42.93161" lon="0.20424">
        <ele>1211.2</ele>
        <time>2016-07-31T08:39:25Z</time>
      </trkpt>
      <trkpt lat="42.93153" lon="0.20417">
        <ele>1212.2</ele>
        <time>2016-07-31T08:39:30Z</time>
      </trkpt>
      <trkpt lat="42.93143" lon="0.20411">
        <ele>1213.4</ele>
        <time>2016-07-31T08:39:36Z</time>
      </trkpt>
      <trkpt lat="42.93135" lon="0.20406">
        <ele>1214.3</ele>
        <time>2016-07-31T08:39:41Z</time>
      </trkpt>
      <trkpt lat="42.93127" lon="0.204">
        <ele>1215</ele>
        <time>2016-07-31T08:39:46Z</time>
      </trkpt>
      <trkpt lat="42.93118" lon="0.20396">
        <ele>1216</ele>
        <time>2016-07-31T08:39:51Z</time>
      </trkpt>
      <trkpt lat="42.93109" lon="0.2039">
        <ele>1216.8</ele>
        <time>2016-07-31T08:39:57Z</time>
      </trkpt>
      <trkpt lat="42.93101" lon="0.20381">
        <ele>1216.9</ele>
        <time>2016-07-31T08:40:02Z</time>
      </trkpt>
      <trkpt lat="42.93093" lon="0.20374">
        <ele>1217.9</ele>
        <time>2016-07-31T08:40:07Z</time>
      </trkpt>
      <trkpt lat="42.93086" lon="0.20366">
        <ele>1218.7</ele>
        <time>2016-07-31T08:40:12Z</time>
      </trkpt>
      <trkpt lat="42.93081" lon="0.20354">
        <ele>1220.2</ele>
        <time>2016-07-31T08:40:18Z</time>
      </trkpt>
      <trkpt lat="42.93076" lon="0.20342">
        <ele>1221.3</ele>
        <time>2016-07-31T08:40:24Z</time>
      </trkpt>
      <trkpt lat="42.9307" lon="0.2033">
        <ele>1222.5</ele>
        <time>2016-07-31T08:40:30Z</time>
      </trkpt>
      <trkpt lat="42.93064" lon="0.2032">
        <ele>1223.2</ele>
        <time>2016-07-31T08:40:35Z</time>
      </trkpt>
      <trkpt lat="42.93058" lon="0.20309">
        <ele>1223.9</ele>
        <time>2016-07-31T08:40:41Z</time>
      </trkpt>
      <trkpt lat="42.93052" lon="0.20297">
        <ele>1224.5</ele>
        <time>2016-07-31T08:40:47Z</time>
      </trkpt>
      <trkpt lat="42.93048" lon="0.20286">
        <ele>1225.1</ele>
        <time>2016-07-31T08:40:52Z</time>
      </trkpt>
      <trkpt lat="42.93042" lon="0.20274">
        <ele>1226.2</ele>
        <time>2016-07-31T08:40:58Z</time>
      </trkpt>
      <trkpt lat="42.9304" lon="0.20261">
        <ele>1227</ele>
        <time>2016-07-31T08:41:03Z</time>
      </trkpt>
      <trkpt lat="42.93034" lon="0.20249">
        <ele>1228</ele>
        <time>2016-07-31T08:41:09Z</time>
      </trkpt>
      <trkpt lat="42.93032" lon="0.20237">
        <ele>1229.4</ele>
        <time>2016-07-31T08:41:15Z</time>
      </trkpt>
      <trkpt lat="42.93025" lon="0.20227">
        <ele>1230.6</ele>
        <time>2016-07-31T08:41:21Z</time>
      </trkpt>
      <trkpt lat="42.93016" lon="0.20221">
        <ele>1231.7</ele>
        <time>2016-07-31T08:41:26Z</time>
      </trkpt>
      <trkpt lat="42.93005" lon="0.20218">
        <ele>1234.5</ele>
        <time>2016-07-31T08:41:31Z</time>
      </trkpt>
      <trkpt lat="42.92996" lon="0.2021">
        <ele>1236.6</ele>
        <time>2016-07-31T08:41:35Z</time>
      </trkpt>
      <trkpt lat="42.92986" lon="0.20206">
        <ele>1238.6</ele>
        <time>2016-07-31T08:41:40Z</time>
      </trkpt>
      <trkpt lat="42.92978" lon="0.20199">
        <ele>1240.5</ele>
        <time>2016-07-31T08:41:45Z</time>
      </trkpt>
      <trkpt lat="42.9297" lon="0.20192">
        <ele>1242.8</ele>
        <time>2016-07-31T08:41:50Z</time>
      </trkpt>
      <trkpt lat="42.9296" lon="0.20188">
        <ele>1244.8</ele>
        <time>2016-07-31T08:41:55Z</time>
      </trkpt>
      <trkpt lat="42.92951" lon="0.20182">
        <ele>1247.4</ele>
        <time>2016-07-31T08:42:01Z</time>
      </trkpt>
      <trkpt lat="42.92942" lon="0.20177">
        <ele>1249.4</ele>
        <time>2016-07-31T08:42:06Z</time>
      </trkpt>
      <trkpt lat="42.92933" lon="0.20171">
        <ele>1250.8</ele>
        <time>2016-07-31T08:42:11Z</time>
      </trkpt>
      <trkpt lat="42.92925" lon="0.20167">
        <ele>1252</ele>
        <time>2016-07-31T08:42:16Z</time>
      </trkpt>
      <trkpt lat="42.92915" lon="0.20162">
        <ele>1253.3</ele>
        <time>2016-07-31T08:42:22Z</time>
      </trkpt>
      <trkpt lat="42.92906" lon="0.20158">
        <ele>1255.2</ele>
        <time>2016-07-31T08:42:28Z</time>
      </trkpt>
      <trkpt lat="42.92897" lon="0.20151">
        <ele>1256.6</ele>
        <time>2016-07-31T08:42:34Z</time>
      </trkpt>
      <trkpt lat="42.92889" lon="0.20142">
        <ele>1258.3</ele>
        <time>2016-07-31T08:42:39Z</time>
      </trkpt>
      <trkpt lat="42.92881" lon="0.20133">
        <ele>1259.3</ele>
        <time>2016-07-31T08:42:45Z</time>
      </trkpt>
      <trkpt lat="42.92874" lon="0.20124">
        <ele>1259.7</ele>
        <time>2016-07-31T08:42:50Z</time>
      </trkpt>
      <trkpt lat="42.92868" lon="0.20113">
        <ele>1258.9</ele>
        <time>2016-07-31T08:42:55Z</time>
      </trkpt>
      <trkpt lat="42.92861" lon="0.20103">
        <ele>1258.4</ele>
        <time>2016-07-31T08:43:00Z</time>
      </trkpt>
      <trkpt lat="42.92855" lon="0.20094">
        <ele>1257.7</ele>
        <time>2016-07-31T08:43:05Z</time>
      </trkpt>
      <trkpt lat="42.9285" lon="0.20083">
        <ele>1258.1</ele>
        <time>2016-07-31T08:43:10Z</time>
      </trkpt>
      <trkpt lat="42.92844" lon="0.20072">
        <ele>1258.5</ele>
        <time>2016-07-31T08:43:16Z</time>
      </trkpt>
      <trkpt lat="42.92838" lon="0.20062">
        <ele>1258.7</ele>
        <time>2016-07-31T08:43:21Z</time>
      </trkpt>
      <trkpt lat="42.92833" lon="0.20052">
        <ele>1259.2</ele>
        <time>2016-07-31T08:43:26Z</time>
      </trkpt>
      <trkpt lat="42.92826" lon="0.20041">
        <ele>1259.3</ele>
        <time>2016-07-31T08:43:32Z</time>
      </trkpt>
      <trkpt lat="42.9282" lon="0.20032">
        <ele>1259.2</ele>
        <time>2016-07-31T08:43:37Z</time>
      </trkpt>
      <trkpt lat="42.92812" lon="0.20021">
        <ele>1259</ele>
        <time>2016-07-31T08:43:43Z</time>
      </trkpt>
      <trkpt lat="42.92806" lon="0.20012">
        <ele>1258.9</ele>
        <time>2016-07-31T08:43:48Z</time>
      </trkpt>
      <trkpt lat="42.92799" lon="0.20002">
        <ele>1259.2</ele>
        <time>2016-07-31T08:43:54Z</time>
      </trkpt>
      <trkpt lat="42.9279" lon="0.19996">
        <ele>1260.2</ele>
        <time>2016-07-31T08:44:00Z</time>
      </trkpt>
      <trkpt lat="42.92783" lon="0.19987">
        <ele>1261.2</ele>
        <time>2016-07-31T08:44:05Z</time>
      </trkpt>
      <trkpt lat="42.92777" lon="0.19978">
        <ele>1262.5</ele>
        <time>2016-07-31T08:44:10Z</time>
      </trkpt>
      <trkpt lat="42.9277" lon="0.19968">
        <ele>1263.7</ele>
        <time>2016-07-31T08:44:16Z</time>
      </trkpt>
      <trkpt lat="42.92762" lon="0.19958">
        <ele>1264.8</ele>
        <time>2016-07-31T08:44:22Z</time>
      </trkpt>
      <trkpt lat="42.92755" lon="0.19948">
        <ele>1266.9</ele>
        <time>2016-07-31T08:44:28Z</time>
      </trkpt>
      <trkpt lat="42.92747" lon="0.19939">
        <ele>1268.6</ele>
        <time>2016-07-31T08:44:34Z</time>
      </trkpt>
      <trkpt lat="42.9274" lon="0.1993">
        <ele>1269.5</ele>
        <time>2016-07-31T08:44:39Z</time>
      </trkpt>
      <trkpt lat="42.92732" lon="0.19921">
        <ele>1270.6</ele>
        <time>2016-07-31T08:44:45Z</time>
      </trkpt>
      <trkpt lat="42.92725" lon="0.19914">
        <ele>1271.7</ele>
        <time>2016-07-31T08:44:50Z</time>
      </trkpt>
      <trkpt lat="42.92717" lon="0.19905">
        <ele>1272.4</ele>
        <time>2016-07-31T08:44:55Z</time>
      </trkpt>
      <trkpt lat="42.92711" lon="0.19895">
        <ele>1272.4</ele>
        <time>2016-07-31T08:45:00Z</time>
      </trkpt>
      <trkpt lat="42.92709" lon="0.19881">
        <ele>1272.5</ele>
        <time>2016-07-31T08:45:06Z</time>
      </trkpt>
      <trkpt lat="42.92709" lon="0.19869">
        <ele>1273</ele>
        <time>2016-07-31T08:45:11Z</time>
      </trkpt>
      <trkpt lat="42.92705" lon="0.19856">
        <ele>1273</ele>
        <time>2016-07-31T08:45:17Z</time>
      </trkpt>
      <trkpt lat="42.927" lon="0.19844">
        <ele>1274.1</ele>
        <time>2016-07-31T08:45:23Z</time>
      </trkpt>
      <trkpt lat="42.92693" lon="0.19835">
        <ele>1275.2</ele>
        <time>2016-07-31T08:45:29Z</time>
      </trkpt>
      <trkpt lat="42.92685" lon="0.19826">
        <ele>1276.4</ele>
        <time>2016-07-31T08:45:35Z</time>
      </trkpt>
      <trkpt lat="42.92677" lon="0.19819">
        <ele>1277.1</ele>
        <time>2016-07-31T08:45:41Z</time>
      </trkpt>
      <trkpt lat="42.92668" lon="0.19814">
        <ele>1277.6</ele>
        <time>2016-07-31T08:45:45Z</time>
      </trkpt>
      <trkpt lat="42.92663" lon="0.19802">
        <ele>1278.4</ele>
        <time>2016-07-31T08:45:51Z</time>
      </trkpt>
      <trkpt lat="42.92656" lon="0.19794">
        <ele>1279.2</ele>
        <time>2016-07-31T08:45:56Z</time>
      </trkpt>
      <trkpt lat="42.92647" lon="0.19792">
        <ele>1280.3</ele>
        <time>2016-07-31T08:46:00Z</time>
      </trkpt>
      <trkpt lat="42.92637" lon="0.19787">
        <ele>1280.9</ele>
        <time>2016-07-31T08:46:05Z</time>
      </trkpt>
      <trkpt lat="42.92628" lon="0.1978">
        <ele>1280.5</ele>
        <time>2016-07-31T08:46:10Z</time>
      </trkpt>
      <trkpt lat="42.92621" lon="0.1977">
        <ele>1280.3</ele>
        <time>2016-07-31T08:46:15Z</time>
      </trkpt>
      <trkpt lat="42.92616" lon="0.19758">
        <ele>1280</ele>
        <time>2016-07-31T08:46:21Z</time>
      </trkpt>
      <trkpt lat="42.92611" lon="0.19746">
        <ele>1280.5</ele>
        <time>2016-07-31T08:46:27Z</time>
      </trkpt>
      <trkpt lat="42.92604" lon="0.19736">
        <ele>1281.2</ele>
        <time>2016-07-31T08:46:33Z</time>
      </trkpt>
      <trkpt lat="42.92595" lon="0.1973">
        <ele>1282</ele>
        <time>2016-07-31T08:46:38Z</time>
      </trkpt>
      <trkpt lat="42.92586" lon="0.19724">
        <ele>1282.7</ele>
        <time>2016-07-31T08:46:44Z</time>
      </trkpt>
      <trkpt lat="42.92577" lon="0.19724">
        <ele>1283</ele>
        <time>2016-07-31T08:46:50Z</time>
      </trkpt>
      <trkpt lat="42.92567" lon="0.19728">
        <ele>1283.5</ele>
        <time>2016-07-31T08:46:55Z</time>
      </trkpt>
      <trkpt lat="42.92561" lon="0.19738">
        <ele>1284.3</ele>
        <time>2016-07-31T08:47:04Z</time>
      </trkpt>
      <trkpt lat="42.92552" lon="0.19743">
        <ele>1284.6</ele>
        <time>2016-07-31T08:47:11Z</time>
      </trkpt>
      <trkpt lat="42.92544" lon="0.19749">
        <ele>1285.1</ele>
        <time>2016-07-31T08:47:16Z</time>
      </trkpt>
      <trkpt lat="42.92535" lon="0.19754">
        <ele>1285.9</ele>
        <time>2016-07-31T08:47:22Z</time>
      </trkpt>
      <trkpt lat="42.92525" lon="0.19759">
        <ele>1287.1</ele>
        <time>2016-07-31T08:47:27Z</time>
      </trkpt>
      <trkpt lat="42.92517" lon="0.19765">
        <ele>1289</ele>
        <time>2016-07-31T08:47:30Z</time>
      </trkpt>
      <trkpt lat="42.92509" lon="0.19771">
        <ele>1291.8</ele>
        <time>2016-07-31T08:47:36Z</time>
      </trkpt>
      <trkpt lat="42.92499" lon="0.19771">
        <ele>1292.8</ele>
        <time>2016-07-31T08:47:43Z</time>
      </trkpt>
      <trkpt lat="42.92489" lon="0.19773">
        <ele>1294.2</ele>
        <time>2016-07-31T08:47:50Z</time>
      </trkpt>
      <trkpt lat="42.9248" lon="0.19775">
        <ele>1295.4</ele>
        <time>2016-07-31T08:47:56Z</time>
      </trkpt>
      <trkpt lat="42.92471" lon="0.19781">
        <ele>1296.7</ele>
        <time>2016-07-31T08:48:03Z</time>
      </trkpt>
      <trkpt lat="42.92465" lon="0.1979">
        <ele>1297.1</ele>
        <time>2016-07-31T08:48:07Z</time>
      </trkpt>
      <trkpt lat="42.92461" lon="0.19801">
        <ele>1297.9</ele>
        <time>2016-07-31T08:48:11Z</time>
      </trkpt>
      <trkpt lat="42.9246" lon="0.19814">
        <ele>1298.4</ele>
        <time>2016-07-31T08:48:15Z</time>
      </trkpt>
      <trkpt lat="42.92464" lon="0.19827">
        <ele>1298.8</ele>
        <time>2016-07-31T08:48:19Z</time>
      </trkpt>
      <trkpt lat="42.92465" lon="0.19839">
        <ele>1299.3</ele>
        <time>2016-07-31T08:48:24Z</time>
      </trkpt>
      <trkpt lat="42.92464" lon="0.19852">
        <ele>1299.7</ele>
        <time>2016-07-31T08:48:29Z</time>
      </trkpt>
      <trkpt lat="42.92461" lon="0.19866">
        <ele>1299.9</ele>
        <time>2016-07-31T08:48:34Z</time>
      </trkpt>
      <trkpt lat="42.92465" lon="0.19877">
        <ele>1300.3</ele>
        <time>2016-07-31T08:48:39Z</time>
      </trkpt>
      <trkpt lat="42.92467" lon="0.19891">
        <ele>1300.7</ele>
        <time>2016-07-31T08:48:45Z</time>
      </trkpt>
      <trkpt lat="42.92469" lon="0.19905">
        <ele>1300.9</ele>
        <time>2016-07-31T08:48:51Z</time>
      </trkpt>
      <trkpt lat="42.92463" lon="0.19917">
        <ele>1301.8</ele>
        <time>2016-07-31T08:48:55Z</time>
      </trkpt>
      <trkpt lat="42.9246" lon="0.19929">
        <ele>1302.4</ele>
        <time>2016-07-31T08:49:00Z</time>
      </trkpt>
      <trkpt lat="42.92457" lon="0.19942">
        <ele>1303.4</ele>
        <time>2016-07-31T08:49:05Z</time>
      </trkpt>
      <trkpt lat="42.92458" lon="0.19956">
        <ele>1304.1</ele>
        <time>2016-07-31T08:49:11Z</time>
      </trkpt>
      <trkpt lat="42.92457" lon="0.1997">
        <ele>1304.8</ele>
        <time>2016-07-31T08:49:17Z</time>
      </trkpt>
      <trkpt lat="42.92464" lon="0.19977">
        <ele>1304.5</ele>
        <time>2016-07-31T08:49:22Z</time>
      </trkpt>
      <trkpt lat="42.92462" lon="0.1999">
        <ele>1305.2</ele>
        <time>2016-07-31T08:49:29Z</time>
      </trkpt>
      <trkpt lat="42.92461" lon="0.20002">
        <ele>1306.1</ele>
        <time>2016-07-31T08:49:35Z</time>
      </trkpt>
      <trkpt lat="42.9246" lon="0.20015">
        <ele>1307.5</ele>
        <time>2016-07-31T08:49:40Z</time>
      </trkpt>
      <trkpt lat="42.92463" lon="0.20028">
        <ele>1307.9</ele>
        <time>2016-07-31T08:49:45Z</time>
      </trkpt>
      <trkpt lat="42.92466" lon="0.20041">
        <ele>1308.1</ele>
        <time>2016-07-31T08:49:50Z</time>
      </trkpt>
      <trkpt lat="42.92463" lon="0.20054">
        <ele>1309</ele>
        <time>2016-07-31T08:49:55Z</time>
      </trkpt>
      <trkpt lat="42.92463" lon="0.20068">
        <ele>1310</ele>
        <time>2016-07-31T08:50:01Z</time>
      </trkpt>
      <trkpt lat="42.92458" lon="0.20079">
        <ele>1310.5</ele>
        <time>2016-07-31T08:50:06Z</time>
      </trkpt>
      <trkpt lat="42.92453" lon="0.2009">
        <ele>1310.9</ele>
        <time>2016-07-31T08:50:11Z</time>
      </trkpt>
      <trkpt lat="42.92448" lon="0.20101">
        <ele>1311.3</ele>
        <time>2016-07-31T08:50:16Z</time>
      </trkpt>
      <trkpt lat="42.92451" lon="0.20115">
        <ele>1313</ele>
        <time>2016-07-31T08:50:22Z</time>
      </trkpt>
      <trkpt lat="42.92449" lon="0.20128">
        <ele>1313.7</ele>
        <time>2016-07-31T08:50:28Z</time>
      </trkpt>
      <trkpt lat="42.92447" lon="0.20141">
        <ele>1314.3</ele>
        <time>2016-07-31T08:50:34Z</time>
      </trkpt>
      <trkpt lat="42.92446" lon="0.20154">
        <ele>1315.5</ele>
        <time>2016-07-31T08:50:40Z</time>
      </trkpt>
      <trkpt lat="42.92449" lon="0.20167">
        <ele>1316.8</ele>
        <time>2016-07-31T08:50:45Z</time>
      </trkpt>
      <trkpt lat="42.92445" lon="0.20179">
        <ele>1317.7</ele>
        <time>2016-07-31T08:50:50Z</time>
      </trkpt>
      <trkpt lat="42.9244" lon="0.20192">
        <ele>1319.6</ele>
        <time>2016-07-31T08:50:55Z</time>
      </trkpt>
      <trkpt lat="42.92439" lon="0.20205">
        <ele>1321.1</ele>
        <time>2016-07-31T08:51:00Z</time>
      </trkpt>
      <trkpt lat="42.9244" lon="0.20218">
        <ele>1322.6</ele>
        <time>2016-07-31T08:51:06Z</time>
      </trkpt>
      <trkpt lat="42.92438" lon="0.20232">
        <ele>1323.8</ele>
        <time>2016-07-31T08:51:12Z</time>
      </trkpt>
      <trkpt lat="42.92438" lon="0.20246">
        <ele>1325.7</ele>
        <time>2016-07-31T08:51:18Z</time>
      </trkpt>
      <trkpt lat="42.92435" lon="0.20259">
        <ele>1326.9</ele>
        <time>2016-07-31T08:51:25Z</time>
      </trkpt>
      <trkpt lat="42.92433" lon="0.20272">
        <ele>1328</ele>
        <time>2016-07-31T08:51:31Z</time>
      </trkpt>
      <trkpt lat="42.92433" lon="0.20285">
        <ele>1329.2</ele>
        <time>2016-07-31T08:51:37Z</time>
      </trkpt>
      <trkpt lat="42.92428" lon="0.20298">
        <ele>1330.5</ele>
        <time>2016-07-31T08:51:43Z</time>
      </trkpt>
      <trkpt lat="42.92424" lon="0.2031">
        <ele>1331.2</ele>
        <time>2016-07-31T08:51:48Z</time>
      </trkpt>
      <trkpt lat="42.92418" lon="0.20322">
        <ele>1331.9</ele>
        <time>2016-07-31T08:51:52Z</time>
      </trkpt>
      <trkpt lat="42.92411" lon="0.20332">
        <ele>1333.2</ele>
        <time>2016-07-31T08:51:58Z</time>
      </trkpt>
      <trkpt lat="42.92405" lon="0.20343">
        <ele>1334.3</ele>
        <time>2016-07-31T08:52:04Z</time>
      </trkpt>
      <trkpt lat="42.924" lon="0.20354">
        <ele>1335.2</ele>
        <time>2016-07-31T08:52:10Z</time>
      </trkpt>
      <trkpt lat="42.92396" lon="0.20366">
        <ele>1336.4</ele>
        <time>2016-07-31T08:52:16Z</time>
      </trkpt>
      <trkpt lat="42.92389" lon="0.20376">
        <ele>1337.1</ele>
        <time>2016-07-31T08:52:22Z</time>
      </trkpt>
      <trkpt lat="42.92382" lon="0.20387">
        <ele>1338.4</ele>
        <time>2016-07-31T08:52:28Z</time>
      </trkpt>
      <trkpt lat="42.92377" lon="0.20398">
        <ele>1339.8</ele>
        <time>2016-07-31T08:52:34Z</time>
      </trkpt>
      <trkpt lat="42.92374" lon="0.20411">
        <ele>1340.2</ele>
        <time>2016-07-31T08:52:39Z</time>
      </trkpt>
      <trkpt lat="42.92367" lon="0.20421">
        <ele>1340.9</ele>
        <time>2016-07-31T08:52:44Z</time>
      </trkpt>
      <trkpt lat="42.92363" lon="0.20434">
        <ele>1341.6</ele>
        <time>2016-07-31T08:52:50Z</time>
      </trkpt>
      <trkpt lat="42.92357" lon="0.20444">
        <ele>1342.4</ele>
        <time>2016-07-31T08:52:55Z</time>
      </trkpt>
      <trkpt lat="42.92351" lon="0.20456">
        <ele>1343.1</ele>
        <time>2016-07-31T08:53:01Z</time>
      </trkpt>
      <trkpt lat="42.92344" lon="0.20466">
        <ele>1343.9</ele>
        <time>2016-07-31T08:53:07Z</time>
      </trkpt>
      <trkpt lat="42.92337" lon="0.20475">
        <ele>1344.9</ele>
        <time>2016-07-31T08:53:13Z</time>
      </trkpt>
      <trkpt lat="42.92328" lon="0.20484">
        <ele>1345.2</ele>
        <time>2016-07-31T08:53:19Z</time>
      </trkpt>
      <trkpt lat="42.9232" lon="0.20492">
        <ele>1345.7</ele>
        <time>2016-07-31T08:53:24Z</time>
      </trkpt>
      <trkpt lat="42.92317" lon="0.20504">
        <ele>1345.8</ele>
        <time>2016-07-31T08:53:29Z</time>
      </trkpt>
      <trkpt lat="42.92311" lon="0.20514">
        <ele>1346.2</ele>
        <time>2016-07-31T08:53:34Z</time>
      </trkpt>
      <trkpt lat="42.92305" lon="0.20523">
        <ele>1347</ele>
        <time>2016-07-31T08:53:39Z</time>
      </trkpt>
      <trkpt lat="42.92299" lon="0.20534">
        <ele>1347.8</ele>
        <time>2016-07-31T08:53:45Z</time>
      </trkpt>
      <trkpt lat="42.92293" lon="0.20545">
        <ele>1348.7</ele>
        <time>2016-07-31T08:53:51Z</time>
      </trkpt>
      <trkpt lat="42.92287" lon="0.20554">
        <ele>1349.4</ele>
        <time>2016-07-31T08:53:56Z</time>
      </trkpt>
      <trkpt lat="42.92279" lon="0.20564">
        <ele>1350.8</ele>
        <time>2016-07-31T08:54:02Z</time>
      </trkpt>
      <trkpt lat="42.92272" lon="0.20573">
        <ele>1351.8</ele>
        <time>2016-07-31T08:54:08Z</time>
      </trkpt>
      <trkpt lat="42.92263" lon="0.20577">
        <ele>1352.2</ele>
        <time>2016-07-31T08:54:13Z</time>
      </trkpt>
      <trkpt lat="42.92253" lon="0.20581">
        <ele>1353.6</ele>
        <time>2016-07-31T08:54:19Z</time>
      </trkpt>
      <trkpt lat="42.92244" lon="0.20583">
        <ele>1353.9</ele>
        <time>2016-07-31T08:54:24Z</time>
      </trkpt>
      <trkpt lat="42.92235" lon="0.20584">
        <ele>1354.4</ele>
        <time>2016-07-31T08:54:29Z</time>
      </trkpt>
      <trkpt lat="42.92225" lon="0.20588">
        <ele>1354.9</ele>
        <time>2016-07-31T08:54:35Z</time>
      </trkpt>
      <trkpt lat="42.92216" lon="0.20593">
        <ele>1355.3</ele>
        <time>2016-07-31T08:54:41Z</time>
      </trkpt>
      <trkpt lat="42.92208" lon="0.20601">
        <ele>1355.3</ele>
        <time>2016-07-31T08:54:47Z</time>
      </trkpt>
      <trkpt lat="42.922" lon="0.20609">
        <ele>1355.4</ele>
        <time>2016-07-31T08:54:52Z</time>
      </trkpt>
      <trkpt lat="42.92192" lon="0.20618">
        <ele>1355.9</ele>
        <time>2016-07-31T08:54:58Z</time>
      </trkpt>
      <trkpt lat="42.92184" lon="0.20627">
        <ele>1356.3</ele>
        <time>2016-07-31T08:55:04Z</time>
      </trkpt>
      <trkpt lat="42.92176" lon="0.20636">
        <ele>1357</ele>
        <time>2016-07-31T08:55:10Z</time>
      </trkpt>
      <trkpt lat="42.92168" lon="0.20645">
        <ele>1357.5</ele>
        <time>2016-07-31T08:55:16Z</time>
      </trkpt>
      <trkpt lat="42.9216" lon="0.20652">
        <ele>1358</ele>
        <time>2016-07-31T08:55:22Z</time>
      </trkpt>
      <trkpt lat="42.92151" lon="0.20658">
        <ele>1358.4</ele>
        <time>2016-07-31T08:55:28Z</time>
      </trkpt>
      <trkpt lat="42.92142" lon="0.20663">
        <ele>1358.5</ele>
        <time>2016-07-31T08:55:33Z</time>
      </trkpt>
      <trkpt lat="42.92134" lon="0.20668">
        <ele>1359.1</ele>
        <time>2016-07-31T08:55:38Z</time>
      </trkpt>
      <trkpt lat="42.92124" lon="0.20672">
        <ele>1359.6</ele>
        <time>2016-07-31T08:55:43Z</time>
      </trkpt>
      <trkpt lat="42.92115" lon="0.20676">
        <ele>1360.2</ele>
        <time>2016-07-31T08:55:49Z</time>
      </trkpt>
      <trkpt lat="42.92106" lon="0.20681">
        <ele>1360.8</ele>
        <time>2016-07-31T08:55:55Z</time>
      </trkpt>
      <trkpt lat="42.92097" lon="0.20685">
        <ele>1361.5</ele>
        <time>2016-07-31T08:56:01Z</time>
      </trkpt>
      <trkpt lat="42.92088" lon="0.20689">
        <ele>1362.4</ele>
        <time>2016-07-31T08:56:07Z</time>
      </trkpt>
      <trkpt lat="42.92079" lon="0.20694">
        <ele>1362.9</ele>
        <time>2016-07-31T08:56:12Z</time>
      </trkpt>
      <trkpt lat="42.9207" lon="0.20699">
        <ele>1363.2</ele>
        <time>2016-07-31T08:56:19Z</time>
      </trkpt>
      <trkpt lat="42.92061" lon="0.20704">
        <ele>1363.5</ele>
        <time>2016-07-31T08:56:25Z</time>
      </trkpt>
      <trkpt lat="42.92052" lon="0.20709">
        <ele>1364.1</ele>
        <time>2016-07-31T08:56:32Z</time>
      </trkpt>
      <trkpt lat="42.92045" lon="0.2072">
        <ele>1365.3</ele>
        <time>2016-07-31T08:56:41Z</time>
      </trkpt>
      <trkpt lat="42.92036" lon="0.20725">
        <ele>1365.8</ele>
        <time>2016-07-31T08:56:45Z</time>
      </trkpt>
      <trkpt lat="42.92025" lon="0.20729">
        <ele>1366.1</ele>
        <time>2016-07-31T08:56:49Z</time>
      </trkpt>
      <trkpt lat="42.92017" lon="0.20734">
        <ele>1366.2</ele>
        <time>2016-07-31T08:56:54Z</time>
      </trkpt>
      <trkpt lat="42.92008" lon="0.2074">
        <ele>1366.5</ele>
        <time>2016-07-31T08:57:01Z</time>
      </trkpt>
      <trkpt lat="42.91997" lon="0.20745">
        <ele>1366.7</ele>
        <time>2016-07-31T08:57:07Z</time>
      </trkpt>
      <trkpt lat="42.91988" lon="0.20753">
        <ele>1366.9</ele>
        <time>2016-07-31T08:57:12Z</time>
      </trkpt>
      <trkpt lat="42.91979" lon="0.20763">
        <ele>1367.3</ele>
        <time>2016-07-31T08:57:17Z</time>
      </trkpt>
      <trkpt lat="42.9197" lon="0.2077">
        <ele>1367.4</ele>
        <time>2016-07-31T08:57:22Z</time>
      </trkpt>
      <trkpt lat="42.91962" lon="0.20778">
        <ele>1368.2</ele>
        <time>2016-07-31T08:57:28Z</time>
      </trkpt>
      <trkpt lat="42.91954" lon="0.20785">
        <ele>1369</ele>
        <time>2016-07-31T08:57:36Z</time>
      </trkpt>
      <trkpt lat="42.91946" lon="0.20794">
        <ele>1370.1</ele>
        <time>2016-07-31T08:57:45Z</time>
      </trkpt>
      <trkpt lat="42.91935" lon="0.20799">
        <ele>1370.2</ele>
        <time>2016-07-31T08:57:49Z</time>
      </trkpt>
      <trkpt lat="42.91927" lon="0.20804">
        <ele>1370.8</ele>
        <time>2016-07-31T08:57:55Z</time>
      </trkpt>
      <trkpt lat="42.91917" lon="0.2081">
        <ele>1371.6</ele>
        <time>2016-07-31T08:58:02Z</time>
      </trkpt>
      <trkpt lat="42.91908" lon="0.20816">
        <ele>1371.6</ele>
        <time>2016-07-31T08:58:10Z</time>
      </trkpt>
      <trkpt lat="42.91898" lon="0.20821">
        <ele>1372</ele>
        <time>2016-07-31T08:58:15Z</time>
      </trkpt>
      <trkpt lat="42.91888" lon="0.20826">
        <ele>1372.3</ele>
        <time>2016-07-31T08:58:20Z</time>
      </trkpt>
      <trkpt lat="42.91879" lon="0.20833">
        <ele>1372.5</ele>
        <time>2016-07-31T08:58:25Z</time>
      </trkpt>
      <trkpt lat="42.91869" lon="0.20839">
        <ele>1372.9</ele>
        <time>2016-07-31T08:58:31Z</time>
      </trkpt>
      <trkpt lat="42.91859" lon="0.20839">
        <ele>1373</ele>
        <time>2016-07-31T08:58:35Z</time>
      </trkpt>
      <trkpt lat="42.9185" lon="0.20841">
        <ele>1373.3</ele>
        <time>2016-07-31T08:58:40Z</time>
      </trkpt>
      <trkpt lat="42.9184" lon="0.20838">
        <ele>1373.6</ele>
        <time>2016-07-31T08:58:46Z</time>
      </trkpt>
      <trkpt lat="42.91832" lon="0.20833">
        <ele>1373.4</ele>
        <time>2016-07-31T08:58:52Z</time>
      </trkpt>
      <trkpt lat="42.91822" lon="0.20834">
        <ele>1373.4</ele>
        <time>2016-07-31T08:58:58Z</time>
      </trkpt>
      <trkpt lat="42.91813" lon="0.20835">
        <ele>1373.2</ele>
        <time>2016-07-31T08:59:05Z</time>
      </trkpt>
      <trkpt lat="42.91805" lon="0.20842">
        <ele>1373.3</ele>
        <time>2016-07-31T08:59:11Z</time>
      </trkpt>
      <trkpt lat="42.91796" lon="0.20847">
        <ele>1374</ele>
        <time>2016-07-31T08:59:16Z</time>
      </trkpt>
      <trkpt lat="42.91788" lon="0.20855">
        <ele>1374.5</ele>
        <time>2016-07-31T08:59:22Z</time>
      </trkpt>
      <trkpt lat="42.91782" lon="0.20865">
        <ele>1377.4</ele>
        <time>2016-07-31T08:59:24Z</time>
      </trkpt>
      <trkpt lat="42.91773" lon="0.20873">
        <ele>1378.8</ele>
        <time>2016-07-31T08:59:27Z</time>
      </trkpt>
      <trkpt lat="42.91767" lon="0.20882">
        <ele>1379.9</ele>
        <time>2016-07-31T08:59:32Z</time>
      </trkpt>
      <trkpt lat="42.91759" lon="0.2089">
        <ele>1381.4</ele>
        <time>2016-07-31T08:59:38Z</time>
      </trkpt>
      <trkpt lat="42.91752" lon="0.20899">
        <ele>1383.5</ele>
        <time>2016-07-31T08:59:44Z</time>
      </trkpt>
      <trkpt lat="42.91745" lon="0.20908">
        <ele>1387.5</ele>
        <time>2016-07-31T08:59:51Z</time>
      </trkpt>
      <trkpt lat="42.91739" lon="0.20919">
        <ele>1391.9</ele>
        <time>2016-07-31T08:59:57Z</time>
      </trkpt>
      <trkpt lat="42.91734" lon="0.2093">
        <ele>1395.4</ele>
        <time>2016-07-31T09:00:03Z</time>
      </trkpt>
      <trkpt lat="42.91726" lon="0.2094">
        <ele>1398.7</ele>
        <time>2016-07-31T09:00:10Z</time>
      </trkpt>
      <trkpt lat="42.91719" lon="0.20948">
        <ele>1401</ele>
        <time>2016-07-31T09:00:16Z</time>
      </trkpt>
      <trkpt lat="42.91711" lon="0.20956">
        <ele>1402.8</ele>
        <time>2016-07-31T09:00:22Z</time>
      </trkpt>
      <trkpt lat="42.91701" lon="0.20957">
        <ele>1404.6</ele>
        <time>2016-07-31T09:00:28Z</time>
      </trkpt>
      <trkpt lat="42.91694" lon="0.2095">
        <ele>1407</ele>
        <time>2016-07-31T09:00:34Z</time>
      </trkpt>
      <trkpt lat="42.91696" lon="0.20936">
        <ele>1409.1</ele>
        <time>2016-07-31T09:00:40Z</time>
      </trkpt>
      <trkpt lat="42.91701" lon="0.20925">
        <ele>1411.2</ele>
        <time>2016-07-31T09:00:46Z</time>
      </trkpt>
      <trkpt lat="42.91708" lon="0.20915">
        <ele>1413</ele>
        <time>2016-07-31T09:00:52Z</time>
      </trkpt>
      <trkpt lat="42.91715" lon="0.20906">
        <ele>1414.5</ele>
        <time>2016-07-31T09:00:58Z</time>
      </trkpt>
      <trkpt lat="42.91721" lon="0.20897">
        <ele>1415.8</ele>
        <time>2016-07-31T09:01:04Z</time>
      </trkpt>
      <trkpt lat="42.91729" lon="0.20888">
        <ele>1416.4</ele>
        <time>2016-07-31T09:01:10Z</time>
      </trkpt>
      <trkpt lat="42.91736" lon="0.20879">
        <ele>1416.9</ele>
        <time>2016-07-31T09:01:15Z</time>
      </trkpt>
      <trkpt lat="42.91744" lon="0.20871">
        <ele>1417.7</ele>
        <time>2016-07-31T09:01:21Z</time>
      </trkpt>
      <trkpt lat="42.91752" lon="0.20863">
        <ele>1418.8</ele>
        <time>2016-07-31T09:01:27Z</time>
      </trkpt>
      <trkpt lat="42.91759" lon="0.20854">
        <ele>1419.5</ele>
        <time>2016-07-31T09:01:33Z</time>
      </trkpt>
      <trkpt lat="42.91765" lon="0.20845">
        <ele>1420.1</ele>
        <time>2016-07-31T09:01:39Z</time>
      </trkpt>
      <trkpt lat="42.91774" lon="0.20838">
        <ele>1420.9</ele>
        <time>2016-07-31T09:01:45Z</time>
      </trkpt>
      <trkpt lat="42.91782" lon="0.20829">
        <ele>1421.8</ele>
        <time>2016-07-31T09:01:51Z</time>
      </trkpt>
      <trkpt lat="42.91789" lon="0.20822">
        <ele>1422.5</ele>
        <time>2016-07-31T09:01:56Z</time>
      </trkpt>
      <trkpt lat="42.91798" lon="0.20814">
        <ele>1424</ele>
        <time>2016-07-31T09:02:02Z</time>
      </trkpt>
      <trkpt lat="42.91805" lon="0.20805">
        <ele>1425.1</ele>
        <time>2016-07-31T09:02:09Z</time>
      </trkpt>
      <trkpt lat="42.91813" lon="0.20796">
        <ele>1426.3</ele>
        <time>2016-07-31T09:02:16Z</time>
      </trkpt>
      <trkpt lat="42.91821" lon="0.20789">
        <ele>1426.9</ele>
        <time>2016-07-31T09:02:21Z</time>
      </trkpt>
      <trkpt lat="42.91828" lon="0.20782">
        <ele>1428.3</ele>
        <time>2016-07-31T09:02:26Z</time>
      </trkpt>
      <trkpt lat="42.91835" lon="0.20774">
        <ele>1429.9</ele>
        <time>2016-07-31T09:02:32Z</time>
      </trkpt>
      <trkpt lat="42.91843" lon="0.20767">
        <ele>1431.3</ele>
        <time>2016-07-31T09:02:37Z</time>
      </trkpt>
      <trkpt lat="42.9185" lon="0.20756">
        <ele>1432.9</ele>
        <time>2016-07-31T09:02:43Z</time>
      </trkpt>
      <trkpt lat="42.91858" lon="0.2075">
        <ele>1434.3</ele>
        <time>2016-07-31T09:02:48Z</time>
      </trkpt>
      <trkpt lat="42.91866" lon="0.20743">
        <ele>1436.1</ele>
        <time>2016-07-31T09:02:53Z</time>
      </trkpt>
      <trkpt lat="42.91875" lon="0.20736">
        <ele>1437.9</ele>
        <time>2016-07-31T09:02:59Z</time>
      </trkpt>
      <trkpt lat="42.91883" lon="0.20727">
        <ele>1438.9</ele>
        <time>2016-07-31T09:03:05Z</time>
      </trkpt>
      <trkpt lat="42.9189" lon="0.2072">
        <ele>1439.7</ele>
        <time>2016-07-31T09:03:11Z</time>
      </trkpt>
      <trkpt lat="42.91897" lon="0.20713">
        <ele>1440.1</ele>
        <time>2016-07-31T09:03:16Z</time>
      </trkpt>
      <trkpt lat="42.91904" lon="0.20705">
        <ele>1440.3</ele>
        <time>2016-07-31T09:03:21Z</time>
      </trkpt>
      <trkpt lat="42.91912" lon="0.20695">
        <ele>1441.1</ele>
        <time>2016-07-31T09:03:27Z</time>
      </trkpt>
      <trkpt lat="42.91919" lon="0.20687">
        <ele>1441.9</ele>
        <time>2016-07-31T09:03:33Z</time>
      </trkpt>
      <trkpt lat="42.91926" lon="0.20678">
        <ele>1442.2</ele>
        <time>2016-07-31T09:03:39Z</time>
      </trkpt>
      <trkpt lat="42.91931" lon="0.20667">
        <ele>1442.8</ele>
        <time>2016-07-31T09:03:46Z</time>
      </trkpt>
      <trkpt lat="42.91939" lon="0.20658">
        <ele>1443.1</ele>
        <time>2016-07-31T09:03:52Z</time>
      </trkpt>
      <trkpt lat="42.91945" lon="0.20647">
        <ele>1444.1</ele>
        <time>2016-07-31T09:03:58Z</time>
      </trkpt>
      <trkpt lat="42.91951" lon="0.20637">
        <ele>1444.8</ele>
        <time>2016-07-31T09:04:04Z</time>
      </trkpt>
      <trkpt lat="42.91958" lon="0.20627">
        <ele>1445.8</ele>
        <time>2016-07-31T09:04:10Z</time>
      </trkpt>
      <trkpt lat="42.91964" lon="0.20615">
        <ele>1447.2</ele>
        <time>2016-07-31T09:04:17Z</time>
      </trkpt>
      <trkpt lat="42.9197" lon="0.20604">
        <ele>1448.1</ele>
        <time>2016-07-31T09:04:24Z</time>
      </trkpt>
      <trkpt lat="42.91975" lon="0.20593">
        <ele>1448.7</ele>
        <time>2016-07-31T09:04:29Z</time>
      </trkpt>
      <trkpt lat="42.91981" lon="0.20583">
        <ele>1449.2</ele>
        <time>2016-07-31T09:04:34Z</time>
      </trkpt>
      <trkpt lat="42.91987" lon="0.20574">
        <ele>1449.7</ele>
        <time>2016-07-31T09:04:41Z</time>
      </trkpt>
      <trkpt lat="42.91994" lon="0.20564">
        <ele>1451.8</ele>
        <time>2016-07-31T09:04:48Z</time>
      </trkpt>
      <trkpt lat="42.92001" lon="0.20555">
        <ele>1453.3</ele>
        <time>2016-07-31T09:04:54Z</time>
      </trkpt>
      <trkpt lat="42.92009" lon="0.20548">
        <ele>1454.9</ele>
        <time>2016-07-31T09:04:59Z</time>
      </trkpt>
      <trkpt lat="42.92017" lon="0.20543">
        <ele>1456.2</ele>
        <time>2016-07-31T09:05:04Z</time>
      </trkpt>
      <trkpt lat="42.92025" lon="0.20538">
        <ele>1456.7</ele>
        <time>2016-07-31T09:05:09Z</time>
      </trkpt>
      <trkpt lat="42.92034" lon="0.20531">
        <ele>1457.4</ele>
        <time>2016-07-31T09:05:15Z</time>
      </trkpt>
      <trkpt lat="42.92042" lon="0.20521">
        <ele>1458</ele>
        <time>2016-07-31T09:05:21Z</time>
      </trkpt>
      <trkpt lat="42.9205" lon="0.20512">
        <ele>1459.6</ele>
        <time>2016-07-31T09:05:28Z</time>
      </trkpt>
      <trkpt lat="42.92058" lon="0.20503">
        <ele>1460.5</ele>
        <time>2016-07-31T09:05:34Z</time>
      </trkpt>
      <trkpt lat="42.92065" lon="0.20495">
        <ele>1460.9</ele>
        <time>2016-07-31T09:05:40Z</time>
      </trkpt>
      <trkpt lat="42.92071" lon="0.20483">
        <ele>1461.5</ele>
        <time>2016-07-31T09:05:48Z</time>
      </trkpt>
      <trkpt lat="42.92078" lon="0.20473">
        <ele>1462.6</ele>
        <time>2016-07-31T09:05:55Z</time>
      </trkpt>
      <trkpt lat="42.92085" lon="0.20464">
        <ele>1463.9</ele>
        <time>2016-07-31T09:06:01Z</time>
      </trkpt>
      <trkpt lat="42.92093" lon="0.20457">
        <ele>1464.3</ele>
        <time>2016-07-31T09:06:07Z</time>
      </trkpt>
      <trkpt lat="42.92099" lon="0.20446">
        <ele>1464</ele>
        <time>2016-07-31T09:06:13Z</time>
      </trkpt>
      <trkpt lat="42.92106" lon="0.20436">
        <ele>1464.7</ele>
        <time>2016-07-31T09:06:20Z</time>
      </trkpt>
      <trkpt lat="42.92112" lon="0.20426">
        <ele>1465.1</ele>
        <time>2016-07-31T09:06:26Z</time>
      </trkpt>
      <trkpt lat="42.92118" lon="0.20416">
        <ele>1465.3</ele>
        <time>2016-07-31T09:06:32Z</time>
      </trkpt>
      <trkpt lat="42.92126" lon="0.20407">
        <ele>1465.2</ele>
        <time>2016-07-31T09:06:38Z</time>
      </trkpt>
      <trkpt lat="42.92132" lon="0.20396">
        <ele>1465.5</ele>
        <time>2016-07-31T09:06:44Z</time>
      </trkpt>
      <trkpt lat="42.92138" lon="0.20387">
        <ele>1466.2</ele>
        <time>2016-07-31T09:06:50Z</time>
      </trkpt>
      <trkpt lat="42.92145" lon="0.20377">
        <ele>1467.1</ele>
        <time>2016-07-31T09:06:56Z</time>
      </trkpt>
      <trkpt lat="42.92154" lon="0.2037">
        <ele>1468.8</ele>
        <time>2016-07-31T09:07:01Z</time>
      </trkpt>
      <trkpt lat="42.9216" lon="0.20358">
        <ele>1470.2</ele>
        <time>2016-07-31T09:07:08Z</time>
      </trkpt>
      <trkpt lat="42.92164" lon="0.20346">
        <ele>1471.1</ele>
        <time>2016-07-31T09:07:14Z</time>
      </trkpt>
      <trkpt lat="42.92171" lon="0.20336">
        <ele>1473.9</ele>
        <time>2016-07-31T09:07:20Z</time>
      </trkpt>
      <trkpt lat="42.92177" lon="0.20325">
        <ele>1477.3</ele>
        <time>2016-07-31T09:07:26Z</time>
      </trkpt>
      <trkpt lat="42.92181" lon="0.20312">
        <ele>1479.5</ele>
        <time>2016-07-31T09:07:32Z</time>
      </trkpt>
      <trkpt lat="42.92184" lon="0.20299">
        <ele>1480.6</ele>
        <time>2016-07-31T09:07:38Z</time>
      </trkpt>
      <trkpt lat="42.92187" lon="0.20285">
        <ele>1482.1</ele>
        <time>2016-07-31T09:07:44Z</time>
      </trkpt>
      <trkpt lat="42.92191" lon="0.20272">
        <ele>1483.1</ele>
        <time>2016-07-31T09:07:50Z</time>
      </trkpt>
      <trkpt lat="42.9219" lon="0.2026">
        <ele>1484.3</ele>
        <time>2016-07-31T09:07:56Z</time>
      </trkpt>
      <trkpt lat="42.92195" lon="0.20248">
        <ele>1485.4</ele>
        <time>2016-07-31T09:08:02Z</time>
      </trkpt>
      <trkpt lat="42.92198" lon="0.20236">
        <ele>1486.5</ele>
        <time>2016-07-31T09:08:08Z</time>
      </trkpt>
      <trkpt lat="42.922" lon="0.20224">
        <ele>1486.4</ele>
        <time>2016-07-31T09:08:14Z</time>
      </trkpt>
      <trkpt lat="42.92203" lon="0.20211">
        <ele>1486.9</ele>
        <time>2016-07-31T09:08:21Z</time>
      </trkpt>
      <trkpt lat="42.92209" lon="0.20201">
        <ele>1487.8</ele>
        <time>2016-07-31T09:08:26Z</time>
      </trkpt>
      <trkpt lat="42.92214" lon="0.20189">
        <ele>1488.5</ele>
        <time>2016-07-31T09:08:32Z</time>
      </trkpt>
      <trkpt lat="42.92219" lon="0.20179">
        <ele>1489.3</ele>
        <time>2016-07-31T09:08:37Z</time>
      </trkpt>
      <trkpt lat="42.92224" lon="0.20168">
        <ele>1490.2</ele>
        <time>2016-07-31T09:08:42Z</time>
      </trkpt>
      <trkpt lat="42.92229" lon="0.20156">
        <ele>1491.3</ele>
        <time>2016-07-31T09:08:48Z</time>
      </trkpt>
      <trkpt lat="42.92236" lon="0.20147">
        <ele>1494.7</ele>
        <time>2016-07-31T09:08:53Z</time>
      </trkpt>
      <trkpt lat="42.92239" lon="0.20135">
        <ele>1495.5</ele>
        <time>2016-07-31T09:08:59Z</time>
      </trkpt>
      <trkpt lat="42.92243" lon="0.20123">
        <ele>1497.3</ele>
        <time>2016-07-31T09:09:06Z</time>
      </trkpt>
      <trkpt lat="42.92245" lon="0.2011">
        <ele>1498.3</ele>
        <time>2016-07-31T09:09:12Z</time>
      </trkpt>
      <trkpt lat="42.92244" lon="0.20097">
        <ele>1499.1</ele>
        <time>2016-07-31T09:09:18Z</time>
      </trkpt>
      <trkpt lat="42.92245" lon="0.20084">
        <ele>1501.7</ele>
        <time>2016-07-31T09:09:24Z</time>
      </trkpt>
      <trkpt lat="42.92242" lon="0.20072">
        <ele>1503.4</ele>
        <time>2016-07-31T09:09:30Z</time>
      </trkpt>
      <trkpt lat="42.9224" lon="0.20059">
        <ele>1505.2</ele>
        <time>2016-07-31T09:09:36Z</time>
      </trkpt>
      <trkpt lat="42.92238" lon="0.20046">
        <ele>1507.5</ele>
        <time>2016-07-31T09:09:42Z</time>
      </trkpt>
      <trkpt lat="42.92234" lon="0.20035">
        <ele>1509.5</ele>
        <time>2016-07-31T09:09:48Z</time>
      </trkpt>
      <trkpt lat="42.92231" lon="0.20023">
        <ele>1511.6</ele>
        <time>2016-07-31T09:09:54Z</time>
      </trkpt>
      <trkpt lat="42.92227" lon="0.20011">
        <ele>1513.1</ele>
        <time>2016-07-31T09:09:59Z</time>
      </trkpt>
      <trkpt lat="42.92223" lon="0.19999">
        <ele>1514.9</ele>
        <time>2016-07-31T09:10:05Z</time>
      </trkpt>
      <trkpt lat="42.92219" lon="0.19988">
        <ele>1516.1</ele>
        <time>2016-07-31T09:10:11Z</time>
      </trkpt>
      <trkpt lat="42.92215" lon="0.19976">
        <ele>1517.6</ele>
        <time>2016-07-31T09:10:17Z</time>
      </trkpt>
      <trkpt lat="42.9221" lon="0.19965">
        <ele>1518.7</ele>
        <time>2016-07-31T09:10:23Z</time>
      </trkpt>
      <trkpt lat="42.92205" lon="0.19953">
        <ele>1520.8</ele>
        <time>2016-07-31T09:10:30Z</time>
      </trkpt>
      <trkpt lat="42.922" lon="0.1994">
        <ele>1522.5</ele>
        <time>2016-07-31T09:10:37Z</time>
      </trkpt>
      <trkpt lat="42.92196" lon="0.19928">
        <ele>1524.1</ele>
        <time>2016-07-31T09:10:43Z</time>
      </trkpt>
      <trkpt lat="42.92191" lon="0.19916">
        <ele>1525.6</ele>
        <time>2016-07-31T09:10:49Z</time>
      </trkpt>
      <trkpt lat="42.92185" lon="0.19904">
        <ele>1526.7</ele>
        <time>2016-07-31T09:10:55Z</time>
      </trkpt>
      <trkpt lat="42.92181" lon="0.19891">
        <ele>1528</ele>
        <time>2016-07-31T09:11:01Z</time>
      </trkpt>
      <trkpt lat="42.92177" lon="0.1988">
        <ele>1529</ele>
        <time>2016-07-31T09:11:07Z</time>
      </trkpt>
      <trkpt lat="42.92172" lon="0.19869">
        <ele>1529.9</ele>
        <time>2016-07-31T09:11:13Z</time>
      </trkpt>
      <trkpt lat="42.92168" lon="0.19857">
        <ele>1531.4</ele>
        <time>2016-07-31T09:11:20Z</time>
      </trkpt>
      <trkpt lat="42.92163" lon="0.19844">
        <ele>1532.5</ele>
        <time>2016-07-31T09:11:27Z</time>
      </trkpt>
      <trkpt lat="42.92158" lon="0.19832">
        <ele>1533.5</ele>
        <time>2016-07-31T09:11:33Z</time>
      </trkpt>
      <trkpt lat="42.92151" lon="0.19822">
        <ele>1534</ele>
        <time>2016-07-31T09:11:39Z</time>
      </trkpt>
      <trkpt lat="42.92145" lon="0.19812">
        <ele>1534.9</ele>
        <time>2016-07-31T09:11:45Z</time>
      </trkpt>
      <trkpt lat="42.92139" lon="0.19802">
        <ele>1535.7</ele>
        <time>2016-07-31T09:11:51Z</time>
      </trkpt>
      <trkpt lat="42.92135" lon="0.1979">
        <ele>1536.6</ele>
        <time>2016-07-31T09:11:57Z</time>
      </trkpt>
      <trkpt lat="42.92129" lon="0.19779">
        <ele>1537.4</ele>
        <time>2016-07-31T09:12:03Z</time>
      </trkpt>
      <trkpt lat="42.92123" lon="0.19768">
        <ele>1538.1</ele>
        <time>2016-07-31T09:12:10Z</time>
      </trkpt>
      <trkpt lat="42.92118" lon="0.19757">
        <ele>1539.2</ele>
        <time>2016-07-31T09:12:16Z</time>
      </trkpt>
      <trkpt lat="42.92114" lon="0.19745">
        <ele>1541.2</ele>
        <time>2016-07-31T09:12:23Z</time>
      </trkpt>
      <trkpt lat="42.92108" lon="0.19735">
        <ele>1542.5</ele>
        <time>2016-07-31T09:12:29Z</time>
      </trkpt>
      <trkpt lat="42.92102" lon="0.19723">
        <ele>1543.6</ele>
        <time>2016-07-31T09:12:35Z</time>
      </trkpt>
      <trkpt lat="42.92097" lon="0.19712">
        <ele>1544.4</ele>
        <time>2016-07-31T09:12:41Z</time>
      </trkpt>
      <trkpt lat="42.92091" lon="0.19701">
        <ele>1545.2</ele>
        <time>2016-07-31T09:12:47Z</time>
      </trkpt>
      <trkpt lat="42.92087" lon="0.1969">
        <ele>1546.6</ele>
        <time>2016-07-31T09:12:53Z</time>
      </trkpt>
      <trkpt lat="42.92082" lon="0.1968">
        <ele>1547.5</ele>
        <time>2016-07-31T09:12:59Z</time>
      </trkpt>
      <trkpt lat="42.92076" lon="0.19669">
        <ele>1548.2</ele>
        <time>2016-07-31T09:13:05Z</time>
      </trkpt>
      <trkpt lat="42.92071" lon="0.19656">
        <ele>1549.7</ele>
        <time>2016-07-31T09:13:12Z</time>
      </trkpt>
      <trkpt lat="42.92062" lon="0.19659">
        <ele>1542.4</ele>
        <time>2016-07-31T09:16:40Z</time>
      </trkpt>
      <trkpt lat="42.9207" lon="0.19645">
        <ele>1540.6</ele>
        <time>2016-07-31T09:18:57Z</time>
      </trkpt>
      <trkpt lat="42.92064" lon="0.19636">
        <ele>1539.6</ele>
        <time>2016-07-31T09:19:11Z</time>
      </trkpt>
      <trkpt lat="42.92059" lon="0.19623">
        <ele>1540.6</ele>
        <time>2016-07-31T09:19:17Z</time>
      </trkpt>
      <trkpt lat="42.92056" lon="0.19611">
        <ele>1541.5</ele>
        <time>2016-07-31T09:19:22Z</time>
      </trkpt>
      <trkpt lat="42.92053" lon="0.19599">
        <ele>1542.5</ele>
        <time>2016-07-31T09:19:27Z</time>
      </trkpt>
      <trkpt lat="42.92048" lon="0.19587">
        <ele>1543.6</ele>
        <time>2016-07-31T09:19:33Z</time>
      </trkpt>
      <trkpt lat="42.92045" lon="0.19574">
        <ele>1544.4</ele>
        <time>2016-07-31T09:19:39Z</time>
      </trkpt>
      <trkpt lat="42.92043" lon="0.19561">
        <ele>1545.7</ele>
        <time>2016-07-31T09:19:45Z</time>
      </trkpt>
      <trkpt lat="42.92035" lon="0.19554">
        <ele>1546.5</ele>
        <time>2016-07-31T09:19:49Z</time>
      </trkpt>
      <trkpt lat="42.9203" lon="0.19542">
        <ele>1547.3</ele>
        <time>2016-07-31T09:19:55Z</time>
      </trkpt>
      <trkpt lat="42.92026" lon="0.19529">
        <ele>1548.6</ele>
        <time>2016-07-31T09:20:01Z</time>
      </trkpt>
      <trkpt lat="42.92022" lon="0.19516">
        <ele>1549.7</ele>
        <time>2016-07-31T09:20:07Z</time>
      </trkpt>
      <trkpt lat="42.92018" lon="0.19505">
        <ele>1550.5</ele>
        <time>2016-07-31T09:20:12Z</time>
      </trkpt>
      <trkpt lat="42.92011" lon="0.19495">
        <ele>1552</ele>
        <time>2016-07-31T09:20:18Z</time>
      </trkpt>
      <trkpt lat="42.92007" lon="0.19483">
        <ele>1553.3</ele>
        <time>2016-07-31T09:20:24Z</time>
      </trkpt>
      <trkpt lat="42.92003" lon="0.19471">
        <ele>1554.6</ele>
        <time>2016-07-31T09:20:30Z</time>
      </trkpt>
      <trkpt lat="42.91997" lon="0.19458">
        <ele>1555.6</ele>
        <time>2016-07-31T09:20:36Z</time>
      </trkpt>
      <trkpt lat="42.91995" lon="0.19445">
        <ele>1556.1</ele>
        <time>2016-07-31T09:20:42Z</time>
      </trkpt>
      <trkpt lat="42.91993" lon="0.19432">
        <ele>1556.3</ele>
        <time>2016-07-31T09:20:48Z</time>
      </trkpt>
      <trkpt lat="42.91987" lon="0.19421">
        <ele>1557</ele>
        <time>2016-07-31T09:20:53Z</time>
      </trkpt>
      <trkpt lat="42.91984" lon="0.19408">
        <ele>1558.1</ele>
        <time>2016-07-31T09:20:59Z</time>
      </trkpt>
      <trkpt lat="42.91982" lon="0.19395">
        <ele>1558.9</ele>
        <time>2016-07-31T09:21:05Z</time>
      </trkpt>
      <trkpt lat="42.91984" lon="0.19383">
        <ele>1559.8</ele>
        <time>2016-07-31T09:21:11Z</time>
      </trkpt>
      <trkpt lat="42.91981" lon="0.19369">
        <ele>1561</ele>
        <time>2016-07-31T09:21:18Z</time>
      </trkpt>
      <trkpt lat="42.91982" lon="0.19356">
        <ele>1561.5</ele>
        <time>2016-07-31T09:21:24Z</time>
      </trkpt>
      <trkpt lat="42.91981" lon="0.19343">
        <ele>1561.9</ele>
        <time>2016-07-31T09:21:30Z</time>
      </trkpt>
      <trkpt lat="42.91975" lon="0.19331">
        <ele>1562.2</ele>
        <time>2016-07-31T09:21:36Z</time>
      </trkpt>
      <trkpt lat="42.91975" lon="0.19318">
        <ele>1563.8</ele>
        <time>2016-07-31T09:21:42Z</time>
      </trkpt>
      <trkpt lat="42.91976" lon="0.19304">
        <ele>1564.9</ele>
        <time>2016-07-31T09:21:48Z</time>
      </trkpt>
      <trkpt lat="42.91974" lon="0.19291">
        <ele>1566.9</ele>
        <time>2016-07-31T09:21:54Z</time>
      </trkpt>
      <trkpt lat="42.91973" lon="0.19278">
        <ele>1568.4</ele>
        <time>2016-07-31T09:22:00Z</time>
      </trkpt>
      <trkpt lat="42.91972" lon="0.19265">
        <ele>1569.5</ele>
        <time>2016-07-31T09:22:05Z</time>
      </trkpt>
      <trkpt lat="42.91972" lon="0.19251">
        <ele>1571</ele>
        <time>2016-07-31T09:22:11Z</time>
      </trkpt>
      <trkpt lat="42.91972" lon="0.19238">
        <ele>1572.2</ele>
        <time>2016-07-31T09:22:17Z</time>
      </trkpt>
      <trkpt lat="42.9197" lon="0.19224">
        <ele>1573.3</ele>
        <time>2016-07-31T09:22:23Z</time>
      </trkpt>
      <trkpt lat="42.91967" lon="0.1921">
        <ele>1574.1</ele>
        <time>2016-07-31T09:22:29Z</time>
      </trkpt>
      <trkpt lat="42.91967" lon="0.19196">
        <ele>1575.2</ele>
        <time>2016-07-31T09:22:35Z</time>
      </trkpt>
      <trkpt lat="42.91967" lon="0.19182">
        <ele>1577.6</ele>
        <time>2016-07-31T09:22:42Z</time>
      </trkpt>
      <trkpt lat="42.91964" lon="0.19169">
        <ele>1579.1</ele>
        <time>2016-07-31T09:22:48Z</time>
      </trkpt>
      <trkpt lat="42.91961" lon="0.19156">
        <ele>1580.3</ele>
        <time>2016-07-31T09:22:54Z</time>
      </trkpt>
      <trkpt lat="42.91957" lon="0.19144">
        <ele>1581.2</ele>
        <time>2016-07-31T09:23:00Z</time>
      </trkpt>
      <trkpt lat="42.91952" lon="0.19131">
        <ele>1582.3</ele>
        <time>2016-07-31T09:23:06Z</time>
      </trkpt>
      <trkpt lat="42.91947" lon="0.1912">
        <ele>1583.2</ele>
        <time>2016-07-31T09:23:12Z</time>
      </trkpt>
      <trkpt lat="42.91941" lon="0.19108">
        <ele>1584</ele>
        <time>2016-07-31T09:23:18Z</time>
      </trkpt>
      <trkpt lat="42.91934" lon="0.19098">
        <ele>1584.9</ele>
        <time>2016-07-31T09:23:24Z</time>
      </trkpt>
      <trkpt lat="42.91927" lon="0.19089">
        <ele>1586.1</ele>
        <time>2016-07-31T09:23:30Z</time>
      </trkpt>
      <trkpt lat="42.91919" lon="0.19081">
        <ele>1587</ele>
        <time>2016-07-31T09:23:36Z</time>
      </trkpt>
      <trkpt lat="42.9191" lon="0.19074">
        <ele>1587.8</ele>
        <time>2016-07-31T09:23:42Z</time>
      </trkpt>
      <trkpt lat="42.91902" lon="0.19066">
        <ele>1588.7</ele>
        <time>2016-07-31T09:23:48Z</time>
      </trkpt>
      <trkpt lat="42.91893" lon="0.19058">
        <ele>1589.4</ele>
        <time>2016-07-31T09:23:54Z</time>
      </trkpt>
      <trkpt lat="42.91885" lon="0.1905">
        <ele>1590.6</ele>
        <time>2016-07-31T09:24:00Z</time>
      </trkpt>
      <trkpt lat="42.91877" lon="0.19041">
        <ele>1591.6</ele>
        <time>2016-07-31T09:24:06Z</time>
      </trkpt>
      <trkpt lat="42.91869" lon="0.19033">
        <ele>1592.3</ele>
        <time>2016-07-31T09:24:12Z</time>
      </trkpt>
      <trkpt lat="42.91861" lon="0.19024">
        <ele>1593.1</ele>
        <time>2016-07-31T09:24:18Z</time>
      </trkpt>
      <trkpt lat="42.91852" lon="0.19017">
        <ele>1594.2</ele>
        <time>2016-07-31T09:24:24Z</time>
      </trkpt>
      <trkpt lat="42.91844" lon="0.19009">
        <ele>1595</ele>
        <time>2016-07-31T09:24:30Z</time>
      </trkpt>
      <trkpt lat="42.91836" lon="0.19001">
        <ele>1595.9</ele>
        <time>2016-07-31T09:24:36Z</time>
      </trkpt>
      <trkpt lat="42.91827" lon="0.18993">
        <ele>1596.7</ele>
        <time>2016-07-31T09:24:42Z</time>
      </trkpt>
      <trkpt lat="42.91819" lon="0.18985">
        <ele>1597.6</ele>
        <time>2016-07-31T09:24:48Z</time>
      </trkpt>
      <trkpt lat="42.91811" lon="0.18975">
        <ele>1598.2</ele>
        <time>2016-07-31T09:24:54Z</time>
      </trkpt>
      <trkpt lat="42.91803" lon="0.18965">
        <ele>1599.1</ele>
        <time>2016-07-31T09:25:00Z</time>
      </trkpt>
      <trkpt lat="42.91795" lon="0.18957">
        <ele>1600</ele>
        <time>2016-07-31T09:25:05Z</time>
      </trkpt>
      <trkpt lat="42.91788" lon="0.18948">
        <ele>1600.9</ele>
        <time>2016-07-31T09:25:10Z</time>
      </trkpt>
      <trkpt lat="42.9178" lon="0.18938">
        <ele>1601.8</ele>
        <time>2016-07-31T09:25:16Z</time>
      </trkpt>
      <trkpt lat="42.91773" lon="0.18928">
        <ele>1602.8</ele>
        <time>2016-07-31T09:25:22Z</time>
      </trkpt>
      <trkpt lat="42.91766" lon="0.18918">
        <ele>1603.7</ele>
        <time>2016-07-31T09:25:28Z</time>
      </trkpt>
      <trkpt lat="42.91758" lon="0.18909">
        <ele>1604.9</ele>
        <time>2016-07-31T09:25:34Z</time>
      </trkpt>
      <trkpt lat="42.9175" lon="0.189">
        <ele>1605.9</ele>
        <time>2016-07-31T09:25:40Z</time>
      </trkpt>
      <trkpt lat="42.91742" lon="0.18893">
        <ele>1607.6</ele>
        <time>2016-07-31T09:25:46Z</time>
      </trkpt>
      <trkpt lat="42.91733" lon="0.18885">
        <ele>1609.3</ele>
        <time>2016-07-31T09:25:52Z</time>
      </trkpt>
      <trkpt lat="42.91725" lon="0.18878">
        <ele>1610.8</ele>
        <time>2016-07-31T09:25:58Z</time>
      </trkpt>
      <trkpt lat="42.91716" lon="0.1887">
        <ele>1611.9</ele>
        <time>2016-07-31T09:26:04Z</time>
      </trkpt>
      <trkpt lat="42.91708" lon="0.18862">
        <ele>1612.9</ele>
        <time>2016-07-31T09:26:10Z</time>
      </trkpt>
      <trkpt lat="42.91699" lon="0.18855">
        <ele>1613.9</ele>
        <time>2016-07-31T09:26:16Z</time>
      </trkpt>
      <trkpt lat="42.91691" lon="0.18846">
        <ele>1614.8</ele>
        <time>2016-07-31T09:26:22Z</time>
      </trkpt>
      <trkpt lat="42.91683" lon="0.18838">
        <ele>1615.9</ele>
        <time>2016-07-31T09:26:28Z</time>
      </trkpt>
      <trkpt lat="42.91675" lon="0.18831">
        <ele>1616.9</ele>
        <time>2016-07-31T09:26:34Z</time>
      </trkpt>
      <trkpt lat="42.91667" lon="0.18824">
        <ele>1617.8</ele>
        <time>2016-07-31T09:26:40Z</time>
      </trkpt>
      <trkpt lat="42.91658" lon="0.18818">
        <ele>1618.8</ele>
        <time>2016-07-31T09:26:46Z</time>
      </trkpt>
      <trkpt lat="42.9165" lon="0.18811">
        <ele>1619.9</ele>
        <time>2016-07-31T09:26:52Z</time>
      </trkpt>
      <trkpt lat="42.91643" lon="0.18802">
        <ele>1621</ele>
        <time>2016-07-31T09:26:58Z</time>
      </trkpt>
      <trkpt lat="42.91636" lon="0.18792">
        <ele>1621.8</ele>
        <time>2016-07-31T09:27:04Z</time>
      </trkpt>
      <trkpt lat="42.91632" lon="0.1878">
        <ele>1622.8</ele>
        <time>2016-07-31T09:27:10Z</time>
      </trkpt>
      <trkpt lat="42.91628" lon="0.18768">
        <ele>1624.1</ele>
        <time>2016-07-31T09:27:16Z</time>
      </trkpt>
      <trkpt lat="42.91624" lon="0.18757">
        <ele>1625.7</ele>
        <time>2016-07-31T09:27:22Z</time>
      </trkpt>
      <trkpt lat="42.91618" lon="0.18746">
        <ele>1627</ele>
        <time>2016-07-31T09:27:28Z</time>
      </trkpt>
      <trkpt lat="42.91611" lon="0.18737">
        <ele>1628</ele>
        <time>2016-07-31T09:27:33Z</time>
      </trkpt>
      <trkpt lat="42.91603" lon="0.18728">
        <ele>1629.1</ele>
        <time>2016-07-31T09:27:39Z</time>
      </trkpt>
      <trkpt lat="42.91596" lon="0.1872">
        <ele>1630.2</ele>
        <time>2016-07-31T09:27:45Z</time>
      </trkpt>
      <trkpt lat="42.91588" lon="0.18712">
        <ele>1631.6</ele>
        <time>2016-07-31T09:27:51Z</time>
      </trkpt>
      <trkpt lat="42.9158" lon="0.18706">
        <ele>1633</ele>
        <time>2016-07-31T09:27:57Z</time>
      </trkpt>
      <trkpt lat="42.91571" lon="0.18701">
        <ele>1634.7</ele>
        <time>2016-07-31T09:28:04Z</time>
      </trkpt>
      <trkpt lat="42.91561" lon="0.18702">
        <ele>1636.4</ele>
        <time>2016-07-31T09:28:11Z</time>
      </trkpt>
      <trkpt lat="42.91551" lon="0.18706">
        <ele>1637.6</ele>
        <time>2016-07-31T09:28:18Z</time>
      </trkpt>
      <trkpt lat="42.91542" lon="0.18709">
        <ele>1639.2</ele>
        <time>2016-07-31T09:28:24Z</time>
      </trkpt>
      <trkpt lat="42.91532" lon="0.18712">
        <ele>1640.8</ele>
        <time>2016-07-31T09:28:30Z</time>
      </trkpt>
      <trkpt lat="42.91523" lon="0.18713">
        <ele>1642.5</ele>
        <time>2016-07-31T09:28:36Z</time>
      </trkpt>
      <trkpt lat="42.91513" lon="0.18708">
        <ele>1644</ele>
        <time>2016-07-31T09:28:42Z</time>
      </trkpt>
      <trkpt lat="42.91505" lon="0.187">
        <ele>1645.5</ele>
        <time>2016-07-31T09:28:48Z</time>
      </trkpt>
      <trkpt lat="42.91503" lon="0.18688">
        <ele>1646.3</ele>
        <time>2016-07-31T09:28:51Z</time>
      </trkpt>
      <trkpt lat="42.9151" lon="0.18649">
        <ele>1646.4</ele>
        <time>2016-07-31T09:28:53Z</time>
      </trkpt>
      <trkpt lat="42.91517" lon="0.18606">
        <ele>1646.4</ele>
        <time>2016-07-31T09:28:54Z</time>
      </trkpt>
      <trkpt lat="42.91523" lon="0.18548">
        <ele>1646.3</ele>
        <time>2016-07-31T09:28:55Z</time>
      </trkpt>
      <trkpt lat="42.91548" lon="0.18453">
        <ele>1646.4</ele>
        <time>2016-07-31T09:28:57Z</time>
      </trkpt>
      <trkpt lat="42.91562" lon="0.1841">
        <ele>1646.5</ele>
        <time>2016-07-31T09:28:58Z</time>
      </trkpt>
      <trkpt lat="42.91558" lon="0.18394">
        <ele>1646.7</ele>
        <time>2016-07-31T09:28:59Z</time>
      </trkpt>
      <trkpt lat="42.91555" lon="0.18382">
        <ele>1646.9</ele>
        <time>2016-07-31T09:29:00Z</time>
      </trkpt>
      <trkpt lat="42.91553" lon="0.18369">
        <ele>1647.2</ele>
        <time>2016-07-31T09:29:01Z</time>
      </trkpt>
      <trkpt lat="42.91551" lon="0.18353">
        <ele>1647.6</ele>
        <time>2016-07-31T09:29:03Z</time>
      </trkpt>
      <trkpt lat="42.91558" lon="0.18321">
        <ele>1647.7</ele>
        <time>2016-07-31T09:29:04Z</time>
      </trkpt>
      <trkpt lat="42.91545" lon="0.1832">
        <ele>1648.2</ele>
        <time>2016-07-31T09:29:06Z</time>
      </trkpt>
      <trkpt lat="42.91543" lon="0.18302">
        <ele>1648.8</ele>
        <time>2016-07-31T09:29:09Z</time>
      </trkpt>
      <trkpt lat="42.91528" lon="0.18327">
        <ele>1650</ele>
        <time>2016-07-31T09:29:14Z</time>
      </trkpt>
      <trkpt lat="42.91522" lon="0.18343">
        <ele>1650.5</ele>
        <time>2016-07-31T09:29:16Z</time>
      </trkpt>
      <trkpt lat="42.91515" lon="0.1836">
        <ele>1650.9</ele>
        <time>2016-07-31T09:29:18Z</time>
      </trkpt>
      <trkpt lat="42.9151" lon="0.18371">
        <ele>1651.4</ele>
        <time>2016-07-31T09:29:20Z</time>
      </trkpt>
      <trkpt lat="42.91504" lon="0.18386">
        <ele>1651.7</ele>
        <time>2016-07-31T09:29:21Z</time>
      </trkpt>
      <trkpt lat="42.91498" lon="0.18399">
        <ele>1652.2</ele>
        <time>2016-07-31T09:29:23Z</time>
      </trkpt>
      <trkpt lat="42.91493" lon="0.18424">
        <ele>1652.4</ele>
        <time>2016-07-31T09:29:24Z</time>
      </trkpt>
      <trkpt lat="42.91496" lon="0.18388">
        <ele>1652.4</ele>
        <time>2016-07-31T09:29:26Z</time>
      </trkpt>
      <trkpt lat="42.91501" lon="0.1841">
        <ele>1652.5</ele>
        <time>2016-07-31T09:29:28Z</time>
      </trkpt>
      <trkpt lat="42.91496" lon="0.18427">
        <ele>1652.7</ele>
        <time>2016-07-31T09:29:29Z</time>
      </trkpt>
      <trkpt lat="42.91493" lon="0.18442">
        <ele>1653.1</ele>
        <time>2016-07-31T09:29:31Z</time>
      </trkpt>
      <trkpt lat="42.91487" lon="0.18456">
        <ele>1653.5</ele>
        <time>2016-07-31T09:29:33Z</time>
      </trkpt>
      <trkpt lat="42.91478" lon="0.1848">
        <ele>1653.7</ele>
        <time>2016-07-31T09:29:34Z</time>
      </trkpt>
      <trkpt lat="42.9147" lon="0.18495">
        <ele>1654.1</ele>
        <time>2016-07-31T09:29:36Z</time>
      </trkpt>
      <trkpt lat="42.91448" lon="0.18599">
        <ele>1653.6</ele>
        <time>2016-07-31T09:29:37Z</time>
      </trkpt>
      <trkpt lat="42.91442" lon="0.18633">
        <ele>1653.6</ele>
        <time>2016-07-31T09:29:38Z</time>
      </trkpt>
      <trkpt lat="42.91435" lon="0.18643">
        <ele>1654</ele>
        <time>2016-07-31T09:29:40Z</time>
      </trkpt>
      <trkpt lat="42.91427" lon="0.18649">
        <ele>1655.6</ele>
        <time>2016-07-31T09:29:43Z</time>
      </trkpt>
      <trkpt lat="42.91417" lon="0.18651">
        <ele>1657.6</ele>
        <time>2016-07-31T09:29:48Z</time>
      </trkpt>
      <trkpt lat="42.91407" lon="0.18652">
        <ele>1658.9</ele>
        <time>2016-07-31T09:29:54Z</time>
      </trkpt>
      <trkpt lat="42.91396" lon="0.18653">
        <ele>1660.5</ele>
        <time>2016-07-31T09:30:01Z</time>
      </trkpt>
      <trkpt lat="42.91387" lon="0.18655">
        <ele>1661.9</ele>
        <time>2016-07-31T09:30:07Z</time>
      </trkpt>
      <trkpt lat="42.91376" lon="0.18652">
        <ele>1663.3</ele>
        <time>2016-07-31T09:30:13Z</time>
      </trkpt>
      <trkpt lat="42.91367" lon="0.1865">
        <ele>1664.5</ele>
        <time>2016-07-31T09:30:18Z</time>
      </trkpt>
      <trkpt lat="42.91359" lon="0.18643">
        <ele>1665.9</ele>
        <time>2016-07-31T09:30:24Z</time>
      </trkpt>
      <trkpt lat="42.91355" lon="0.18632">
        <ele>1668.3</ele>
        <time>2016-07-31T09:30:34Z</time>
      </trkpt>
      <trkpt lat="42.9135" lon="0.18621">
        <ele>1669.4</ele>
        <time>2016-07-31T09:30:39Z</time>
      </trkpt>
      <trkpt lat="42.91344" lon="0.18611">
        <ele>1670.5</ele>
        <time>2016-07-31T09:30:44Z</time>
      </trkpt>
      <trkpt lat="42.9134" lon="0.18599">
        <ele>1672.2</ele>
        <time>2016-07-31T09:30:49Z</time>
      </trkpt>
      <trkpt lat="42.91338" lon="0.18586">
        <ele>1672.6</ele>
        <time>2016-07-31T09:30:55Z</time>
      </trkpt>
      <trkpt lat="42.91336" lon="0.18574">
        <ele>1673</ele>
        <time>2016-07-31T09:31:01Z</time>
      </trkpt>
      <trkpt lat="42.91331" lon="0.18562">
        <ele>1673.3</ele>
        <time>2016-07-31T09:31:07Z</time>
      </trkpt>
      <trkpt lat="42.91328" lon="0.1855">
        <ele>1674.1</ele>
        <time>2016-07-31T09:31:13Z</time>
      </trkpt>
      <trkpt lat="42.91323" lon="0.18539">
        <ele>1674.8</ele>
        <time>2016-07-31T09:31:19Z</time>
      </trkpt>
      <trkpt lat="42.91319" lon="0.18528">
        <ele>1675.6</ele>
        <time>2016-07-31T09:31:25Z</time>
      </trkpt>
      <trkpt lat="42.91315" lon="0.18517">
        <ele>1676.1</ele>
        <time>2016-07-31T09:31:31Z</time>
      </trkpt>
      <trkpt lat="42.9131" lon="0.18505">
        <ele>1676.6</ele>
        <time>2016-07-31T09:31:38Z</time>
      </trkpt>
      <trkpt lat="42.91306" lon="0.18493">
        <ele>1677.2</ele>
        <time>2016-07-31T09:31:44Z</time>
      </trkpt>
      <trkpt lat="42.91301" lon="0.18482">
        <ele>1678.3</ele>
        <time>2016-07-31T09:31:50Z</time>
      </trkpt>
      <trkpt lat="42.91296" lon="0.18471">
        <ele>1679</ele>
        <time>2016-07-31T09:31:56Z</time>
      </trkpt>
      <trkpt lat="42.91289" lon="0.18461">
        <ele>1679.6</ele>
        <time>2016-07-31T09:32:02Z</time>
      </trkpt>
      <trkpt lat="42.91282" lon="0.18452">
        <ele>1680</ele>
        <time>2016-07-31T09:32:08Z</time>
      </trkpt>
      <trkpt lat="42.91274" lon="0.18443">
        <ele>1680.6</ele>
        <time>2016-07-31T09:32:14Z</time>
      </trkpt>
      <trkpt lat="42.91266" lon="0.18435">
        <ele>1681.3</ele>
        <time>2016-07-31T09:32:20Z</time>
      </trkpt>
      <trkpt lat="42.91257" lon="0.18427">
        <ele>1682</ele>
        <time>2016-07-31T09:32:26Z</time>
      </trkpt>
      <trkpt lat="42.91248" lon="0.18422">
        <ele>1682.9</ele>
        <time>2016-07-31T09:32:32Z</time>
      </trkpt>
      <trkpt lat="42.91238" lon="0.18417">
        <ele>1683.6</ele>
        <time>2016-07-31T09:32:38Z</time>
      </trkpt>
      <trkpt lat="42.91229" lon="0.18414">
        <ele>1684.4</ele>
        <time>2016-07-31T09:32:44Z</time>
      </trkpt>
      <trkpt lat="42.91219" lon="0.18412">
        <ele>1685.6</ele>
        <time>2016-07-31T09:32:50Z</time>
      </trkpt>
      <trkpt lat="42.9121" lon="0.18412">
        <ele>1686.6</ele>
        <time>2016-07-31T09:32:56Z</time>
      </trkpt>
      <trkpt lat="42.91201" lon="0.1841">
        <ele>1687.3</ele>
        <time>2016-07-31T09:33:02Z</time>
      </trkpt>
      <trkpt lat="42.91191" lon="0.18406">
        <ele>1687.9</ele>
        <time>2016-07-31T09:33:08Z</time>
      </trkpt>
      <trkpt lat="42.91182" lon="0.18401">
        <ele>1688.7</ele>
        <time>2016-07-31T09:33:14Z</time>
      </trkpt>
      <trkpt lat="42.91175" lon="0.18394">
        <ele>1689.7</ele>
        <time>2016-07-31T09:33:20Z</time>
      </trkpt>
      <trkpt lat="42.91168" lon="0.18385">
        <ele>1690.8</ele>
        <time>2016-07-31T09:33:26Z</time>
      </trkpt>
      <trkpt lat="42.91161" lon="0.18376">
        <ele>1691.9</ele>
        <time>2016-07-31T09:33:32Z</time>
      </trkpt>
      <trkpt lat="42.91153" lon="0.18367">
        <ele>1693.5</ele>
        <time>2016-07-31T09:33:39Z</time>
      </trkpt>
      <trkpt lat="42.91144" lon="0.18361">
        <ele>1694.6</ele>
        <time>2016-07-31T09:33:45Z</time>
      </trkpt>
      <trkpt lat="42.91137" lon="0.18353">
        <ele>1696.8</ele>
        <time>2016-07-31T09:33:52Z</time>
      </trkpt>
      <trkpt lat="42.91133" lon="0.1834">
        <ele>1699.2</ele>
        <time>2016-07-31T09:34:00Z</time>
      </trkpt>
      <trkpt lat="42.9113" lon="0.18328">
        <ele>1700.8</ele>
        <time>2016-07-31T09:34:07Z</time>
      </trkpt>
      <trkpt lat="42.91125" lon="0.18315">
        <ele>1701.7</ele>
        <time>2016-07-31T09:34:14Z</time>
      </trkpt>
      <trkpt lat="42.91121" lon="0.18303">
        <ele>1702.7</ele>
        <time>2016-07-31T09:34:21Z</time>
      </trkpt>
      <trkpt lat="42.91117" lon="0.18291">
        <ele>1703.7</ele>
        <time>2016-07-31T09:34:28Z</time>
      </trkpt>
      <trkpt lat="42.91114" lon="0.18279">
        <ele>1704.9</ele>
        <time>2016-07-31T09:34:34Z</time>
      </trkpt>
      <trkpt lat="42.91111" lon="0.18266">
        <ele>1706</ele>
        <time>2016-07-31T09:34:41Z</time>
      </trkpt>
      <trkpt lat="42.91108" lon="0.18252">
        <ele>1707.1</ele>
        <time>2016-07-31T09:34:48Z</time>
      </trkpt>
      <trkpt lat="42.91103" lon="0.1824">
        <ele>1708</ele>
        <time>2016-07-31T09:34:55Z</time>
      </trkpt>
      <trkpt lat="42.91098" lon="0.1823">
        <ele>1708.8</ele>
        <time>2016-07-31T09:35:01Z</time>
      </trkpt>
      <trkpt lat="42.91092" lon="0.18219">
        <ele>1709.4</ele>
        <time>2016-07-31T09:35:07Z</time>
      </trkpt>
      <trkpt lat="42.91085" lon="0.1821">
        <ele>1710.2</ele>
        <time>2016-07-31T09:35:13Z</time>
      </trkpt>
      <trkpt lat="42.91078" lon="0.18201">
        <ele>1710.9</ele>
        <time>2016-07-31T09:35:19Z</time>
      </trkpt>
      <trkpt lat="42.91071" lon="0.18191">
        <ele>1711.4</ele>
        <time>2016-07-31T09:35:25Z</time>
      </trkpt>
      <trkpt lat="42.91066" lon="0.1818">
        <ele>1712.1</ele>
        <time>2016-07-31T09:35:31Z</time>
      </trkpt>
      <trkpt lat="42.9106" lon="0.18169">
        <ele>1712.8</ele>
        <time>2016-07-31T09:35:37Z</time>
      </trkpt>
      <trkpt lat="42.91055" lon="0.18159">
        <ele>1713.6</ele>
        <time>2016-07-31T09:35:43Z</time>
      </trkpt>
      <trkpt lat="42.9105" lon="0.18148">
        <ele>1714.2</ele>
        <time>2016-07-31T09:35:49Z</time>
      </trkpt>
      <trkpt lat="42.91046" lon="0.18136">
        <ele>1715.2</ele>
        <time>2016-07-31T09:35:55Z</time>
      </trkpt>
      <trkpt lat="42.91041" lon="0.18124">
        <ele>1716.2</ele>
        <time>2016-07-31T09:36:01Z</time>
      </trkpt>
      <trkpt lat="42.91037" lon="0.18112">
        <ele>1717.1</ele>
        <time>2016-07-31T09:36:07Z</time>
      </trkpt>
      <trkpt lat="42.91032" lon="0.181">
        <ele>1718</ele>
        <time>2016-07-31T09:36:13Z</time>
      </trkpt>
      <trkpt lat="42.91029" lon="0.18087">
        <ele>1718.1</ele>
        <time>2016-07-31T09:36:19Z</time>
      </trkpt>
      <trkpt lat="42.91026" lon="0.18074">
        <ele>1718.6</ele>
        <time>2016-07-31T09:36:25Z</time>
      </trkpt>
      <trkpt lat="42.91024" lon="0.18062">
        <ele>1720.1</ele>
        <time>2016-07-31T09:36:31Z</time>
      </trkpt>
      <trkpt lat="42.91023" lon="0.18049">
        <ele>1721.1</ele>
        <time>2016-07-31T09:36:37Z</time>
      </trkpt>
      <trkpt lat="42.91022" lon="0.18036">
        <ele>1722.1</ele>
        <time>2016-07-31T09:36:43Z</time>
      </trkpt>
      <trkpt lat="42.9102" lon="0.18024">
        <ele>1723.1</ele>
        <time>2016-07-31T09:36:49Z</time>
      </trkpt>
      <trkpt lat="42.91018" lon="0.18012">
        <ele>1723.8</ele>
        <time>2016-07-31T09:36:55Z</time>
      </trkpt>
      <trkpt lat="42.91017" lon="0.17999">
        <ele>1724.5</ele>
        <time>2016-07-31T09:37:01Z</time>
      </trkpt>
      <trkpt lat="42.91015" lon="0.17986">
        <ele>1725.3</ele>
        <time>2016-07-31T09:37:07Z</time>
      </trkpt>
      <trkpt lat="42.91015" lon="0.17973">
        <ele>1726.2</ele>
        <time>2016-07-31T09:37:13Z</time>
      </trkpt>
      <trkpt lat="42.91016" lon="0.1796">
        <ele>1726.7</ele>
        <time>2016-07-31T09:37:19Z</time>
      </trkpt>
      <trkpt lat="42.91019" lon="0.17948">
        <ele>1727.3</ele>
        <time>2016-07-31T09:37:25Z</time>
      </trkpt>
      <trkpt lat="42.91024" lon="0.17936">
        <ele>1727.9</ele>
        <time>2016-07-31T09:37:31Z</time>
      </trkpt>
      <trkpt lat="42.91031" lon="0.17927">
        <ele>1728.4</ele>
        <time>2016-07-31T09:37:37Z</time>
      </trkpt>
      <trkpt lat="42.9104" lon="0.17921">
        <ele>1729</ele>
        <time>2016-07-31T09:37:44Z</time>
      </trkpt>
      <trkpt lat="42.9105" lon="0.17917">
        <ele>1729.9</ele>
        <time>2016-07-31T09:37:50Z</time>
      </trkpt>
      <trkpt lat="42.9106" lon="0.17912">
        <ele>1731</ele>
        <time>2016-07-31T09:37:57Z</time>
      </trkpt>
      <trkpt lat="42.9107" lon="0.17909">
        <ele>1731.8</ele>
        <time>2016-07-31T09:38:02Z</time>
      </trkpt>
      <trkpt lat="42.9108" lon="0.17906">
        <ele>1732.8</ele>
        <time>2016-07-31T09:38:07Z</time>
      </trkpt>
      <trkpt lat="42.91089" lon="0.17904">
        <ele>1733.6</ele>
        <time>2016-07-31T09:38:11Z</time>
      </trkpt>
      <trkpt lat="42.91098" lon="0.17897">
        <ele>1734.7</ele>
        <time>2016-07-31T09:38:16Z</time>
      </trkpt>
      <trkpt lat="42.91104" lon="0.17887">
        <ele>1736.7</ele>
        <time>2016-07-31T09:38:24Z</time>
      </trkpt>
      <trkpt lat="42.9111" lon="0.17876">
        <ele>1738.3</ele>
        <time>2016-07-31T09:38:31Z</time>
      </trkpt>
      <trkpt lat="42.91114" lon="0.17864">
        <ele>1739.8</ele>
        <time>2016-07-31T09:38:36Z</time>
      </trkpt>
      <trkpt lat="42.91116" lon="0.17851">
        <ele>1742.2</ele>
        <time>2016-07-31T09:38:42Z</time>
      </trkpt>
      <trkpt lat="42.91116" lon="0.17839">
        <ele>1743.7</ele>
        <time>2016-07-31T09:38:48Z</time>
      </trkpt>
      <trkpt lat="42.91116" lon="0.17825">
        <ele>1744.8</ele>
        <time>2016-07-31T09:38:55Z</time>
      </trkpt>
      <trkpt lat="42.91115" lon="0.17812">
        <ele>1746</ele>
        <time>2016-07-31T09:39:01Z</time>
      </trkpt>
      <trkpt lat="42.91115" lon="0.17799">
        <ele>1747.4</ele>
        <time>2016-07-31T09:39:08Z</time>
      </trkpt>
      <trkpt lat="42.91114" lon="0.17786">
        <ele>1749</ele>
        <time>2016-07-31T09:39:14Z</time>
      </trkpt>
      <trkpt lat="42.91113" lon="0.17773">
        <ele>1750.3</ele>
        <time>2016-07-31T09:39:20Z</time>
      </trkpt>
      <trkpt lat="42.91109" lon="0.17761">
        <ele>1752.1</ele>
        <time>2016-07-31T09:39:26Z</time>
      </trkpt>
      <trkpt lat="42.91107" lon="0.17748">
        <ele>1754.6</ele>
        <time>2016-07-31T09:39:33Z</time>
      </trkpt>
      <trkpt lat="42.9111" lon="0.17736">
        <ele>1756.8</ele>
        <time>2016-07-31T09:39:40Z</time>
      </trkpt>
      <trkpt lat="42.91119" lon="0.1773">
        <ele>1758.1</ele>
        <time>2016-07-31T09:39:44Z</time>
      </trkpt>
      <trkpt lat="42.91127" lon="0.17724">
        <ele>1758.3</ele>
        <time>2016-07-31T09:39:47Z</time>
      </trkpt>
      <trkpt lat="42.91136" lon="0.17721">
        <ele>1759</ele>
        <time>2016-07-31T09:39:49Z</time>
      </trkpt>
      <trkpt lat="42.91134" lon="0.17708">
        <ele>1762</ele>
        <time>2016-07-31T09:39:56Z</time>
      </trkpt>
      <trkpt lat="42.91136" lon="0.17695">
        <ele>1765.6</ele>
        <time>2016-07-31T09:40:04Z</time>
      </trkpt>
      <trkpt lat="42.91133" lon="0.17683">
        <ele>1767.5</ele>
        <time>2016-07-31T09:40:11Z</time>
      </trkpt>
      <trkpt lat="42.91126" lon="0.17673">
        <ele>1769.3</ele>
        <time>2016-07-31T09:40:16Z</time>
      </trkpt>
      <trkpt lat="42.91117" lon="0.17662">
        <ele>1771.5</ele>
        <time>2016-07-31T09:40:21Z</time>
      </trkpt>
      <trkpt lat="42.91104" lon="0.17656">
        <ele>1770.9</ele>
        <time>2016-07-31T09:40:22Z</time>
      </trkpt>
      <trkpt lat="42.91087" lon="0.17648">
        <ele>1770.7</ele>
        <time>2016-07-31T09:40:24Z</time>
      </trkpt>
      <trkpt lat="42.91077" lon="0.17641">
        <ele>1770.4</ele>
        <time>2016-07-31T09:40:27Z</time>
      </trkpt>
      <trkpt lat="42.91072" lon="0.1763">
        <ele>1770.6</ele>
        <time>2016-07-31T09:40:32Z</time>
      </trkpt>
      <trkpt lat="42.91068" lon="0.17616">
        <ele>1770.3</ele>
        <time>2016-07-31T09:40:38Z</time>
      </trkpt>
      <trkpt lat="42.91065" lon="0.17604">
        <ele>1770.5</ele>
        <time>2016-07-31T09:40:44Z</time>
      </trkpt>
      <trkpt lat="42.91063" lon="0.17591">
        <ele>1771.1</ele>
        <time>2016-07-31T09:40:50Z</time>
      </trkpt>
      <trkpt lat="42.91061" lon="0.17578">
        <ele>1771.5</ele>
        <time>2016-07-31T09:40:56Z</time>
      </trkpt>
      <trkpt lat="42.91061" lon="0.17565">
        <ele>1772.1</ele>
        <time>2016-07-31T09:41:02Z</time>
      </trkpt>
      <trkpt lat="42.91061" lon="0.17553">
        <ele>1772.3</ele>
        <time>2016-07-31T09:41:08Z</time>
      </trkpt>
      <trkpt lat="42.91062" lon="0.1754">
        <ele>1772.6</ele>
        <time>2016-07-31T09:41:14Z</time>
      </trkpt>
      <trkpt lat="42.91062" lon="0.17527">
        <ele>1772.9</ele>
        <time>2016-07-31T09:41:20Z</time>
      </trkpt>
      <trkpt lat="42.91063" lon="0.17514">
        <ele>1773.2</ele>
        <time>2016-07-31T09:41:26Z</time>
      </trkpt>
      <trkpt lat="42.91063" lon="0.175">
        <ele>1773.6</ele>
        <time>2016-07-31T09:41:32Z</time>
      </trkpt>
      <trkpt lat="42.91062" lon="0.17487">
        <ele>1774.1</ele>
        <time>2016-07-31T09:41:38Z</time>
      </trkpt>
      <trkpt lat="42.91062" lon="0.17473">
        <ele>1774.4</ele>
        <time>2016-07-31T09:41:44Z</time>
      </trkpt>
      <trkpt lat="42.91063" lon="0.1746">
        <ele>1775</ele>
        <time>2016-07-31T09:41:50Z</time>
      </trkpt>
      <trkpt lat="42.91062" lon="0.17447">
        <ele>1775.4</ele>
        <time>2016-07-31T09:41:56Z</time>
      </trkpt>
      <trkpt lat="42.91062" lon="0.17433">
        <ele>1775.8</ele>
        <time>2016-07-31T09:42:02Z</time>
      </trkpt>
      <trkpt lat="42.9106" lon="0.1742">
        <ele>1776.1</ele>
        <time>2016-07-31T09:42:08Z</time>
      </trkpt>
      <trkpt lat="42.91059" lon="0.17407">
        <ele>1776.5</ele>
        <time>2016-07-31T09:42:14Z</time>
      </trkpt>
      <trkpt lat="42.91057" lon="0.17394">
        <ele>1776.9</ele>
        <time>2016-07-31T09:42:20Z</time>
      </trkpt>
      <trkpt lat="42.91053" lon="0.17382">
        <ele>1778</ele>
        <time>2016-07-31T09:42:26Z</time>
      </trkpt>
      <trkpt lat="42.91049" lon="0.17369">
        <ele>1779</ele>
        <time>2016-07-31T09:42:32Z</time>
      </trkpt>
      <trkpt lat="42.91045" lon="0.17357">
        <ele>1779.6</ele>
        <time>2016-07-31T09:42:38Z</time>
      </trkpt>
      <trkpt lat="42.91041" lon="0.17345">
        <ele>1780.2</ele>
        <time>2016-07-31T09:42:44Z</time>
      </trkpt>
      <trkpt lat="42.91038" lon="0.17334">
        <ele>1781.1</ele>
        <time>2016-07-31T09:42:50Z</time>
      </trkpt>
      <trkpt lat="42.91036" lon="0.1732">
        <ele>1782</ele>
        <time>2016-07-31T09:42:56Z</time>
      </trkpt>
      <trkpt lat="42.91037" lon="0.17307">
        <ele>1782.6</ele>
        <time>2016-07-31T09:43:02Z</time>
      </trkpt>
      <trkpt lat="42.91037" lon="0.17294">
        <ele>1783.4</ele>
        <time>2016-07-31T09:43:08Z</time>
      </trkpt>
      <trkpt lat="42.91036" lon="0.17281">
        <ele>1784.1</ele>
        <time>2016-07-31T09:43:14Z</time>
      </trkpt>
      <trkpt lat="42.91036" lon="0.17268">
        <ele>1784.9</ele>
        <time>2016-07-31T09:43:20Z</time>
      </trkpt>
      <trkpt lat="42.91037" lon="0.17254">
        <ele>1785.6</ele>
        <time>2016-07-31T09:43:26Z</time>
      </trkpt>
      <trkpt lat="42.91038" lon="0.17241">
        <ele>1786.2</ele>
        <time>2016-07-31T09:43:32Z</time>
      </trkpt>
      <trkpt lat="42.91038" lon="0.17228">
        <ele>1787.2</ele>
        <time>2016-07-31T09:43:38Z</time>
      </trkpt>
      <trkpt lat="42.91038" lon="0.17215">
        <ele>1788.1</ele>
        <time>2016-07-31T09:43:44Z</time>
      </trkpt>
      <trkpt lat="42.91039" lon="0.17201">
        <ele>1788.7</ele>
        <time>2016-07-31T09:43:50Z</time>
      </trkpt>
      <trkpt lat="42.91039" lon="0.17188">
        <ele>1789.1</ele>
        <time>2016-07-31T09:43:56Z</time>
      </trkpt>
      <trkpt lat="42.91039" lon="0.17175">
        <ele>1789.5</ele>
        <time>2016-07-31T09:44:02Z</time>
      </trkpt>
      <trkpt lat="42.9104" lon="0.17162">
        <ele>1790.2</ele>
        <time>2016-07-31T09:44:08Z</time>
      </trkpt>
      <trkpt lat="42.9104" lon="0.17149">
        <ele>1790.8</ele>
        <time>2016-07-31T09:44:14Z</time>
      </trkpt>
      <trkpt lat="42.9104" lon="0.17136">
        <ele>1791.4</ele>
        <time>2016-07-31T09:44:20Z</time>
      </trkpt>
      <trkpt lat="42.91041" lon="0.17122">
        <ele>1792</ele>
        <time>2016-07-31T09:44:26Z</time>
      </trkpt>
      <trkpt lat="42.9104" lon="0.17109">
        <ele>1792.7</ele>
        <time>2016-07-31T09:44:32Z</time>
      </trkpt>
      <trkpt lat="42.91041" lon="0.17096">
        <ele>1793.3</ele>
        <time>2016-07-31T09:44:38Z</time>
      </trkpt>
      <trkpt lat="42.9104" lon="0.17083">
        <ele>1794.1</ele>
        <time>2016-07-31T09:44:44Z</time>
      </trkpt>
      <trkpt lat="42.9104" lon="0.1707">
        <ele>1794.7</ele>
        <time>2016-07-31T09:44:50Z</time>
      </trkpt>
      <trkpt lat="42.91039" lon="0.17057">
        <ele>1795.4</ele>
        <time>2016-07-31T09:44:56Z</time>
      </trkpt>
      <trkpt lat="42.91039" lon="0.17044">
        <ele>1796</ele>
        <time>2016-07-31T09:45:02Z</time>
      </trkpt>
      <trkpt lat="42.91037" lon="0.17031">
        <ele>1796.6</ele>
        <time>2016-07-31T09:45:08Z</time>
      </trkpt>
      <trkpt lat="42.91035" lon="0.17018">
        <ele>1797.3</ele>
        <time>2016-07-31T09:45:14Z</time>
      </trkpt>
      <trkpt lat="42.91035" lon="0.17005">
        <ele>1798.1</ele>
        <time>2016-07-31T09:45:20Z</time>
      </trkpt>
      <trkpt lat="42.91034" lon="0.16992">
        <ele>1798.8</ele>
        <time>2016-07-31T09:45:26Z</time>
      </trkpt>
      <trkpt lat="42.91034" lon="0.16979">
        <ele>1799.9</ele>
        <time>2016-07-31T09:45:32Z</time>
      </trkpt>
      <trkpt lat="42.91034" lon="0.16965">
        <ele>1801</ele>
        <time>2016-07-31T09:45:38Z</time>
      </trkpt>
      <trkpt lat="42.91032" lon="0.16951">
        <ele>1802.1</ele>
        <time>2016-07-31T09:45:44Z</time>
      </trkpt>
      <trkpt lat="42.91029" lon="0.16938">
        <ele>1803.1</ele>
        <time>2016-07-31T09:45:50Z</time>
      </trkpt>
      <trkpt lat="42.91025" lon="0.16925">
        <ele>1804.4</ele>
        <time>2016-07-31T09:45:56Z</time>
      </trkpt>
      <trkpt lat="42.91019" lon="0.16915">
        <ele>1805.5</ele>
        <time>2016-07-31T09:46:01Z</time>
      </trkpt>
      <trkpt lat="42.91015" lon="0.16904">
        <ele>1806.3</ele>
        <time>2016-07-31T09:46:07Z</time>
      </trkpt>
      <trkpt lat="42.91009" lon="0.16892">
        <ele>1807.4</ele>
        <time>2016-07-31T09:46:13Z</time>
      </trkpt>
      <trkpt lat="42.91004" lon="0.1688">
        <ele>1808.4</ele>
        <time>2016-07-31T09:46:19Z</time>
      </trkpt>
      <trkpt lat="42.91" lon="0.16868">
        <ele>1809.3</ele>
        <time>2016-07-31T09:46:25Z</time>
      </trkpt>
      <trkpt lat="42.90995" lon="0.16856">
        <ele>1810.1</ele>
        <time>2016-07-31T09:46:31Z</time>
      </trkpt>
      <trkpt lat="42.90992" lon="0.16844">
        <ele>1810.9</ele>
        <time>2016-07-31T09:46:37Z</time>
      </trkpt>
      <trkpt lat="42.9099" lon="0.16831">
        <ele>1812</ele>
        <time>2016-07-31T09:46:43Z</time>
      </trkpt>
      <trkpt lat="42.90988" lon="0.16819">
        <ele>1812.9</ele>
        <time>2016-07-31T09:46:49Z</time>
      </trkpt>
      <trkpt lat="42.90984" lon="0.16807">
        <ele>1813.9</ele>
        <time>2016-07-31T09:46:55Z</time>
      </trkpt>
      <trkpt lat="42.90979" lon="0.16797">
        <ele>1814.7</ele>
        <time>2016-07-31T09:47:01Z</time>
      </trkpt>
      <trkpt lat="42.90972" lon="0.16787">
        <ele>1815.5</ele>
        <time>2016-07-31T09:47:07Z</time>
      </trkpt>
      <trkpt lat="42.90966" lon="0.16777">
        <ele>1816.2</ele>
        <time>2016-07-31T09:47:13Z</time>
      </trkpt>
      <trkpt lat="42.9096" lon="0.16765">
        <ele>1817.3</ele>
        <time>2016-07-31T09:47:20Z</time>
      </trkpt>
      <trkpt lat="42.90956" lon="0.16753">
        <ele>1818.1</ele>
        <time>2016-07-31T09:47:26Z</time>
      </trkpt>
      <trkpt lat="42.90953" lon="0.16741">
        <ele>1818.9</ele>
        <time>2016-07-31T09:47:32Z</time>
      </trkpt>
      <trkpt lat="42.9095" lon="0.16729">
        <ele>1819.7</ele>
        <time>2016-07-31T09:47:38Z</time>
      </trkpt>
      <trkpt lat="42.90949" lon="0.16716">
        <ele>1820.5</ele>
        <time>2016-07-31T09:47:44Z</time>
      </trkpt>
      <trkpt lat="42.90949" lon="0.16704">
        <ele>1821.2</ele>
        <time>2016-07-31T09:47:50Z</time>
      </trkpt>
      <trkpt lat="42.90948" lon="0.16691">
        <ele>1821.9</ele>
        <time>2016-07-31T09:47:56Z</time>
      </trkpt>
      <trkpt lat="42.90949" lon="0.16677">
        <ele>1822.7</ele>
        <time>2016-07-31T09:48:03Z</time>
      </trkpt>
      <trkpt lat="42.90949" lon="0.16663">
        <ele>1823.5</ele>
        <time>2016-07-31T09:48:10Z</time>
      </trkpt>
      <trkpt lat="42.90949" lon="0.16649">
        <ele>1824.1</ele>
        <time>2016-07-31T09:48:17Z</time>
      </trkpt>
      <trkpt lat="42.90949" lon="0.16636">
        <ele>1824.8</ele>
        <time>2016-07-31T09:48:23Z</time>
      </trkpt>
      <trkpt lat="42.90949" lon="0.16624">
        <ele>1825.6</ele>
        <time>2016-07-31T09:48:29Z</time>
      </trkpt>
      <trkpt lat="42.90949" lon="0.16611">
        <ele>1826.3</ele>
        <time>2016-07-31T09:48:35Z</time>
      </trkpt>
      <trkpt lat="42.9095" lon="0.16598">
        <ele>1827</ele>
        <time>2016-07-31T09:48:41Z</time>
      </trkpt>
      <trkpt lat="42.90952" lon="0.16586">
        <ele>1827.7</ele>
        <time>2016-07-31T09:48:47Z</time>
      </trkpt>
      <trkpt lat="42.90954" lon="0.16574">
        <ele>1828.6</ele>
        <time>2016-07-31T09:48:53Z</time>
      </trkpt>
      <trkpt lat="42.90957" lon="0.16562">
        <ele>1829.2</ele>
        <time>2016-07-31T09:48:59Z</time>
      </trkpt>
      <trkpt lat="42.9096" lon="0.16548">
        <ele>1830</ele>
        <time>2016-07-31T09:49:06Z</time>
      </trkpt>
      <trkpt lat="42.90962" lon="0.16535">
        <ele>1830.8</ele>
        <time>2016-07-31T09:49:12Z</time>
      </trkpt>
      <trkpt lat="42.90964" lon="0.16523">
        <ele>1831.6</ele>
        <time>2016-07-31T09:49:18Z</time>
      </trkpt>
      <trkpt lat="42.90964" lon="0.16509">
        <ele>1832.4</ele>
        <time>2016-07-31T09:49:24Z</time>
      </trkpt>
      <trkpt lat="42.90965" lon="0.16496">
        <ele>1833.1</ele>
        <time>2016-07-31T09:49:30Z</time>
      </trkpt>
      <trkpt lat="42.90966" lon="0.16483">
        <ele>1833.9</ele>
        <time>2016-07-31T09:49:36Z</time>
      </trkpt>
      <trkpt lat="42.90968" lon="0.1647">
        <ele>1834.7</ele>
        <time>2016-07-31T09:49:42Z</time>
      </trkpt>
      <trkpt lat="42.9097" lon="0.16458">
        <ele>1835.6</ele>
        <time>2016-07-31T09:49:48Z</time>
      </trkpt>
      <trkpt lat="42.90972" lon="0.16444">
        <ele>1836.5</ele>
        <time>2016-07-31T09:49:55Z</time>
      </trkpt>
      <trkpt lat="42.90974" lon="0.16432">
        <ele>1837.3</ele>
        <time>2016-07-31T09:50:01Z</time>
      </trkpt>
      <trkpt lat="42.90973" lon="0.1642">
        <ele>1837.9</ele>
        <time>2016-07-31T09:50:07Z</time>
      </trkpt>
      <trkpt lat="42.90971" lon="0.16406">
        <ele>1838.7</ele>
        <time>2016-07-31T09:50:14Z</time>
      </trkpt>
      <trkpt lat="42.90967" lon="0.16394">
        <ele>1839.3</ele>
        <time>2016-07-31T09:50:20Z</time>
      </trkpt>
      <trkpt lat="42.90965" lon="0.16382">
        <ele>1839.9</ele>
        <time>2016-07-31T09:50:26Z</time>
      </trkpt>
      <trkpt lat="42.90962" lon="0.1637">
        <ele>1840.7</ele>
        <time>2016-07-31T09:50:32Z</time>
      </trkpt>
      <trkpt lat="42.9096" lon="0.16358">
        <ele>1841.6</ele>
        <time>2016-07-31T09:50:38Z</time>
      </trkpt>
      <trkpt lat="42.90959" lon="0.16345">
        <ele>1842.5</ele>
        <time>2016-07-31T09:50:44Z</time>
      </trkpt>
      <trkpt lat="42.90957" lon="0.16331">
        <ele>1843.6</ele>
        <time>2016-07-31T09:50:51Z</time>
      </trkpt>
      <trkpt lat="42.90955" lon="0.16318">
        <ele>1845.2</ele>
        <time>2016-07-31T09:50:58Z</time>
      </trkpt>
      <trkpt lat="42.90952" lon="0.16306">
        <ele>1847.1</ele>
        <time>2016-07-31T09:51:04Z</time>
      </trkpt>
      <trkpt lat="42.90948" lon="0.16294">
        <ele>1848.9</ele>
        <time>2016-07-31T09:51:10Z</time>
      </trkpt>
      <trkpt lat="42.90943" lon="0.16282">
        <ele>1850.8</ele>
        <time>2016-07-31T09:51:16Z</time>
      </trkpt>
      <trkpt lat="42.90938" lon="0.16271">
        <ele>1852.1</ele>
        <time>2016-07-31T09:51:22Z</time>
      </trkpt>
      <trkpt lat="42.90932" lon="0.1626">
        <ele>1853.5</ele>
        <time>2016-07-31T09:51:29Z</time>
      </trkpt>
      <trkpt lat="42.90926" lon="0.16249">
        <ele>1854.9</ele>
        <time>2016-07-31T09:51:36Z</time>
      </trkpt>
      <trkpt lat="42.90921" lon="0.16237">
        <ele>1856.2</ele>
        <time>2016-07-31T09:51:43Z</time>
      </trkpt>
      <trkpt lat="42.90917" lon="0.16226">
        <ele>1857.3</ele>
        <time>2016-07-31T09:51:49Z</time>
      </trkpt>
      <trkpt lat="42.90913" lon="0.16214">
        <ele>1858.1</ele>
        <time>2016-07-31T09:51:55Z</time>
      </trkpt>
      <trkpt lat="42.90908" lon="0.16203">
        <ele>1859</ele>
        <time>2016-07-31T09:52:01Z</time>
      </trkpt>
      <trkpt lat="42.90904" lon="0.16192">
        <ele>1860.1</ele>
        <time>2016-07-31T09:52:07Z</time>
      </trkpt>
      <trkpt lat="42.909" lon="0.1618">
        <ele>1861.2</ele>
        <time>2016-07-31T09:52:13Z</time>
      </trkpt>
      <trkpt lat="42.90897" lon="0.16168">
        <ele>1862.1</ele>
        <time>2016-07-31T09:52:19Z</time>
      </trkpt>
      <trkpt lat="42.90895" lon="0.16156">
        <ele>1863.2</ele>
        <time>2016-07-31T09:52:25Z</time>
      </trkpt>
      <trkpt lat="42.90892" lon="0.16144">
        <ele>1864</ele>
        <time>2016-07-31T09:52:31Z</time>
      </trkpt>
      <trkpt lat="42.90889" lon="0.16132">
        <ele>1864.8</ele>
        <time>2016-07-31T09:52:37Z</time>
      </trkpt>
      <trkpt lat="42.90886" lon="0.1612">
        <ele>1865.3</ele>
        <time>2016-07-31T09:52:43Z</time>
      </trkpt>
      <trkpt lat="42.90883" lon="0.16108">
        <ele>1866</ele>
        <time>2016-07-31T09:52:49Z</time>
      </trkpt>
      <trkpt lat="42.9088" lon="0.16096">
        <ele>1867</ele>
        <time>2016-07-31T09:52:55Z</time>
      </trkpt>
      <trkpt lat="42.90878" lon="0.16084">
        <ele>1867.9</ele>
        <time>2016-07-31T09:53:01Z</time>
      </trkpt>
      <trkpt lat="42.90876" lon="0.16071">
        <ele>1868.8</ele>
        <time>2016-07-31T09:53:07Z</time>
      </trkpt>
      <trkpt lat="42.90873" lon="0.16059">
        <ele>1869.8</ele>
        <time>2016-07-31T09:53:13Z</time>
      </trkpt>
      <trkpt lat="42.90871" lon="0.16046">
        <ele>1870.7</ele>
        <time>2016-07-31T09:53:19Z</time>
      </trkpt>
      <trkpt lat="42.90869" lon="0.16033">
        <ele>1871.6</ele>
        <time>2016-07-31T09:53:25Z</time>
      </trkpt>
      <trkpt lat="42.90867" lon="0.16021">
        <ele>1872.6</ele>
        <time>2016-07-31T09:53:31Z</time>
      </trkpt>
      <trkpt lat="42.90865" lon="0.16008">
        <ele>1873.4</ele>
        <time>2016-07-31T09:53:37Z</time>
      </trkpt>
      <trkpt lat="42.90863" lon="0.15995">
        <ele>1874.5</ele>
        <time>2016-07-31T09:53:44Z</time>
      </trkpt>
      <trkpt lat="42.90861" lon="0.1598">
        <ele>1875.7</ele>
        <time>2016-07-31T09:53:51Z</time>
      </trkpt>
      <trkpt lat="42.90859" lon="0.15967">
        <ele>1876.6</ele>
        <time>2016-07-31T09:53:58Z</time>
      </trkpt>
      <trkpt lat="42.90855" lon="0.15956">
        <ele>1877.8</ele>
        <time>2016-07-31T09:54:04Z</time>
      </trkpt>
      <trkpt lat="42.9085" lon="0.15945">
        <ele>1878.7</ele>
        <time>2016-07-31T09:54:10Z</time>
      </trkpt>
      <trkpt lat="42.90845" lon="0.15934">
        <ele>1879.7</ele>
        <time>2016-07-31T09:54:16Z</time>
      </trkpt>
      <trkpt lat="42.90839" lon="0.15923">
        <ele>1881.2</ele>
        <time>2016-07-31T09:54:23Z</time>
      </trkpt>
      <trkpt lat="42.90835" lon="0.15912">
        <ele>1882.2</ele>
        <time>2016-07-31T09:54:29Z</time>
      </trkpt>
      <trkpt lat="42.90828" lon="0.15902">
        <ele>1883.6</ele>
        <time>2016-07-31T09:54:36Z</time>
      </trkpt>
      <trkpt lat="42.9082" lon="0.15893">
        <ele>1885.4</ele>
        <time>2016-07-31T09:54:43Z</time>
      </trkpt>
      <trkpt lat="42.90813" lon="0.15884">
        <ele>1886.6</ele>
        <time>2016-07-31T09:54:50Z</time>
      </trkpt>
      <trkpt lat="42.90806" lon="0.15875">
        <ele>1887.7</ele>
        <time>2016-07-31T09:54:56Z</time>
      </trkpt>
      <trkpt lat="42.90799" lon="0.15866">
        <ele>1888.6</ele>
        <time>2016-07-31T09:55:02Z</time>
      </trkpt>
      <trkpt lat="42.90793" lon="0.15856">
        <ele>1889.5</ele>
        <time>2016-07-31T09:55:08Z</time>
      </trkpt>
      <trkpt lat="42.90787" lon="0.15845">
        <ele>1890.3</ele>
        <time>2016-07-31T09:55:14Z</time>
      </trkpt>
      <trkpt lat="42.90782" lon="0.15834">
        <ele>1890.9</ele>
        <time>2016-07-31T09:55:20Z</time>
      </trkpt>
      <trkpt lat="42.90776" lon="0.15824">
        <ele>1891.9</ele>
        <time>2016-07-31T09:55:26Z</time>
      </trkpt>
      <trkpt lat="42.90771" lon="0.15813">
        <ele>1892.6</ele>
        <time>2016-07-31T09:55:32Z</time>
      </trkpt>
      <trkpt lat="42.90764" lon="0.15803">
        <ele>1893.4</ele>
        <time>2016-07-31T09:55:39Z</time>
      </trkpt>
      <trkpt lat="42.90757" lon="0.15794">
        <ele>1894</ele>
        <time>2016-07-31T09:55:45Z</time>
      </trkpt>
      <trkpt lat="42.90751" lon="0.15785">
        <ele>1894.8</ele>
        <time>2016-07-31T09:55:51Z</time>
      </trkpt>
      <trkpt lat="42.90745" lon="0.15773">
        <ele>1895.6</ele>
        <time>2016-07-31T09:55:58Z</time>
      </trkpt>
      <trkpt lat="42.9074" lon="0.1576">
        <ele>1896.5</ele>
        <time>2016-07-31T09:56:05Z</time>
      </trkpt>
      <trkpt lat="42.90737" lon="0.15748">
        <ele>1897.2</ele>
        <time>2016-07-31T09:56:12Z</time>
      </trkpt>
      <trkpt lat="42.90733" lon="0.15735">
        <ele>1898.2</ele>
        <time>2016-07-31T09:56:19Z</time>
      </trkpt>
      <trkpt lat="42.90728" lon="0.15725">
        <ele>1898.9</ele>
        <time>2016-07-31T09:56:25Z</time>
      </trkpt>
      <trkpt lat="42.90721" lon="0.15716">
        <ele>1899.5</ele>
        <time>2016-07-31T09:56:31Z</time>
      </trkpt>
      <trkpt lat="42.90715" lon="0.15706">
        <ele>1900.2</ele>
        <time>2016-07-31T09:56:37Z</time>
      </trkpt>
      <trkpt lat="42.90709" lon="0.15697">
        <ele>1900.9</ele>
        <time>2016-07-31T09:56:43Z</time>
      </trkpt>
      <trkpt lat="42.90704" lon="0.15686">
        <ele>1901.9</ele>
        <time>2016-07-31T09:56:50Z</time>
      </trkpt>
      <trkpt lat="42.90699" lon="0.15674">
        <ele>1902.8</ele>
        <time>2016-07-31T09:56:57Z</time>
      </trkpt>
      <trkpt lat="42.90694" lon="0.15663">
        <ele>1903.7</ele>
        <time>2016-07-31T09:57:04Z</time>
      </trkpt>
      <trkpt lat="42.90691" lon="0.15651">
        <ele>1904.4</ele>
        <time>2016-07-31T09:57:11Z</time>
      </trkpt>
      <trkpt lat="42.90687" lon="0.15638">
        <ele>1905.3</ele>
        <time>2016-07-31T09:57:18Z</time>
      </trkpt>
      <trkpt lat="42.90683" lon="0.15626">
        <ele>1906.2</ele>
        <time>2016-07-31T09:57:25Z</time>
      </trkpt>
      <trkpt lat="42.90679" lon="0.15615">
        <ele>1907</ele>
        <time>2016-07-31T09:57:31Z</time>
      </trkpt>
      <trkpt lat="42.90676" lon="0.15603">
        <ele>1907.7</ele>
        <time>2016-07-31T09:57:37Z</time>
      </trkpt>
      <trkpt lat="42.90673" lon="0.15591">
        <ele>1908.4</ele>
        <time>2016-07-31T09:57:43Z</time>
      </trkpt>
      <trkpt lat="42.90671" lon="0.15578">
        <ele>1909.1</ele>
        <time>2016-07-31T09:57:49Z</time>
      </trkpt>
      <trkpt lat="42.9067" lon="0.15564">
        <ele>1910.5</ele>
        <time>2016-07-31T09:57:56Z</time>
      </trkpt>
      <trkpt lat="42.90669" lon="0.1555">
        <ele>1911.5</ele>
        <time>2016-07-31T09:58:03Z</time>
      </trkpt>
      <trkpt lat="42.90665" lon="0.15538">
        <ele>1912.7</ele>
        <time>2016-07-31T09:58:09Z</time>
      </trkpt>
      <trkpt lat="42.90662" lon="0.15527">
        <ele>1913.5</ele>
        <time>2016-07-31T09:58:15Z</time>
      </trkpt>
      <trkpt lat="42.90659" lon="0.15515">
        <ele>1914.1</ele>
        <time>2016-07-31T09:58:21Z</time>
      </trkpt>
      <trkpt lat="42.90658" lon="0.15502">
        <ele>1914.9</ele>
        <time>2016-07-31T09:58:27Z</time>
      </trkpt>
      <trkpt lat="42.90658" lon="0.1549">
        <ele>1915.7</ele>
        <time>2016-07-31T09:58:33Z</time>
      </trkpt>
      <trkpt lat="42.90658" lon="0.15476">
        <ele>1916.6</ele>
        <time>2016-07-31T09:58:40Z</time>
      </trkpt>
      <trkpt lat="42.90658" lon="0.15463">
        <ele>1917.4</ele>
        <time>2016-07-31T09:58:46Z</time>
      </trkpt>
      <trkpt lat="42.90658" lon="0.15451">
        <ele>1918.2</ele>
        <time>2016-07-31T09:58:52Z</time>
      </trkpt>
      <trkpt lat="42.90658" lon="0.15438">
        <ele>1919.4</ele>
        <time>2016-07-31T09:58:58Z</time>
      </trkpt>
      <trkpt lat="42.90658" lon="0.15426">
        <ele>1920.3</ele>
        <time>2016-07-31T09:59:04Z</time>
      </trkpt>
      <trkpt lat="42.90658" lon="0.15413">
        <ele>1921.1</ele>
        <time>2016-07-31T09:59:10Z</time>
      </trkpt>
      <trkpt lat="42.9066" lon="0.15401">
        <ele>1922.1</ele>
        <time>2016-07-31T09:59:16Z</time>
      </trkpt>
      <trkpt lat="42.90664" lon="0.15389">
        <ele>1923.4</ele>
        <time>2016-07-31T09:59:22Z</time>
      </trkpt>
      <trkpt lat="42.90674" lon="0.15388">
        <ele>1925.3</ele>
        <time>2016-07-31T09:59:29Z</time>
      </trkpt>
      <trkpt lat="42.90679" lon="0.15399">
        <ele>1927</ele>
        <time>2016-07-31T09:59:35Z</time>
      </trkpt>
      <trkpt lat="42.90679" lon="0.15412">
        <ele>1929.2</ele>
        <time>2016-07-31T09:59:41Z</time>
      </trkpt>
      <trkpt lat="42.90678" lon="0.15426">
        <ele>1931.6</ele>
        <time>2016-07-31T09:59:47Z</time>
      </trkpt>
      <trkpt lat="42.90676" lon="0.1544">
        <ele>1933.6</ele>
        <time>2016-07-31T09:59:53Z</time>
      </trkpt>
      <trkpt lat="42.90676" lon="0.15453">
        <ele>1935.8</ele>
        <time>2016-07-31T09:59:58Z</time>
      </trkpt>
      <trkpt lat="42.90674" lon="0.15467">
        <ele>1939.4</ele>
        <time>2016-07-31T10:00:06Z</time>
      </trkpt>
      <trkpt lat="42.90677" lon="0.15479">
        <ele>1940.9</ele>
        <time>2016-07-31T10:00:12Z</time>
      </trkpt>
      <trkpt lat="42.90683" lon="0.15489">
        <ele>1942</ele>
        <time>2016-07-31T10:00:19Z</time>
      </trkpt>
      <trkpt lat="42.9069" lon="0.15498">
        <ele>1942.8</ele>
        <time>2016-07-31T10:00:25Z</time>
      </trkpt>
      <trkpt lat="42.90697" lon="0.15506">
        <ele>1943.5</ele>
        <time>2016-07-31T10:00:31Z</time>
      </trkpt>
      <trkpt lat="42.90704" lon="0.15514">
        <ele>1944.7</ele>
        <time>2016-07-31T10:00:37Z</time>
      </trkpt>
      <trkpt lat="42.90711" lon="0.15523">
        <ele>1946.1</ele>
        <time>2016-07-31T10:00:43Z</time>
      </trkpt>
      <trkpt lat="42.90718" lon="0.15532">
        <ele>1947</ele>
        <time>2016-07-31T10:00:49Z</time>
      </trkpt>
      <trkpt lat="42.90724" lon="0.15542">
        <ele>1947.9</ele>
        <time>2016-07-31T10:00:55Z</time>
      </trkpt>
      <trkpt lat="42.9073" lon="0.15552">
        <ele>1948.9</ele>
        <time>2016-07-31T10:01:01Z</time>
      </trkpt>
      <trkpt lat="42.90738" lon="0.15559">
        <ele>1949.7</ele>
        <time>2016-07-31T10:01:07Z</time>
      </trkpt>
      <trkpt lat="42.90747" lon="0.15562">
        <ele>1950.7</ele>
        <time>2016-07-31T10:01:13Z</time>
      </trkpt>
      <trkpt lat="42.90756" lon="0.15566">
        <ele>1951.7</ele>
        <time>2016-07-31T10:01:19Z</time>
      </trkpt>
      <trkpt lat="42.90764" lon="0.15573">
        <ele>1952.9</ele>
        <time>2016-07-31T10:01:26Z</time>
      </trkpt>
      <trkpt lat="42.90772" lon="0.15582">
        <ele>1953.7</ele>
        <time>2016-07-31T10:01:33Z</time>
      </trkpt>
      <trkpt lat="42.90779" lon="0.1559">
        <ele>1954.3</ele>
        <time>2016-07-31T10:01:39Z</time>
      </trkpt>
      <trkpt lat="42.90786" lon="0.156">
        <ele>1954.6</ele>
        <time>2016-07-31T10:01:46Z</time>
      </trkpt>
      <trkpt lat="42.90793" lon="0.1561">
        <ele>1954.9</ele>
        <time>2016-07-31T10:01:52Z</time>
      </trkpt>
      <trkpt lat="42.90799" lon="0.1562">
        <ele>1955.4</ele>
        <time>2016-07-31T10:01:59Z</time>
      </trkpt>
      <trkpt lat="42.90808" lon="0.15628">
        <ele>1957</ele>
        <time>2016-07-31T10:02:07Z</time>
      </trkpt>
      <trkpt lat="42.90817" lon="0.15627">
        <ele>1959</ele>
        <time>2016-07-31T10:02:15Z</time>
      </trkpt>
      <trkpt lat="42.90827" lon="0.15623">
        <ele>1959.9</ele>
        <time>2016-07-31T10:02:22Z</time>
      </trkpt>
      <trkpt lat="42.90836" lon="0.15623">
        <ele>1960.6</ele>
        <time>2016-07-31T10:02:28Z</time>
      </trkpt>
      <trkpt lat="42.90845" lon="0.15628">
        <ele>1961.8</ele>
        <time>2016-07-31T10:02:35Z</time>
      </trkpt>
      <trkpt lat="42.90854" lon="0.15634">
        <ele>1962.5</ele>
        <time>2016-07-31T10:02:42Z</time>
      </trkpt>
      <trkpt lat="42.90864" lon="0.15638">
        <ele>1963.2</ele>
        <time>2016-07-31T10:02:49Z</time>
      </trkpt>
      <trkpt lat="42.90874" lon="0.1564">
        <ele>1964.1</ele>
        <time>2016-07-31T10:02:56Z</time>
      </trkpt>
      <trkpt lat="42.90883" lon="0.15644">
        <ele>1965.5</ele>
        <time>2016-07-31T10:03:03Z</time>
      </trkpt>
      <trkpt lat="42.90892" lon="0.15644">
        <ele>1966.5</ele>
        <time>2016-07-31T10:03:10Z</time>
      </trkpt>
      <trkpt lat="42.90902" lon="0.15641">
        <ele>1967.2</ele>
        <time>2016-07-31T10:03:17Z</time>
      </trkpt>
      <trkpt lat="42.9091" lon="0.15633">
        <ele>1967.9</ele>
        <time>2016-07-31T10:03:24Z</time>
      </trkpt>
      <trkpt lat="42.90918" lon="0.15627">
        <ele>1968.5</ele>
        <time>2016-07-31T10:03:30Z</time>
      </trkpt>
      <trkpt lat="42.90927" lon="0.15619">
        <ele>1969.3</ele>
        <time>2016-07-31T10:03:37Z</time>
      </trkpt>
      <trkpt lat="42.90936" lon="0.15614">
        <ele>1970</ele>
        <time>2016-07-31T10:03:43Z</time>
      </trkpt>
      <trkpt lat="42.90944" lon="0.15608">
        <ele>1970.8</ele>
        <time>2016-07-31T10:03:49Z</time>
      </trkpt>
      <trkpt lat="42.90953" lon="0.15603">
        <ele>1971.4</ele>
        <time>2016-07-31T10:03:55Z</time>
      </trkpt>
      <trkpt lat="42.90962" lon="0.15602">
        <ele>1972</ele>
        <time>2016-07-31T10:04:01Z</time>
      </trkpt>
      <trkpt lat="42.90972" lon="0.15606">
        <ele>1972.9</ele>
        <time>2016-07-31T10:04:08Z</time>
      </trkpt>
      <trkpt lat="42.9098" lon="0.15615">
        <ele>1973.5</ele>
        <time>2016-07-31T10:04:15Z</time>
      </trkpt>
      <trkpt lat="42.90988" lon="0.15624">
        <ele>1974.6</ele>
        <time>2016-07-31T10:04:22Z</time>
      </trkpt>
      <trkpt lat="42.90997" lon="0.15628">
        <ele>1975.7</ele>
        <time>2016-07-31T10:04:28Z</time>
      </trkpt>
      <trkpt lat="42.91006" lon="0.15628">
        <ele>1976.7</ele>
        <time>2016-07-31T10:04:34Z</time>
      </trkpt>
      <trkpt lat="42.91015" lon="0.15621">
        <ele>1977.6</ele>
        <time>2016-07-31T10:04:41Z</time>
      </trkpt>
      <trkpt lat="42.91019" lon="0.15609">
        <ele>1978.3</ele>
        <time>2016-07-31T10:04:48Z</time>
      </trkpt>
      <trkpt lat="42.91019" lon="0.15596">
        <ele>1978.9</ele>
        <time>2016-07-31T10:04:54Z</time>
      </trkpt>
      <trkpt lat="42.91016" lon="0.15584">
        <ele>1979.5</ele>
        <time>2016-07-31T10:05:00Z</time>
      </trkpt>
      <trkpt lat="42.9101" lon="0.15574">
        <ele>1980.1</ele>
        <time>2016-07-31T10:05:06Z</time>
      </trkpt>
      <trkpt lat="42.91005" lon="0.15564">
        <ele>1981</ele>
        <time>2016-07-31T10:05:12Z</time>
      </trkpt>
      <trkpt lat="42.90996" lon="0.15558">
        <ele>1982.5</ele>
        <time>2016-07-31T10:05:19Z</time>
      </trkpt>
      <trkpt lat="42.90987" lon="0.15551">
        <ele>1984</ele>
        <time>2016-07-31T10:05:25Z</time>
      </trkpt>
      <trkpt lat="42.90978" lon="0.15545">
        <ele>1985.3</ele>
        <time>2016-07-31T10:05:32Z</time>
      </trkpt>
      <trkpt lat="42.9097" lon="0.1554">
        <ele>1986.2</ele>
        <time>2016-07-31T10:05:38Z</time>
      </trkpt>
      <trkpt lat="42.90963" lon="0.15532">
        <ele>1987.3</ele>
        <time>2016-07-31T10:05:44Z</time>
      </trkpt>
      <trkpt lat="42.90956" lon="0.15522">
        <ele>1989.2</ele>
        <time>2016-07-31T10:05:51Z</time>
      </trkpt>
      <trkpt lat="42.9095" lon="0.15512">
        <ele>1990.9</ele>
        <time>2016-07-31T10:05:58Z</time>
      </trkpt>
      <trkpt lat="42.90944" lon="0.15502">
        <ele>1992.2</ele>
        <time>2016-07-31T10:06:05Z</time>
      </trkpt>
      <trkpt lat="42.90937" lon="0.15492">
        <ele>1992.7</ele>
        <time>2016-07-31T10:06:12Z</time>
      </trkpt>
      <trkpt lat="42.90931" lon="0.15482">
        <ele>1994.2</ele>
        <time>2016-07-31T10:06:19Z</time>
      </trkpt>
      <trkpt lat="42.90924" lon="0.15473">
        <ele>1996</ele>
        <time>2016-07-31T10:06:26Z</time>
      </trkpt>
      <trkpt lat="42.90916" lon="0.15466">
        <ele>1997.7</ele>
        <time>2016-07-31T10:06:33Z</time>
      </trkpt>
      <trkpt lat="42.90908" lon="0.15463">
        <ele>1999.2</ele>
        <time>2016-07-31T10:06:39Z</time>
      </trkpt>
      <trkpt lat="42.90897" lon="0.15462">
        <ele>2000.5</ele>
        <time>2016-07-31T10:06:46Z</time>
      </trkpt>
      <trkpt lat="42.90888" lon="0.15462">
        <ele>2001.5</ele>
        <time>2016-07-31T10:06:52Z</time>
      </trkpt>
      <trkpt lat="42.90879" lon="0.15457">
        <ele>2002.3</ele>
        <time>2016-07-31T10:06:59Z</time>
      </trkpt>
      <trkpt lat="42.90872" lon="0.15447">
        <ele>2003.2</ele>
        <time>2016-07-31T10:07:06Z</time>
      </trkpt>
      <trkpt lat="42.90867" lon="0.15435">
        <ele>2003.7</ele>
        <time>2016-07-31T10:07:12Z</time>
      </trkpt>
      <trkpt lat="42.90863" lon="0.15423">
        <ele>2004.2</ele>
        <time>2016-07-31T10:07:18Z</time>
      </trkpt>
      <trkpt lat="42.90858" lon="0.15411">
        <ele>2005</ele>
        <time>2016-07-31T10:07:25Z</time>
      </trkpt>
      <trkpt lat="42.90854" lon="0.15398">
        <ele>2005.4</ele>
        <time>2016-07-31T10:07:32Z</time>
      </trkpt>
      <trkpt lat="42.9085" lon="0.15386">
        <ele>2006.1</ele>
        <time>2016-07-31T10:07:39Z</time>
      </trkpt>
      <trkpt lat="42.90846" lon="0.15373">
        <ele>2006.5</ele>
        <time>2016-07-31T10:07:46Z</time>
      </trkpt>
      <trkpt lat="42.90844" lon="0.1536">
        <ele>2007.1</ele>
        <time>2016-07-31T10:07:53Z</time>
      </trkpt>
      <trkpt lat="42.90844" lon="0.15346">
        <ele>2008.1</ele>
        <time>2016-07-31T10:08:01Z</time>
      </trkpt>
      <trkpt lat="42.90845" lon="0.15333">
        <ele>2008.8</ele>
        <time>2016-07-31T10:08:09Z</time>
      </trkpt>
      <trkpt lat="42.90849" lon="0.1532">
        <ele>2009.4</ele>
        <time>2016-07-31T10:08:17Z</time>
      </trkpt>
      <trkpt lat="42.90853" lon="0.15308">
        <ele>2010.4</ele>
        <time>2016-07-31T10:08:25Z</time>
      </trkpt>
      <trkpt lat="42.90858" lon="0.15296">
        <ele>2011.1</ele>
        <time>2016-07-31T10:08:32Z</time>
      </trkpt>
      <trkpt lat="42.90862" lon="0.15283">
        <ele>2012.3</ele>
        <time>2016-07-31T10:08:40Z</time>
      </trkpt>
      <trkpt lat="42.90866" lon="0.15272">
        <ele>2013.5</ele>
        <time>2016-07-31T10:08:47Z</time>
      </trkpt>
      <trkpt lat="42.9087" lon="0.15261">
        <ele>2014.6</ele>
        <time>2016-07-31T10:08:54Z</time>
      </trkpt>
      <trkpt lat="42.90876" lon="0.15249">
        <ele>2015.6</ele>
        <time>2016-07-31T10:09:01Z</time>
      </trkpt>
      <trkpt lat="42.90879" lon="0.15236">
        <ele>2016.2</ele>
        <time>2016-07-31T10:09:08Z</time>
      </trkpt>
      <trkpt lat="42.90881" lon="0.15223">
        <ele>2017.2</ele>
        <time>2016-07-31T10:09:15Z</time>
      </trkpt>
      <trkpt lat="42.90883" lon="0.1521">
        <ele>2018.7</ele>
        <time>2016-07-31T10:09:22Z</time>
      </trkpt>
      <trkpt lat="42.90885" lon="0.15197">
        <ele>2020.5</ele>
        <time>2016-07-31T10:09:29Z</time>
      </trkpt>
      <trkpt lat="42.90888" lon="0.15185">
        <ele>2021.7</ele>
        <time>2016-07-31T10:09:35Z</time>
      </trkpt>
      <trkpt lat="42.90891" lon="0.15172">
        <ele>2022.8</ele>
        <time>2016-07-31T10:09:42Z</time>
      </trkpt>
      <trkpt lat="42.90895" lon="0.1516">
        <ele>2023.4</ele>
        <time>2016-07-31T10:09:48Z</time>
      </trkpt>
      <trkpt lat="42.90898" lon="0.15147">
        <ele>2024.5</ele>
        <time>2016-07-31T10:09:55Z</time>
      </trkpt>
      <trkpt lat="42.90902" lon="0.15135">
        <ele>2025.4</ele>
        <time>2016-07-31T10:10:02Z</time>
      </trkpt>
      <trkpt lat="42.90902" lon="0.15121">
        <ele>2027</ele>
        <time>2016-07-31T10:10:09Z</time>
      </trkpt>
      <trkpt lat="42.90901" lon="0.15107">
        <ele>2028.3</ele>
        <time>2016-07-31T10:10:16Z</time>
      </trkpt>
      <trkpt lat="42.90898" lon="0.15095">
        <ele>2029.3</ele>
        <time>2016-07-31T10:10:22Z</time>
      </trkpt>
      <trkpt lat="42.90896" lon="0.15083">
        <ele>2029.7</ele>
        <time>2016-07-31T10:10:28Z</time>
      </trkpt>
      <trkpt lat="42.90893" lon="0.15071">
        <ele>2030.3</ele>
        <time>2016-07-31T10:10:34Z</time>
      </trkpt>
      <trkpt lat="42.9089" lon="0.15059">
        <ele>2031.1</ele>
        <time>2016-07-31T10:10:40Z</time>
      </trkpt>
      <trkpt lat="42.90886" lon="0.15048">
        <ele>2031.5</ele>
        <time>2016-07-31T10:10:46Z</time>
      </trkpt>
      <trkpt lat="42.90881" lon="0.15037">
        <ele>2032.3</ele>
        <time>2016-07-31T10:10:52Z</time>
      </trkpt>
      <trkpt lat="42.90877" lon="0.15026">
        <ele>2033</ele>
        <time>2016-07-31T10:10:58Z</time>
      </trkpt>
      <trkpt lat="42.90871" lon="0.15015">
        <ele>2034.2</ele>
        <time>2016-07-31T10:11:05Z</time>
      </trkpt>
      <trkpt lat="42.90866" lon="0.15004">
        <ele>2035.1</ele>
        <time>2016-07-31T10:11:11Z</time>
      </trkpt>
      <trkpt lat="42.90863" lon="0.14992">
        <ele>2035.7</ele>
        <time>2016-07-31T10:11:17Z</time>
      </trkpt>
      <trkpt lat="42.90861" lon="0.14979">
        <ele>2036.9</ele>
        <time>2016-07-31T10:11:24Z</time>
      </trkpt>
      <trkpt lat="42.9086" lon="0.14966">
        <ele>2038.1</ele>
        <time>2016-07-31T10:11:31Z</time>
      </trkpt>
      <trkpt lat="42.90861" lon="0.14953">
        <ele>2039.2</ele>
        <time>2016-07-31T10:11:38Z</time>
      </trkpt>
      <trkpt lat="42.90864" lon="0.1494">
        <ele>2040.2</ele>
        <time>2016-07-31T10:11:45Z</time>
      </trkpt>
      <trkpt lat="42.90867" lon="0.14928">
        <ele>2041.2</ele>
        <time>2016-07-31T10:11:52Z</time>
      </trkpt>
      <trkpt lat="42.90871" lon="0.14916">
        <ele>2042</ele>
        <time>2016-07-31T10:11:59Z</time>
      </trkpt>
      <trkpt lat="42.90871" lon="0.14901">
        <ele>2042.5</ele>
        <time>2016-07-31T10:12:06Z</time>
      </trkpt>
      <trkpt lat="42.90865" lon="0.14891">
        <ele>2042.9</ele>
        <time>2016-07-31T10:12:12Z</time>
      </trkpt>
      <trkpt lat="42.90856" lon="0.14886">
        <ele>2043.8</ele>
        <time>2016-07-31T10:12:18Z</time>
      </trkpt>
      <trkpt lat="42.90846" lon="0.14886">
        <ele>2045.3</ele>
        <time>2016-07-31T10:12:24Z</time>
      </trkpt>
      <trkpt lat="42.90835" lon="0.14888">
        <ele>2047.2</ele>
        <time>2016-07-31T10:12:30Z</time>
      </trkpt>
      <trkpt lat="42.90826" lon="0.14889">
        <ele>2048.4</ele>
        <time>2016-07-31T10:12:36Z</time>
      </trkpt>
      <trkpt lat="42.90817" lon="0.14889">
        <ele>2049.6</ele>
        <time>2016-07-31T10:12:42Z</time>
      </trkpt>
      <trkpt lat="42.90808" lon="0.14888">
        <ele>2051</ele>
        <time>2016-07-31T10:12:48Z</time>
      </trkpt>
      <trkpt lat="42.90798" lon="0.14885">
        <ele>2052.3</ele>
        <time>2016-07-31T10:12:55Z</time>
      </trkpt>
      <trkpt lat="42.9079" lon="0.1488">
        <ele>2053.1</ele>
        <time>2016-07-31T10:13:02Z</time>
      </trkpt>
      <trkpt lat="42.90781" lon="0.14875">
        <ele>2054.9</ele>
        <time>2016-07-31T10:13:10Z</time>
      </trkpt>
      <trkpt lat="42.90771" lon="0.14873">
        <ele>2057.1</ele>
        <time>2016-07-31T10:13:17Z</time>
      </trkpt>
      <trkpt lat="42.9076" lon="0.14873">
        <ele>2059</ele>
        <time>2016-07-31T10:13:24Z</time>
      </trkpt>
      <trkpt lat="42.90751" lon="0.14874">
        <ele>2059.9</ele>
        <time>2016-07-31T10:13:31Z</time>
      </trkpt>
      <trkpt lat="42.90742" lon="0.14875">
        <ele>2061.3</ele>
        <time>2016-07-31T10:13:38Z</time>
      </trkpt>
      <trkpt lat="42.90733" lon="0.14871">
        <ele>2062.1</ele>
        <time>2016-07-31T10:13:45Z</time>
      </trkpt>
      <trkpt lat="42.90725" lon="0.14865">
        <ele>2062.9</ele>
        <time>2016-07-31T10:13:52Z</time>
      </trkpt>
      <trkpt lat="42.90717" lon="0.14857">
        <ele>2063.8</ele>
        <time>2016-07-31T10:13:59Z</time>
      </trkpt>
      <trkpt lat="42.90708" lon="0.14851">
        <ele>2065.2</ele>
        <time>2016-07-31T10:14:06Z</time>
      </trkpt>
      <trkpt lat="42.907" lon="0.14844">
        <ele>2066.2</ele>
        <time>2016-07-31T10:14:13Z</time>
      </trkpt>
      <trkpt lat="42.90692" lon="0.14837">
        <ele>2066.9</ele>
        <time>2016-07-31T10:14:20Z</time>
      </trkpt>
      <trkpt lat="42.90683" lon="0.14831">
        <ele>2067.8</ele>
        <time>2016-07-31T10:14:27Z</time>
      </trkpt>
      <trkpt lat="42.90674" lon="0.14828">
        <ele>2068.8</ele>
        <time>2016-07-31T10:14:34Z</time>
      </trkpt>
      <trkpt lat="42.90665" lon="0.14825">
        <ele>2070.1</ele>
        <time>2016-07-31T10:14:41Z</time>
      </trkpt>
      <trkpt lat="42.90656" lon="0.14821">
        <ele>2071.2</ele>
        <time>2016-07-31T10:14:48Z</time>
      </trkpt>
      <trkpt lat="42.90646" lon="0.1482">
        <ele>2072.1</ele>
        <time>2016-07-31T10:14:55Z</time>
      </trkpt>
      <trkpt lat="42.90637" lon="0.14822">
        <ele>2072.4</ele>
        <time>2016-07-31T10:15:01Z</time>
      </trkpt>
      <trkpt lat="42.90629" lon="0.14827">
        <ele>2072.3</ele>
        <time>2016-07-31T10:15:08Z</time>
      </trkpt>
      <trkpt lat="42.90619" lon="0.14831">
        <ele>2072.2</ele>
        <time>2016-07-31T10:15:15Z</time>
      </trkpt>
      <trkpt lat="42.9061" lon="0.1483">
        <ele>2073.6</ele>
        <time>2016-07-31T10:15:21Z</time>
      </trkpt>
      <trkpt lat="42.90604" lon="0.14821">
        <ele>2074.8</ele>
        <time>2016-07-31T10:15:27Z</time>
      </trkpt>
      <trkpt lat="42.90605" lon="0.14808">
        <ele>2075.2</ele>
        <time>2016-07-31T10:15:32Z</time>
      </trkpt>
      <trkpt lat="42.90613" lon="0.148">
        <ele>2076.4</ele>
        <time>2016-07-31T10:15:40Z</time>
      </trkpt>
      <trkpt lat="42.90623" lon="0.14796">
        <ele>2076.4</ele>
        <time>2016-07-31T10:15:47Z</time>
      </trkpt>
      <trkpt lat="42.90631" lon="0.14792">
        <ele>2076.6</ele>
        <time>2016-07-31T10:15:54Z</time>
      </trkpt>
      <trkpt lat="42.90641" lon="0.14789">
        <ele>2077.9</ele>
        <time>2016-07-31T10:16:02Z</time>
      </trkpt>
      <trkpt lat="42.9065" lon="0.14786">
        <ele>2079</ele>
        <time>2016-07-31T10:16:09Z</time>
      </trkpt>
      <trkpt lat="42.90659" lon="0.14784">
        <ele>2080.1</ele>
        <time>2016-07-31T10:16:16Z</time>
      </trkpt>
      <trkpt lat="42.90669" lon="0.14783">
        <ele>2081</ele>
        <time>2016-07-31T10:16:23Z</time>
      </trkpt>
      <trkpt lat="42.90679" lon="0.14781">
        <ele>2081.9</ele>
        <time>2016-07-31T10:16:30Z</time>
      </trkpt>
      <trkpt lat="42.90688" lon="0.14777">
        <ele>2082.9</ele>
        <time>2016-07-31T10:16:37Z</time>
      </trkpt>
      <trkpt lat="42.90696" lon="0.14774">
        <ele>2083.8</ele>
        <time>2016-07-31T10:16:44Z</time>
      </trkpt>
      <trkpt lat="42.90705" lon="0.14772">
        <ele>2084.4</ele>
        <time>2016-07-31T10:16:51Z</time>
      </trkpt>
      <trkpt lat="42.90715" lon="0.14769">
        <ele>2085.2</ele>
        <time>2016-07-31T10:16:58Z</time>
      </trkpt>
      <trkpt lat="42.90724" lon="0.14766">
        <ele>2086.1</ele>
        <time>2016-07-31T10:17:05Z</time>
      </trkpt>
      <trkpt lat="42.90734" lon="0.14761">
        <ele>2086.9</ele>
        <time>2016-07-31T10:17:12Z</time>
      </trkpt>
      <trkpt lat="42.90743" lon="0.14756">
        <ele>2087.8</ele>
        <time>2016-07-31T10:17:19Z</time>
      </trkpt>
      <trkpt lat="42.9075" lon="0.14749">
        <ele>2088.8</ele>
        <time>2016-07-31T10:17:26Z</time>
      </trkpt>
      <trkpt lat="42.90758" lon="0.14741">
        <ele>2090.1</ele>
        <time>2016-07-31T10:17:33Z</time>
      </trkpt>
      <trkpt lat="42.90765" lon="0.14733">
        <ele>2091.7</ele>
        <time>2016-07-31T10:17:40Z</time>
      </trkpt>
      <trkpt lat="42.90771" lon="0.14722">
        <ele>2093.1</ele>
        <time>2016-07-31T10:17:47Z</time>
      </trkpt>
      <trkpt lat="42.90778" lon="0.14714">
        <ele>2094.5</ele>
        <time>2016-07-31T10:17:54Z</time>
      </trkpt>
      <trkpt lat="42.90785" lon="0.14705">
        <ele>2096.1</ele>
        <time>2016-07-31T10:18:01Z</time>
      </trkpt>
      <trkpt lat="42.90792" lon="0.14696">
        <ele>2097.8</ele>
        <time>2016-07-31T10:18:08Z</time>
      </trkpt>
      <trkpt lat="42.90799" lon="0.14687">
        <ele>2099.6</ele>
        <time>2016-07-31T10:18:15Z</time>
      </trkpt>
      <trkpt lat="42.90806" lon="0.14678">
        <ele>2100.9</ele>
        <time>2016-07-31T10:18:22Z</time>
      </trkpt>
      <trkpt lat="42.90813" lon="0.1467">
        <ele>2102.9</ele>
        <time>2016-07-31T10:18:29Z</time>
      </trkpt>
      <trkpt lat="42.90819" lon="0.14661">
        <ele>2104.2</ele>
        <time>2016-07-31T10:18:36Z</time>
      </trkpt>
      <trkpt lat="42.90826" lon="0.14653">
        <ele>2106</ele>
        <time>2016-07-31T10:18:43Z</time>
      </trkpt>
      <trkpt lat="42.90833" lon="0.14642">
        <ele>2107.5</ele>
        <time>2016-07-31T10:18:50Z</time>
      </trkpt>
      <trkpt lat="42.90841" lon="0.14633">
        <ele>2109.4</ele>
        <time>2016-07-31T10:18:57Z</time>
      </trkpt>
      <trkpt lat="42.90848" lon="0.14625">
        <ele>2110.7</ele>
        <time>2016-07-31T10:19:04Z</time>
      </trkpt>
      <trkpt lat="42.90854" lon="0.14614">
        <ele>2112</ele>
        <time>2016-07-31T10:19:11Z</time>
      </trkpt>
      <trkpt lat="42.9086" lon="0.14604">
        <ele>2112.9</ele>
        <time>2016-07-31T10:19:18Z</time>
      </trkpt>
      <trkpt lat="42.90862" lon="0.14591">
        <ele>2114</ele>
        <time>2016-07-31T10:19:25Z</time>
      </trkpt>
      <trkpt lat="42.90859" lon="0.14577">
        <ele>2115.1</ele>
        <time>2016-07-31T10:19:33Z</time>
      </trkpt>
      <trkpt lat="42.90855" lon="0.14565">
        <ele>2116.1</ele>
        <time>2016-07-31T10:19:40Z</time>
      </trkpt>
      <trkpt lat="42.90853" lon="0.14552">
        <ele>2116.3</ele>
        <time>2016-07-31T10:19:47Z</time>
      </trkpt>
      <trkpt lat="42.90848" lon="0.1454">
        <ele>2116.5</ele>
        <time>2016-07-31T10:19:55Z</time>
      </trkpt>
      <trkpt lat="42.9084" lon="0.14532">
        <ele>2118.9</ele>
        <time>2016-07-31T10:20:01Z</time>
      </trkpt>
      <trkpt lat="42.90833" lon="0.14521">
        <ele>2120.8</ele>
        <time>2016-07-31T10:20:08Z</time>
      </trkpt>
      <trkpt lat="42.90825" lon="0.14527">
        <ele>2121.5</ele>
        <time>2016-07-31T10:37:20Z</time>
      </trkpt>
      <trkpt lat="42.90816" lon="0.14531">
        <ele>2122.1</ele>
        <time>2016-07-31T10:37:37Z</time>
      </trkpt>
      <trkpt lat="42.90825" lon="0.14527">
        <ele>2122.9</ele>
        <time>2016-07-31T10:37:49Z</time>
      </trkpt>
      <trkpt lat="42.90838" lon="0.14533">
        <ele>2123.3</ele>
        <time>2016-07-31T10:38:50Z</time>
      </trkpt>
      <trkpt lat="42.90828" lon="0.14527">
        <ele>2123</ele>
        <time>2016-07-31T10:39:37Z</time>
      </trkpt>
      <trkpt lat="42.90841" lon="0.14533">
        <ele>2124.5</ele>
        <time>2016-07-31T10:43:41Z</time>
      </trkpt>
      <trkpt lat="42.90834" lon="0.14523">
        <ele>2124.4</ele>
        <time>2016-07-31T10:44:23Z</time>
      </trkpt>
      <trkpt lat="42.90827" lon="0.14532">
        <ele>2124.4</ele>
        <time>2016-07-31T10:46:52Z</time>
      </trkpt>
      <trkpt lat="42.90818" lon="0.1453">
        <ele>2123.4</ele>
        <time>2016-07-31T10:47:05Z</time>
      </trkpt>
      <trkpt lat="42.90809" lon="0.14532">
        <ele>2123.5</ele>
        <time>2016-07-31T10:47:24Z</time>
      </trkpt>
      <trkpt lat="42.908" lon="0.14531">
        <ele>2123.6</ele>
        <time>2016-07-31T10:47:33Z</time>
      </trkpt>
      <trkpt lat="42.90795" lon="0.14521">
        <ele>2123.6</ele>
        <time>2016-07-31T10:47:48Z</time>
      </trkpt>
      <trkpt lat="42.90787" lon="0.1451">
        <ele>2123.5</ele>
        <time>2016-07-31T10:47:53Z</time>
      </trkpt>
      <trkpt lat="42.90785" lon="0.14495">
        <ele>2123.6</ele>
        <time>2016-07-31T10:48:05Z</time>
      </trkpt>
      <trkpt lat="42.90778" lon="0.14483">
        <ele>2123.6</ele>
        <time>2016-07-31T10:48:09Z</time>
      </trkpt>
    </trkseg>
  </trk>
</gpx>